Darstellungsparameter: Aktuell verwendete Einstellungen:
Skalierung der Graphiken ... ?
xyx+y,   Skalierungsfaktor:      Skalierung: Modus: x, Faktor: 1
Darstellungszeitraum ... ?
Vom - - bis: - -   Zeitraum: 22.04.2020 - 20.05.2020
Min/Max/Avg-Anzeige ... ?
Zeige MMA aktuell
Zeige MMA Monat
Zeige MMA alles
Zeige --A aktuell
Zeige --A Monat
Zeige --A alles
Keine MMA-Anzeige
MMA:
Average (ber die Originaldaten)
MMA-Basis: 22.04.2020 - 20.05.2020
Quicknavigation für Darstellung... ?
Tage:      1T, 2T, 3T, 5T -1T -2T -3T -5T +1T +2T +3T +5T
Wochen: 1W, 2W, 3W -1W -2W -3W +1W +2W +3W
Monate: 1M, 3M, 6M -1M -3M -6M +1M +3M +6M
Jahre:    1J, 3J, 5J, 10J -1J -3J -5J -10J +1J +3J +5J +10J
Nutze für die Darstellung ... ?
Originaldaten oder Mittelwerte auf ...
Stundenbasis Tagesbasis Wochenbasis
Monatsbasis Jahresbasis      Datenbasis: Original-Daten
Darstellen als:
Statistik (Auto) Statistik J:M      Darstellung:
Zur Graphik,    zurück zur Übersicht aller Sensoren.
 
Tabellarische Datenbersicht: ?
 
Sensor: Nr:Datum:Temp:Feuchte:
Aussen-T/F 1 22-04-2020 00:02:18 11.1 C 20 %
2 22-04-2020 00:12:18 10.6 C 20 %
3 22-04-2020 00:22:17 11.1 C 20 %
4 22-04-2020 00:32:18 11.4 C 20 %
5 22-04-2020 00:42:18 10.9 C 20 %
6 22-04-2020 00:52:17 11 C 20 %
7 22-04-2020 01:02:17 10.8 C 20 %
8 22-04-2020 01:12:17 10 C 21 %
9 22-04-2020 01:22:17 9.9 C 25 %
10 22-04-2020 01:32:18 9.7 C 25 %
11 22-04-2020 01:42:18 10.2 C 21 %
12 22-04-2020 01:52:17 9.9 C 23 %
13 22-04-2020 02:02:17 9.9 C 23 %
14 22-04-2020 02:12:17 9.8 C 25 %
15 22-04-2020 02:22:17 9.5 C 25 %
16 22-04-2020 02:32:17 9.3 C 25 %
17 22-04-2020 02:42:17 9.7 C 25 %
18 22-04-2020 02:52:17 9.3 C 25 %
19 22-04-2020 03:02:17 9.5 C 25 %
20 22-04-2020 03:12:17 9 C 25 %
21 22-04-2020 03:22:18 8.8 C 26 %
22 22-04-2020 03:32:18 8.5 C 27 %
23 22-04-2020 03:42:18 8.4 C 27 %
24 22-04-2020 03:52:17 8.3 C 27 %
25 22-04-2020 04:02:18 8.4 C 27 %
Sensor: Nr:Datum:Temp:Feuchte:
Aussen-T/F 26 22-04-2020 04:12:18 8.3 C 27 %
27 22-04-2020 04:22:17 8 C 27 %
28 22-04-2020 04:32:18 7.9 C 27 %
29 22-04-2020 04:42:18 7.9 C 27 %
30 22-04-2020 04:52:17 7.4 C 28 %
31 22-04-2020 05:02:18 7.5 C 28 %
32 22-04-2020 05:12:18 7.3 C 28 %
33 22-04-2020 05:22:17 7.1 C 29 %
34 22-04-2020 05:32:17 7.1 C 29 %
35 22-04-2020 05:42:18 6.9 C 30 %
36 22-04-2020 05:52:17 6.7 C 30 %
37 22-04-2020 06:02:18 6.7 C 30 %
38 22-04-2020 06:12:18 6.1 C 31 %
39 22-04-2020 06:22:17 5.8 C 32 %
40 22-04-2020 06:32:17 5.6 C 33 %
41 22-04-2020 06:42:17 5.3 C 35 %
42 22-04-2020 06:52:17 5.6 C 35 %
43 22-04-2020 07:02:17 5.6 C 35 %
44 22-04-2020 07:12:17 5.4 C 35 %
45 22-04-2020 07:22:18 5.9 C 35 %
46 22-04-2020 07:32:17 5.5 C 35 %
47 22-04-2020 07:42:17 5.7 C 35 %
48 22-04-2020 07:52:17 5.9 C 35 %
49 22-04-2020 08:02:17 6.5 C 34 %
50 22-04-2020 08:12:17 6.6 C 34 %
Sensor: Nr:Datum:Temp:Feuchte:
Aussen-T/F 51 22-04-2020 08:22:17 7 C 33 %
52 22-04-2020 08:32:17 7.5 C 32 %
53 22-04-2020 08:42:17 8 C 31 %
54 22-04-2020 08:52:18 8.9 C 30 %
55 22-04-2020 09:02:18 9.1 C 30 %
56 22-04-2020 09:12:18 9.1 C 30 %
57 22-04-2020 09:22:17 10.1 C 26 %
58 22-04-2020 09:32:17 10.7 C 26 %
59 22-04-2020 09:42:17 10.7 C 26 %
60 22-04-2020 09:52:17 11.3 C 24 %
61 22-04-2020 10:02:17 11.5 C 24 %
62 22-04-2020 10:12:17 12.5 C 20 %
63 22-04-2020 10:22:17 13 C 20 %
64 22-04-2020 10:32:17 13.7 C 20 %
65 22-04-2020 10:42:17 14.2 C 20 %
66 22-04-2020 10:52:17 14.8 C 20 %
67 22-04-2020 11:02:17 15.4 C 20 %
68 22-04-2020 11:12:17 15.7 C 20 %
69 22-04-2020 11:22:17 16.2 C 20 %
70 22-04-2020 11:32:17 16.4 C 20 %
71 22-04-2020 11:42:17 17.1 C 20 %
72 22-04-2020 11:52:18 17.1 C 20 %
73 22-04-2020 12:02:18 17.9 C 20 %
74 22-04-2020 12:12:18 17.6 C 20 %
75 22-04-2020 12:22:17 17.7 C 20 %
Sensor: Nr:Datum:Temp:Feuchte:
Aussen-T/F 76 22-04-2020 12:32:17 17.7 C 20 %
77 22-04-2020 12:42:17 17.7 C 20 %
78 22-04-2020 12:52:18 18 C 20 %
79 22-04-2020 13:02:17 18.6 C 20 %
80 22-04-2020 13:12:17 19.3 C 20 %
81 22-04-2020 13:22:17 19 C 20 %
82 22-04-2020 13:32:17 18.9 C 20 %
83 22-04-2020 13:42:17 19.1 C 20 %
84 22-04-2020 13:52:17 19.4 C 20 %
85 22-04-2020 14:02:17 19.8 C 20 %
86 22-04-2020 14:12:17 20.3 C 20 %
87 22-04-2020 14:22:17 21.2 C 20 %
88 22-04-2020 14:32:17 25.4 C 20 %
89 22-04-2020 14:42:17 27.1 C 20 %
90 22-04-2020 14:52:17 25.8 C 20 %
91 22-04-2020 15:02:17 24.9 C 20 %
92 22-04-2020 15:12:18 26.4 C 20 %
93 22-04-2020 15:22:17 27.6 C 20 %
94 22-04-2020 15:32:17 27 C 20 %
95 22-04-2020 15:42:17 25.4 C 20 %
96 22-04-2020 15:52:17 25.7 C 20 %
97 22-04-2020 16:02:17 25.3 C 20 %
98 22-04-2020 16:12:17 27.2 C 20 %
99 22-04-2020 16:22:17 26.8 C 20 %
100 22-04-2020 16:32:18 27.7 C 20 %
Sensor: Nr:Datum:Temp:Feuchte:
Aussen-T/F 101 22-04-2020 16:42:18 25.2 C 20 %
102 22-04-2020 16:52:17 26.3 C 20 %
103 22-04-2020 17:02:17 25.2 C 20 %
104 22-04-2020 17:12:17 24.6 C 20 %
105 22-04-2020 17:22:17 25.1 C 20 %
106 22-04-2020 17:32:17 25.5 C 20 %
107 22-04-2020 17:42:17 25.6 C 20 %
108 22-04-2020 17:52:17 25.2 C 20 %
109 22-04-2020 18:02:17 23.1 C 20 %
110 22-04-2020 18:12:17 22 C 20 %
111 22-04-2020 18:22:17 22.1 C 20 %
112 22-04-2020 18:32:17 21.9 C 20 %
113 22-04-2020 18:42:17 21.9 C 20 %
114 22-04-2020 18:52:17 21.6 C 20 %
115 22-04-2020 19:02:17 21.1 C 20 %
116 22-04-2020 19:12:17 21.2 C 20 %
117 22-04-2020 19:22:17 20.8 C 20 %
118 22-04-2020 19:32:18 20.4 C 20 %
119 22-04-2020 19:42:18 20.3 C 20 %
120 22-04-2020 19:52:17 20 C 20 %
121 22-04-2020 20:02:18 19.4 C 20 %
122 22-04-2020 20:12:18 18.4 C 20 %
123 22-04-2020 20:22:17 17 C 20 %
124 22-04-2020 20:32:17 16.3 C 20 %
125 22-04-2020 20:42:17 16.2 C 20 %
Sensor: Nr:Datum:Temp:Feuchte:
Aussen-T/F 126 22-04-2020 20:52:17 15.9 C 20 %
127 22-04-2020 21:02:17 15.7 C 20 %
128 22-04-2020 21:12:17 15 C 20 %
129 22-04-2020 21:22:17 14.6 C 20 %
130 22-04-2020 21:32:17 14.4 C 20 %
131 22-04-2020 21:42:17 14.4 C 20 %
132 22-04-2020 21:52:17 14.1 C 20 %
133 22-04-2020 22:02:17 13.7 C 20 %
134 22-04-2020 22:12:17 13.8 C 20 %
135 22-04-2020 22:22:17 14.2 C 20 %
136 22-04-2020 22:32:17 13.6 C 20 %
137 22-04-2020 22:42:17 13.5 C 20 %
138 22-04-2020 22:52:18 13.5 C 20 %
139 22-04-2020 23:02:17 13.7 C 20 %
140 22-04-2020 23:12:17 13.5 C 20 %
141 22-04-2020 23:22:17 13.2 C 20 %
142 22-04-2020 23:32:17 12.9 C 20 %
143 22-04-2020 23:42:17 13.2 C 20 %
144 22-04-2020 23:52:18 12.8 C 20 %
145 23-04-2020 00:02:17 12.6 C 20 %
146 23-04-2020 00:12:17 12.4 C 20 %
147 23-04-2020 00:22:17 12.4 C 20 %
148 23-04-2020 00:32:17 12.2 C 20 %
149 23-04-2020 00:42:17 12.2 C 20 %
150 23-04-2020 00:52:17 12.3 C 20 %
Sensor: Nr:Datum:Temp:Feuchte:
Aussen-T/F 151 23-04-2020 01:02:17 12.1 C 20 %
152 23-04-2020 01:12:17 11.9 C 20 %
153 23-04-2020 01:22:18 11 C 20 %
154 23-04-2020 01:32:17 12 C 20 %
155 23-04-2020 01:42:17 10.9 C 20 %
156 23-04-2020 01:52:17 10.5 C 22 %
157 23-04-2020 02:02:17 9.7 C 25 %
158 23-04-2020 02:12:17 9.7 C 26 %
159 23-04-2020 02:22:18 9.7 C 25 %
160 23-04-2020 02:32:17 9.8 C 26 %
161 23-04-2020 02:42:17 9.6 C 25 %
162 23-04-2020 02:52:17 9.3 C 26 %
163 23-04-2020 03:02:18 9.2 C 26 %
164 23-04-2020 03:12:18 9.2 C 26 %
165 23-04-2020 03:22:17 9.4 C 26 %
166 23-04-2020 03:32:17 9.4 C 26 %
167 23-04-2020 03:42:17 9.3 C 26 %
168 23-04-2020 03:52:17 9.1 C 26 %
169 23-04-2020 04:02:17 8.6 C 27 %
170 23-04-2020 04:12:17 8.1 C 29 %
171 23-04-2020 04:22:17 7.5 C 30 %
172 23-04-2020 04:32:17 7.2 C 32 %
173 23-04-2020 04:42:17 7.2 C 32 %
174 23-04-2020 04:52:17 6.9 C 33 %
175 23-04-2020 05:02:17 6.4 C 34 %
Sensor: Nr:Datum:Temp:Feuchte:
Aussen-T/F 176 23-04-2020 05:12:17 6.2 C 34 %
177 23-04-2020 05:22:17 5.9 C 35 %
178 23-04-2020 05:32:17 6 C 35 %
179 23-04-2020 05:42:17 6 C 35 %
180 23-04-2020 05:52:17 5.8 C 36 %
181 23-04-2020 06:02:17 5.8 C 36 %
182 23-04-2020 06:12:18 5.4 C 36 %
183 23-04-2020 06:22:17 5.4 C 36 %
184 23-04-2020 06:32:18 5.3 C 36 %
185 23-04-2020 06:42:18 5.3 C 36 %
186 23-04-2020 06:52:17 5.3 C 36 %
187 23-04-2020 07:02:17 5.3 C 37 %
188 23-04-2020 07:12:17 5.3 C 37 %
189 23-04-2020 07:22:17 5.2 C 37 %
190 23-04-2020 07:32:17 5.2 C 39 %
191 23-04-2020 07:42:17 5.2 C 39 %
192 23-04-2020 07:52:17 5.3 C 39 %
193 23-04-2020 08:02:17 5.4 C 39 %
194 23-04-2020 08:12:18 5.5 C 39 %
195 23-04-2020 08:22:18 5.9 C 39 %
196 23-04-2020 08:32:18 6.2 C 38 %
197 23-04-2020 08:42:18 6.5 C 38 %
198 23-04-2020 08:52:17 6.9 C 38 %
199 23-04-2020 09:02:17 7.7 C 36 %
200 23-04-2020 09:12:17 8.1 C 36 %
Sensor: Nr:Datum:Temp:Feuchte:
Aussen-T/F 201 23-04-2020 09:22:17 8.6 C 35 %
202 23-04-2020 09:32:17 9.2 C 35 %
203 23-04-2020 09:42:17 9.7 C 34 %
204 23-04-2020 09:52:17 9.9 C 34 %
205 23-04-2020 10:02:18 10.5 C 33 %
206 23-04-2020 10:12:18 11 C 32 %
207 23-04-2020 10:22:17 11.8 C 30 %
208 23-04-2020 10:32:17 12.7 C 28 %
209 23-04-2020 10:42:17 13.2 C 27 %
210 23-04-2020 10:52:17 14.8 C 22 %
211 23-04-2020 11:02:18 16 C 20 %
212 23-04-2020 11:12:18 16.3 C 20 %
213 23-04-2020 11:22:17 17.2 C 20 %
214 23-04-2020 11:32:17 17.4 C 20 %
215 23-04-2020 11:42:17 17.7 C 20 %
216 23-04-2020 11:52:18 17.9 C 20 %
217 23-04-2020 12:02:17 18.9 C 20 %
218 23-04-2020 12:12:17 18.2 C 20 %
219 23-04-2020 12:22:17 18 C 20 %
220 23-04-2020 12:32:18 18.5 C 20 %
221 23-04-2020 12:42:18 18.3 C 20 %
222 23-04-2020 12:52:17 18.4 C 20 %
223 23-04-2020 13:02:17 19.2 C 20 %
224 23-04-2020 13:12:17 19.5 C 20 %
225 23-04-2020 13:22:17 19.1 C 20 %
Sensor: Nr:Datum:Temp:Feuchte:
Aussen-T/F 226 23-04-2020 13:32:17 19.2 C 20 %
227 23-04-2020 13:42:17 19.7 C 20 %
228 23-04-2020 13:52:17 20.1 C 20 %
229 23-04-2020 14:02:17 20.4 C 20 %
230 23-04-2020 14:12:17 20.7 C 20 %
231 23-04-2020 14:22:17 21.6 C 20 %
232 23-04-2020 14:32:17 27.4 C 20 %
233 23-04-2020 14:42:17 29.1 C 20 %
234 23-04-2020 14:52:17 29 C 20 %
235 23-04-2020 15:02:17 29.3 C 20 %
236 23-04-2020 15:12:17 29.5 C 20 %
237 23-04-2020 15:22:18 28.8 C 20 %
238 23-04-2020 15:32:17 30.3 C 20 %
239 23-04-2020 15:42:17 31.4 C 20 %
240 23-04-2020 15:52:17 28.9 C 20 %
241 23-04-2020 16:02:18 27.7 C 20 %
242 23-04-2020 16:12:18 28.1 C 20 %
243 23-04-2020 16:22:17 28.4 C 20 %
244 23-04-2020 16:32:18 28.3 C 20 %
245 23-04-2020 16:42:18 29 C 20 %
246 23-04-2020 16:52:17 29.2 C 20 %
247 23-04-2020 17:02:17 31.6 C 20 %
248 23-04-2020 17:12:18 28.2 C 20 %
249 23-04-2020 17:22:17 28.6 C 20 %
250 23-04-2020 17:32:18 28.1 C 20 %
Sensor: Nr:Datum:Temp:Feuchte:
Aussen-T/F 251 23-04-2020 17:42:18 28 C 20 %
252 23-04-2020 17:52:18 30.1 C 20 %
253 23-04-2020 18:02:17 27.1 C 20 %
254 23-04-2020 18:12:17 24.5 C 20 %
255 23-04-2020 18:22:17 23.9 C 20 %
256 23-04-2020 18:32:17 23.6 C 20 %
257 23-04-2020 18:42:17 23.7 C 20 %
258 23-04-2020 18:52:17 23.2 C 20 %
259 23-04-2020 19:02:17 22.5 C 20 %
260 23-04-2020 19:12:17 22.4 C 20 %
261 23-04-2020 19:22:17 22 C 20 %
262 23-04-2020 19:32:18 21.2 C 20 %
263 23-04-2020 19:42:18 20 C 20 %
264 23-04-2020 19:52:17 18.6 C 20 %
265 23-04-2020 20:02:18 18.6 C 20 %
266 23-04-2020 20:12:18 17.9 C 20 %
267 23-04-2020 20:22:17 17.2 C 20 %
268 23-04-2020 20:32:18 16.5 C 20 %
269 23-04-2020 20:42:18 15.5 C 20 %
270 23-04-2020 20:52:18 14.3 C 20 %
271 23-04-2020 21:02:18 14 C 20 %
272 23-04-2020 21:12:18 14.1 C 20 %
273 23-04-2020 21:22:17 13.5 C 20 %
274 23-04-2020 21:32:17 13.1 C 20 %
275 23-04-2020 21:42:17 12.9 C 20 %
Sensor: Nr:Datum:Temp:Feuchte:
Aussen-T/F 276 23-04-2020 21:52:17 12.5 C 20 %
277 23-04-2020 22:02:17 12 C 23 %
278 23-04-2020 22:12:17 11.6 C 25 %
279 23-04-2020 22:22:17 11.5 C 25 %
280 23-04-2020 22:32:18 11 C 26 %
281 23-04-2020 22:42:18 11.1 C 26 %
282 23-04-2020 22:52:18 10.8 C 26 %
283 23-04-2020 23:02:18 10.4 C 27 %
284 23-04-2020 23:12:18 10.3 C 27 %
285 23-04-2020 23:22:18 9.6 C 29 %
286 23-04-2020 23:32:17 9.6 C 29 %
287 23-04-2020 23:42:17 9.6 C 29 %
288 23-04-2020 23:52:17 9.2 C 30 %
289 24-04-2020 00:02:18 9.2 C 30 %
290 24-04-2020 00:12:18 9.3 C 30 %
291 24-04-2020 00:22:17 9.2 C 30 %
292 24-04-2020 00:32:18 8.6 C 31 %
293 24-04-2020 00:42:18 8.4 C 31 %
294 24-04-2020 00:52:17 8.3 C 32 %
295 24-04-2020 01:02:18 8.1 C 32 %
296 24-04-2020 01:12:18 8.3 C 33 %
297 24-04-2020 01:22:17 8.1 C 32 %
298 24-04-2020 01:32:18 8.1 C 33 %
299 24-04-2020 01:42:18 8.2 C 33 %
300 24-04-2020 01:52:17 7.8 C 33 %
Sensor: Nr:Datum:Temp:Feuchte:
Aussen-T/F 301 24-04-2020 02:02:17 7.5 C 34 %
302 24-04-2020 02:12:17 7.1 C 34 %
303 24-04-2020 02:22:17 7 C 35 %
304 24-04-2020 02:32:18 7.2 C 35 %
305 24-04-2020 02:42:18 6.8 C 36 %
306 24-04-2020 02:52:18 7 C 35 %
307 24-04-2020 03:02:17 7 C 35 %
308 24-04-2020 03:12:18 6.8 C 36 %
309 24-04-2020 03:22:17 6.2 C 36 %
310 24-04-2020 03:32:17 6.4 C 37 %
311 24-04-2020 03:42:17 6.3 C 37 %
312 24-04-2020 03:52:17 6.2 C 37 %
313 24-04-2020 04:02:17 6.2 C 37 %
314 24-04-2020 04:12:17 6.1 C 37 %
315 24-04-2020 04:22:17 6 C 37 %
316 24-04-2020 04:32:17 5.9 C 38 %
317 24-04-2020 04:42:17 6.2 C 38 %
318 24-04-2020 04:52:17 6.3 C 38 %
319 24-04-2020 05:02:17 6.2 C 38 %
320 24-04-2020 05:12:17 6 C 38 %
321 24-04-2020 05:22:17 5.9 C 39 %
322 24-04-2020 05:32:18 6.3 C 38 %
323 24-04-2020 05:42:18 6.2 C 38 %
324 24-04-2020 05:52:17 6.1 C 38 %
325 24-04-2020 06:02:17 6.1 C 38 %
Sensor: Nr:Datum:Temp:Feuchte:
Aussen-T/F 326 24-04-2020 06:12:17 5.9 C 39 %
327 24-04-2020 06:22:18 6 C 39 %
328 24-04-2020 06:32:17 6 C 38 %
329 24-04-2020 06:42:17 6 C 39 %
330 24-04-2020 06:52:17 6.2 C 39 %
331 24-04-2020 07:02:17 6.3 C 38 %
332 24-04-2020 07:12:17 6.3 C 39 %
333 24-04-2020 07:22:17 6.3 C 39 %
334 24-04-2020 07:32:18 6.3 C 39 %
335 24-04-2020 07:42:18 6.5 C 39 %
336 24-04-2020 07:52:17 6.7 C 39 %
337 24-04-2020 08:02:18 6.8 C 39 %
338 24-04-2020 08:12:18 7.3 C 38 %
339 24-04-2020 08:22:17 8.2 C 36 %
340 24-04-2020 08:32:17 9 C 35 %
341 24-04-2020 08:42:17 9.6 C 35 %
342 24-04-2020 08:52:17 9.9 C 34 %
343 24-04-2020 09:02:17 10.4 C 33 %
344 24-04-2020 09:12:18 11 C 32 %
345 24-04-2020 09:22:17 11.5 C 31 %
346 24-04-2020 09:32:18 11.9 C 31 %
347 24-04-2020 09:42:18 12.5 C 30 %
348 24-04-2020 09:52:17 12.4 C 30 %
349 24-04-2020 10:02:17 12.8 C 30 %
350 24-04-2020 10:12:17 13.1 C 29 %
Sensor: Nr:Datum:Temp:Feuchte:
Aussen-T/F 351 24-04-2020 10:22:17 14 C 28 %
352 24-04-2020 10:32:17 14.2 C 28 %
353 24-04-2020 10:42:17 14.6 C 27 %
354 24-04-2020 10:52:17 15 C 26 %
355 24-04-2020 11:02:17 15.6 C 26 %
356 24-04-2020 11:12:18 15.6 C 26 %
357 24-04-2020 11:22:17 16.5 C 25 %
358 24-04-2020 11:32:18 16.6 C 24 %
359 24-04-2020 11:42:18 17 C 24 %
360 24-04-2020 11:52:17 17 C 23 %
361 24-04-2020 12:02:17 17.9 C 23 %
362 24-04-2020 12:12:17 18.1 C 21 %
363 24-04-2020 12:22:17 18.2 C 21 %
364 24-04-2020 12:32:18 18.4 C 21 %
365 24-04-2020 12:42:18 18.9 C 20 %
366 24-04-2020 12:52:18 19.3 C 20 %
367 24-04-2020 13:02:17 19.6 C 20 %
368 24-04-2020 13:12:17 20.2 C 20 %
369 24-04-2020 13:22:17 20.5 C 20 %
370 24-04-2020 13:32:18 20.7 C 20 %
371 24-04-2020 13:42:18 21 C 20 %
372 24-04-2020 13:52:17 21.3 C 20 %
373 24-04-2020 14:02:17 21.8 C 20 %
374 24-04-2020 14:12:17 22.2 C 20 %
375 24-04-2020 14:22:17 23.5 C 20 %
Sensor: Nr:Datum:Temp:Feuchte:
Aussen-T/F 376 24-04-2020 14:32:17 26.8 C 20 %
377 24-04-2020 14:42:17 28.5 C 20 %
378 24-04-2020 14:52:17 27.1 C 20 %
379 24-04-2020 15:02:18 28 C 20 %
380 24-04-2020 15:12:18 31 C 20 %
381 24-04-2020 15:22:17 27.6 C 20 %
382 24-04-2020 15:32:17 28.1 C 20 %
383 24-04-2020 15:42:18 27.5 C 20 %
384 24-04-2020 15:52:17 28.8 C 20 %
385 24-04-2020 16:02:18 28.7 C 20 %
386 24-04-2020 16:12:18 28.7 C 20 %
387 24-04-2020 16:22:18 27.2 C 20 %
388 24-04-2020 16:32:18 26.8 C 20 %
389 24-04-2020 16:42:18 28 C 20 %
390 24-04-2020 16:52:17 26.3 C 20 %
391 24-04-2020 17:02:17 26 C 20 %
392 24-04-2020 17:12:17 26.7 C 20 %
393 24-04-2020 17:22:18 26.4 C 20 %
394 24-04-2020 17:32:18 26.3 C 20 %
395 24-04-2020 17:42:18 24.2 C 20 %
396 24-04-2020 17:52:17 26 C 20 %
397 24-04-2020 18:02:18 24.1 C 20 %
398 24-04-2020 18:12:18 22.3 C 20 %
399 24-04-2020 18:22:17 22.2 C 20 %
400 24-04-2020 18:32:17 22 C 20 %
Sensor: Nr:Datum:Temp:Feuchte:
Aussen-T/F 401 24-04-2020 18:42:17 20.9 C 20 %
402 24-04-2020 18:52:18 21 C 20 %
403 24-04-2020 19:02:17 20.5 C 20 %
404 24-04-2020 19:12:17 20.3 C 20 %
405 24-04-2020 19:23:17 20 C 20 %
406 24-04-2020 19:32:17 19.9 C 20 %
407 24-04-2020 19:42:18 19.6 C 20 %
408 24-04-2020 19:53:17 19.2 C 20 %
409 24-04-2020 20:02:18 19 C 20 %
410 24-04-2020 20:12:18 18.5 C 20 %
411 24-04-2020 20:22:17 17.7 C 20 %
412 24-04-2020 20:32:18 17.3 C 20 %
413 24-04-2020 20:42:18 16.8 C 20 %
414 24-04-2020 20:52:18 16.1 C 20 %
415 24-04-2020 21:02:18 15.9 C 20 %
416 24-04-2020 21:12:18 15.5 C 20 %
417 24-04-2020 21:23:17 15.4 C 20 %
418 24-04-2020 21:33:17 15 C 20 %
419 24-04-2020 21:42:17 15.1 C 20 %
420 24-04-2020 21:52:17 14.7 C 20 %
421 24-04-2020 22:03:17 14.4 C 20 %
422 24-04-2020 22:13:17 14.1 C 20 %
423 24-04-2020 22:22:18 14.2 C 20 %
424 24-04-2020 22:32:18 14.4 C 20 %
425 24-04-2020 22:42:18 13.9 C 20 %
Sensor: Nr:Datum:Temp:Feuchte:
Aussen-T/F 426 24-04-2020 22:52:18 13.3 C 20 %
427 24-04-2020 23:02:18 13.2 C 20 %
428 24-04-2020 23:12:18 13.2 C 20 %
429 24-04-2020 23:22:17 12.7 C 20 %
430 24-04-2020 23:33:17 12.5 C 20 %
431 24-04-2020 23:43:17 13 C 20 %
432 24-04-2020 23:53:17 12.4 C 20 %
433 25-04-2020 00:02:18 12.6 C 20 %
434 25-04-2020 00:12:18 12.7 C 20 %
435 25-04-2020 00:23:17 12.6 C 20 %
436 25-04-2020 00:32:18 12.3 C 20 %
437 25-04-2020 00:42:18 11.8 C 20 %
438 25-04-2020 00:52:18 11.7 C 20 %
439 25-04-2020 01:03:17 11.7 C 20 %
440 25-04-2020 01:12:17 11.7 C 20 %
441 25-04-2020 01:23:17 11.3 C 22 %
442 25-04-2020 01:33:17 11 C 25 %
443 25-04-2020 01:43:17 11.1 C 25 %
444 25-04-2020 01:52:17 11.1 C 25 %
445 25-04-2020 02:02:18 10.4 C 26 %
446 25-04-2020 02:12:18 10.3 C 26 %
447 25-04-2020 02:23:17 9.7 C 29 %
448 25-04-2020 02:33:17 9.5 C 29 %
449 25-04-2020 02:43:17 9.4 C 30 %
450 25-04-2020 02:53:17 9.8 C 29 %
Sensor: Nr:Datum:Temp:Feuchte:
Aussen-T/F 451 25-04-2020 03:03:17 10.1 C 28 %
452 25-04-2020 03:13:17 10 C 28 %
453 25-04-2020 03:22:18 10 C 28 %
454 25-04-2020 03:33:17 9.7 C 30 %
455 25-04-2020 03:43:17 9 C 30 %
456 25-04-2020 03:53:17 9 C 30 %
457 25-04-2020 04:02:18 9.3 C 30 %
458 25-04-2020 04:12:18 8.9 C 30 %
459 25-04-2020 04:23:17 8.9 C 30 %
460 25-04-2020 04:33:18 8.7 C 31 %
461 25-04-2020 04:42:18 8.2 C 32 %
462 25-04-2020 04:53:17 8.3 C 33 %
463 25-04-2020 05:03:17 8.1 C 33 %
464 25-04-2020 05:13:18 7.5 C 35 %
465 25-04-2020 05:23:18 7 C 36 %
466 25-04-2020 05:32:18 7.1 C 37 %
467 25-04-2020 05:42:18 7.2 C 38 %
468 25-04-2020 05:53:18 7.6 C 38 %
469 25-04-2020 06:02:18 8 C 36 %
470 25-04-2020 06:12:18 8.2 C 36 %
471 25-04-2020 06:23:17 8.3 C 36 %
472 25-04-2020 06:33:17 8.3 C 36 %
473 25-04-2020 06:43:18 8.4 C 35 %
474 25-04-2020 06:53:17 8.3 C 35 %
475 25-04-2020 07:03:18 8.3 C 35 %
Sensor: Nr:Datum:Temp:Feuchte:
Aussen-T/F 476 25-04-2020 07:12:18 8.4 C 35 %
477 25-04-2020 07:23:17 8.3 C 35 %
478 25-04-2020 07:32:18 8.4 C 35 %
479 25-04-2020 07:42:18 8.4 C 35 %
480 25-04-2020 07:52:18 8.4 C 35 %
481 25-04-2020 08:03:17 8.4 C 34 %
482 25-04-2020 08:13:17 8.7 C 34 %
483 25-04-2020 08:23:17 8.6 C 34 %
484 25-04-2020 08:33:17 8.7 C 34 %
485 25-04-2020 08:43:17 8.8 C 34 %
486 25-04-2020 08:53:17 8.8 C 32 %
487 25-04-2020 09:03:17 9.3 C 32 %
488 25-04-2020 09:13:17 9.6 C 31 %
489 25-04-2020 09:23:17 9.7 C 31 %
490 25-04-2020 09:33:17 9.8 C 31 %
491 25-04-2020 09:43:17 10.2 C 30 %
492 25-04-2020 09:53:17 10.4 C 30 %
493 25-04-2020 10:03:17 10.8 C 30 %
494 25-04-2020 10:13:17 10.5 C 28 %
495 25-04-2020 10:23:17 11 C 28 %
496 25-04-2020 10:32:18 11.1 C 27 %
497 25-04-2020 10:42:18 10.5 C 27 %
498 25-04-2020 10:53:17 11.5 C 26 %
499 25-04-2020 11:03:17 12.4 C 25 %
500 25-04-2020 11:13:18 12 C 24 %
Sensor: Nr:Datum:Temp:Feuchte:
Aussen-T/F 501 25-04-2020 11:23:17 10.9 C 25 %
502 25-04-2020 11:32:18 11.6 C 25 %
503 25-04-2020 11:42:18 11.2 C 25 %
504 25-04-2020 11:53:17 11.8 C 25 %
505 25-04-2020 12:03:18 11.2 C 25 %
506 25-04-2020 12:13:18 11.5 C 25 %
507 25-04-2020 12:23:18 11.7 C 25 %
508 25-04-2020 12:33:17 11.7 C 25 %
509 25-04-2020 12:43:18 11.4 C 25 %
510 25-04-2020 12:53:17 12.3 C 24 %
511 25-04-2020 13:03:17 12.4 C 22 %
512 25-04-2020 13:13:17 12.5 C 23 %
513 25-04-2020 13:23:17 13.2 C 21 %
514 25-04-2020 13:33:17 13.1 C 21 %
515 25-04-2020 13:43:17 13.2 C 21 %
516 25-04-2020 13:53:17 13.7 C 20 %
517 25-04-2020 14:03:17 13.8 C 20 %
518 25-04-2020 14:13:17 14.1 C 20 %
519 25-04-2020 14:23:17 15.8 C 20 %
520 25-04-2020 14:33:17 21 C 20 %
521 25-04-2020 14:43:17 22.5 C 20 %
522 25-04-2020 14:53:17 20.7 C 20 %
523 25-04-2020 15:03:17 23.8 C 20 %
524 25-04-2020 15:13:17 23.8 C 20 %
525 25-04-2020 15:23:17 23.7 C 20 %
Sensor: Nr:Datum:Temp:Feuchte:
Aussen-T/F 526 25-04-2020 15:33:18 25.7 C 20 %
527 25-04-2020 15:43:18 25.7 C 20 %
528 25-04-2020 15:53:18 26.3 C 20 %
529 25-04-2020 16:03:17 23.2 C 20 %
530 25-04-2020 16:13:17 24.8 C 20 %
531 25-04-2020 16:23:17 23.9 C 20 %
532 25-04-2020 16:33:17 25.3 C 20 %
533 25-04-2020 16:43:17 22.5 C 20 %
534 25-04-2020 16:53:17 23.9 C 20 %
535 25-04-2020 17:03:17 25.1 C 20 %
536 25-04-2020 17:13:17 25.9 C 20 %
537 25-04-2020 17:23:17 26.4 C 20 %
538 25-04-2020 17:33:18 27.1 C 20 %
539 25-04-2020 17:43:18 22.5 C 20 %
540 25-04-2020 17:53:17 23.3 C 20 %
541 25-04-2020 18:03:17 20.1 C 20 %
542 25-04-2020 18:13:17 18.5 C 20 %
543 25-04-2020 18:23:17 18.6 C 20 %
544 25-04-2020 18:33:17 18.3 C 20 %
545 25-04-2020 18:43:17 17.9 C 20 %
546 25-04-2020 18:53:17 17.7 C 20 %
547 25-04-2020 19:03:17 17.5 C 20 %
548 25-04-2020 19:13:17 17.1 C 20 %
549 25-04-2020 19:23:17 16.9 C 20 %
550 25-04-2020 19:33:17 16.4 C 20 %
Sensor: Nr:Datum:Temp:Feuchte:
Aussen-T/F 551 25-04-2020 19:43:18 16.2 C 20 %
552 25-04-2020 19:53:17 15.7 C 20 %
553 25-04-2020 20:03:18 15.4 C 20 %
554 25-04-2020 20:13:18 14.7 C 20 %
555 25-04-2020 20:23:17 13.9 C 20 %
556 25-04-2020 20:33:17 13.8 C 20 %
557 25-04-2020 20:43:17 12.7 C 20 %
558 25-04-2020 20:53:17 12.4 C 20 %
559 25-04-2020 21:03:18 12.1 C 20 %
560 25-04-2020 21:13:18 12 C 20 %
561 25-04-2020 21:23:17 11.4 C 21 %
562 25-04-2020 21:33:17 11.1 C 22 %
563 25-04-2020 21:43:18 11.2 C 21 %
564 25-04-2020 21:53:17 11 C 22 %
565 25-04-2020 22:03:17 11 C 22 %
566 25-04-2020 22:13:17 10.9 C 23 %
567 25-04-2020 22:23:17 10.1 C 25 %
568 25-04-2020 22:33:17 10.1 C 25 %
569 25-04-2020 22:43:17 9.9 C 26 %
570 25-04-2020 22:53:18 9.8 C 27 %
571 25-04-2020 23:03:17 9.6 C 27 %
572 25-04-2020 23:13:17 9.5 C 27 %
573 25-04-2020 23:23:17 9.1 C 28 %
574 25-04-2020 23:33:18 8.7 C 30 %
575 25-04-2020 23:43:18 8.2 C 31 %
Sensor: Nr:Datum:Temp:Feuchte:
Aussen-T/F 576 25-04-2020 23:53:17 7.7 C 32 %
577 26-04-2020 00:03:18 7.1 C 33 %
578 26-04-2020 00:13:18 6.8 C 35 %
579 26-04-2020 00:23:17 6.6 C 35 %
580 26-04-2020 00:33:18 6.3 C 35 %
581 26-04-2020 00:43:18 6.2 C 36 %
582 26-04-2020 00:53:17 5.9 C 37 %
583 26-04-2020 01:03:17 5.8 C 37 %
584 26-04-2020 01:13:18 5.5 C 38 %
585 26-04-2020 01:23:17 5.6 C 38 %
586 26-04-2020 01:33:17 5.2 C 38 %
587 26-04-2020 01:43:17 5.1 C 38 %
588 26-04-2020 01:53:17 5.1 C 39 %
589 26-04-2020 02:03:17 4.7 C 40 %
590 26-04-2020 02:13:17 4.7 C 40 %
591 26-04-2020 02:23:17 4.6 C 40 %
592 26-04-2020 02:33:17 4.5 C 40 %
593 26-04-2020 02:43:17 4.8 C 41 %
594 26-04-2020 02:53:18 4.7 C 41 %
595 26-04-2020 03:03:17 4.4 C 41 %
596 26-04-2020 03:13:18 4.3 C 41 %
597 26-04-2020 03:23:17 4.1 C 41 %
598 26-04-2020 03:33:18 4 C 41 %
599 26-04-2020 03:43:18 3.8 C 42 %
600 26-04-2020 03:53:17 3.6 C 43 %
Sensor: Nr:Datum:Temp:Feuchte:
Aussen-T/F 601 26-04-2020 04:03:18 3.9 C 44 %
602 26-04-2020 04:13:18 3.6 C 43 %
603 26-04-2020 04:23:17 3.4 C 43 %
604 26-04-2020 04:33:17 3.2 C 43 %
605 26-04-2020 04:43:17 3.3 C 44 %
606 26-04-2020 04:53:17 3.1 C 44 %
607 26-04-2020 05:03:18 3.1 C 45 %
608 26-04-2020 05:13:18 3 C 44 %
609 26-04-2020 05:23:17 2.7 C 45 %
610 26-04-2020 05:33:17 2.6 C 45 %
611 26-04-2020 05:43:17 2.7 C 46 %
612 26-04-2020 05:53:17 2.5 C 46 %
613 26-04-2020 06:03:17 2.3 C 46 %
614 26-04-2020 06:13:17 2.4 C 46 %
615 26-04-2020 06:23:17 2.4 C 46 %
616 26-04-2020 06:33:17 2.4 C 46 %
617 26-04-2020 06:43:18 2.3 C 46 %
618 26-04-2020 06:53:17 2.3 C 46 %
619 26-04-2020 07:03:17 2.3 C 46 %
620 26-04-2020 07:13:17 2.6 C 47 %
621 26-04-2020 07:23:17 2.7 C 47 %
622 26-04-2020 07:33:17 2.8 C 46 %
623 26-04-2020 07:43:17 2.8 C 46 %
624 26-04-2020 07:53:17 2.9 C 47 %
625 26-04-2020 08:03:17 3.2 C 46 %
Sensor: Nr:Datum:Temp:Feuchte:
Aussen-T/F 626 26-04-2020 08:13:17 3.4 C 46 %
627 26-04-2020 08:23:17 3.6 C 46 %
628 26-04-2020 08:33:17 4 C 45 %
629 26-04-2020 08:43:17 4.3 C 45 %
630 26-04-2020 08:53:17 4.5 C 45 %
631 26-04-2020 09:03:17 4.9 C 45 %
632 26-04-2020 09:13:17 5.2 C 43 %
633 26-04-2020 09:23:17 5.8 C 44 %
634 26-04-2020 09:33:17 6.4 C 42 %
635 26-04-2020 09:43:17 6.8 C 41 %
636 26-04-2020 09:53:17 7.4 C 40 %
637 26-04-2020 10:03:18 7.8 C 39 %
638 26-04-2020 10:13:18 8.5 C 38 %
639 26-04-2020 10:23:17 9 C 37 %
640 26-04-2020 10:33:18 9.6 C 36 %
641 26-04-2020 10:43:18 10.4 C 35 %
642 26-04-2020 10:53:17 11.3 C 32 %
643 26-04-2020 11:03:17 12.2 C 31 %
644 26-04-2020 11:13:17 12.8 C 29 %
645 26-04-2020 11:23:17 13.6 C 27 %
646 26-04-2020 11:33:17 14.1 C 26 %
647 26-04-2020 11:43:17 14.7 C 25 %
648 26-04-2020 11:53:17 15.2 C 22 %
649 26-04-2020 12:03:17 15.2 C 21 %
650 26-04-2020 12:13:17 15.1 C 20 %
Sensor: Nr:Datum:Temp:Feuchte:
Aussen-T/F 651 26-04-2020 12:23:18 15.4 C 20 %
652 26-04-2020 12:33:17 15.9 C 20 %
653 26-04-2020 12:43:18 15.9 C 20 %
654 26-04-2020 12:53:17 16.2 C 20 %
655 26-04-2020 13:03:17 16.5 C 20 %
656 26-04-2020 13:13:17 16.8 C 20 %
657 26-04-2020 13:23:18 16.6 C 20 %
658 26-04-2020 13:33:17 16.8 C 20 %
659 26-04-2020 13:43:17 17.1 C 20 %
660 26-04-2020 13:53:17 17.1 C 20 %
661 26-04-2020 14:03:17 17.4 C 20 %
662 26-04-2020 14:13:17 18.1 C 20 %
663 26-04-2020 14:23:17 19.3 C 20 %
664 26-04-2020 14:33:18 25 C 20 %
665 26-04-2020 14:43:18 24.8 C 20 %
666 26-04-2020 14:53:17 26.7 C 20 %
667 26-04-2020 15:03:18 26.6 C 20 %
668 26-04-2020 15:13:18 28.3 C 20 %
669 26-04-2020 15:23:17 29.7 C 20 %
670 26-04-2020 15:33:17 29.5 C 20 %
671 26-04-2020 15:43:17 28 C 20 %
672 26-04-2020 15:53:18 29 C 20 %
673 26-04-2020 16:03:18 30.5 C 20 %
674 26-04-2020 16:13:18 27.6 C 20 %
675 26-04-2020 16:23:17 28.4 C 20 %
Sensor: Nr:Datum:Temp:Feuchte:
Aussen-T/F 676 26-04-2020 16:33:17 26.5 C 20 %
677 26-04-2020 16:43:17 30.3 C 20 %
678 26-04-2020 16:53:17 28.1 C 20 %
679 26-04-2020 17:03:18 29 C 20 %
680 26-04-2020 17:13:18 28.3 C 20 %
681 26-04-2020 17:23:18 27.4 C 20 %
682 26-04-2020 17:33:18 27.2 C 20 %
683 26-04-2020 17:43:18 28 C 20 %
684 26-04-2020 17:53:17 26.5 C 20 %
685 26-04-2020 18:03:17 25.8 C 20 %
686 26-04-2020 18:13:17 23.1 C 20 %
687 26-04-2020 18:23:17 22 C 20 %
688 26-04-2020 18:33:17 21.9 C 20 %
689 26-04-2020 18:43:17 21.1 C 20 %
690 26-04-2020 18:53:17 21.1 C 20 %
691 26-04-2020 19:03:17 20.9 C 20 %
692 26-04-2020 19:13:17 20.2 C 20 %
693 26-04-2020 19:23:17 19.7 C 20 %
694 26-04-2020 19:33:17 19.5 C 20 %
695 26-04-2020 19:43:18 19.1 C 20 %
696 26-04-2020 19:53:17 18.2 C 20 %
697 26-04-2020 20:03:18 17.3 C 20 %
698 26-04-2020 20:13:18 16.6 C 20 %
699 26-04-2020 20:23:17 15.8 C 20 %
700 26-04-2020 20:33:17 14.7 C 20 %
Sensor: Nr:Datum:Temp:Feuchte:
Aussen-T/F 701 26-04-2020 20:43:17 14.3 C 20 %
702 26-04-2020 20:53:18 14 C 20 %
703 26-04-2020 21:03:18 13.7 C 20 %
704 26-04-2020 21:13:18 13.1 C 20 %
705 26-04-2020 21:23:17 12.6 C 20 %
706 26-04-2020 21:33:18 12.4 C 20 %
707 26-04-2020 21:43:18 12.1 C 20 %
708 26-04-2020 21:53:17 11.6 C 23 %
709 26-04-2020 22:03:17 11.3 C 25 %
710 26-04-2020 22:13:17 10.9 C 26 %
711 26-04-2020 22:23:18 10.7 C 26 %
712 26-04-2020 22:33:17 10.5 C 26 %
713 26-04-2020 22:43:17 9.9 C 28 %
714 26-04-2020 22:53:17 9.6 C 29 %
715 26-04-2020 23:03:17 9.2 C 29 %
716 26-04-2020 23:13:17 9 C 30 %
717 26-04-2020 23:23:17 8.9 C 30 %
718 26-04-2020 23:33:18 8.8 C 30 %
719 26-04-2020 23:43:18 8.7 C 30 %
720 26-04-2020 23:53:17 8.5 C 30 %
721 27-04-2020 00:03:18 8.3 C 30 %
722 27-04-2020 00:13:18 8 C 31 %
723 27-04-2020 00:23:18 7.9 C 32 %
724 27-04-2020 00:33:17 7.6 C 32 %
725 27-04-2020 00:43:17 7.4 C 33 %
Sensor: Nr:Datum:Temp:Feuchte:
Aussen-T/F 726 27-04-2020 00:53:17 7.2 C 33 %
727 27-04-2020 01:03:18 7.1 C 33 %
728 27-04-2020 01:13:18 6.8 C 35 %
729 27-04-2020 01:23:18 6.9 C 35 %
730 27-04-2020 01:33:17 6.9 C 35 %
731 27-04-2020 01:43:17 6.8 C 35 %
732 27-04-2020 01:53:17 6.4 C 35 %
733 27-04-2020 02:03:17 6.2 C 36 %
734 27-04-2020 02:13:17 6 C 36 %
735 27-04-2020 02:23:17 5.9 C 37 %
736 27-04-2020 02:33:17 5.7 C 37 %
737 27-04-2020 02:43:17 6 C 37 %
738 27-04-2020 02:53:17 6 C 37 %
739 27-04-2020 03:03:18 5.7 C 38 %
740 27-04-2020 03:13:18 5.6 C 38 %
741 27-04-2020 03:23:18 5.6 C 38 %
742 27-04-2020 03:33:17 5.6 C 38 %
743 27-04-2020 03:43:17 5.6 C 39 %
744 27-04-2020 03:53:17 5.7 C 39 %
745 27-04-2020 04:03:18 5 C 38 %
746 27-04-2020 04:13:18 4.8 C 40 %
747 27-04-2020 04:23:17 4.4 C 40 %
748 27-04-2020 04:33:18 4.3 C 41 %
749 27-04-2020 04:43:18 4 C 41 %
750 27-04-2020 04:53:17 4.1 C 42 %
Sensor: Nr:Datum:Temp:Feuchte:
Aussen-T/F 751 27-04-2020 05:03:17 4 C 42 %
752 27-04-2020 05:13:17 4.2 C 42 %
753 27-04-2020 05:23:17 3.7 C 43 %
754 27-04-2020 05:33:17 3.7 C 43 %
755 27-04-2020 05:43:17 3.4 C 43 %
756 27-04-2020 05:53:17 3.7 C 44 %
757 27-04-2020 06:03:18 3.5 C 44 %
758 27-04-2020 06:13:18 3.4 C 44 %
759 27-04-2020 06:23:17 3.6 C 45 %
760 27-04-2020 06:33:17 3.8 C 45 %
761 27-04-2020 06:43:17 3.8 C 44 %
762 27-04-2020 06:53:17 3.8 C 44 %
763 27-04-2020 07:03:17 3.8 C 44 %
764 27-04-2020 07:13:17 3.9 C 45 %
765 27-04-2020 07:23:17 3.9 C 45 %
766 27-04-2020 07:33:17 4.2 C 44 %
767 27-04-2020 07:43:17 4.5 C 43 %
768 27-04-2020 07:53:17 4.6 C 43 %
769 27-04-2020 08:03:17 4.9 C 42 %
770 27-04-2020 08:13:17 4.8 C 42 %
771 27-04-2020 08:23:17 5.1 C 42 %
772 27-04-2020 08:33:17 5.5 C 41 %
773 27-04-2020 08:43:17 5.7 C 41 %
774 27-04-2020 08:53:17 6 C 41 %
775 27-04-2020 09:03:18 6.4 C 40 %
Sensor: Nr:Datum:Temp:Feuchte:
Aussen-T/F 776 27-04-2020 09:13:18 6.6 C 40 %
777 27-04-2020 09:23:17 7 C 40 %
778 27-04-2020 09:33:17 7.6 C 39 %
779 27-04-2020 09:43:17 8.3 C 37 %
780 27-04-2020 09:53:17 8.5 C 38 %
781 27-04-2020 10:03:17 9.1 C 37 %
782 27-04-2020 10:13:17 9.9 C 37 %
783 27-04-2020 10:23:17 10.7 C 35 %
784 27-04-2020 10:33:17 11.7 C 34 %
785 27-04-2020 10:43:17 12.3 C 32 %
786 27-04-2020 10:53:17 13.5 C 30 %
787 27-04-2020 11:03:17 15.5 C 25 %
788 27-04-2020 11:13:17 16.6 C 22 %
789 27-04-2020 11:23:17 16.8 C 20 %
790 27-04-2020 11:33:17 17.2 C 20 %
791 27-04-2020 11:43:17 17.5 C 20 %
792 27-04-2020 11:53:17 17.7 C 20 %
793 27-04-2020 12:03:17 18.1 C 20 %
794 27-04-2020 12:13:17 18.4 C 20 %
795 27-04-2020 12:23:17 18.3 C 20 %
796 27-04-2020 12:33:17 18.7 C 20 %
797 27-04-2020 12:43:17 19 C 20 %
798 27-04-2020 12:53:18 19.1 C 20 %
799 27-04-2020 13:03:17 19.7 C 20 %
800 27-04-2020 13:13:17 19.5 C 20 %
Sensor: Nr:Datum:Temp:Feuchte:
Aussen-T/F 801 27-04-2020 13:23:17 19.6 C 20 %
802 27-04-2020 13:33:17 20.1 C 20 %
803 27-04-2020 13:43:17 20.2 C 20 %
804 27-04-2020 13:53:17 20.4 C 20 %
805 27-04-2020 14:03:18 21 C 20 %
806 27-04-2020 14:13:18 21.4 C 20 %
807 27-04-2020 14:23:17 25.1 C 20 %
808 27-04-2020 14:33:18 25.5 C 20 %
809 27-04-2020 14:43:18 28.2 C 20 %
810 27-04-2020 14:53:17 28.9 C 20 %
811 27-04-2020 15:03:17 30.1 C 20 %
812 27-04-2020 15:13:17 27.6 C 20 %
813 27-04-2020 15:23:17 26.7 C 20 %
814 27-04-2020 15:33:17 27.5 C 20 %
815 27-04-2020 15:43:17 27.6 C 20 %
816 27-04-2020 15:53:17 27.9 C 20 %
817 27-04-2020 16:03:17 26.8 C 20 %
818 27-04-2020 16:13:17 23.7 C 20 %
819 27-04-2020 16:23:17 23.4 C 20 %
820 27-04-2020 16:33:17 24.1 C 20 %
821 27-04-2020 16:43:17 23.7 C 20 %
822 27-04-2020 16:53:17 22.7 C 20 %
823 27-04-2020 17:03:18 22.1 C 20 %
824 27-04-2020 17:13:18 22.1 C 20 %
825 27-04-2020 17:23:17 21.6 C 20 %
Sensor: Nr:Datum:Temp:Feuchte:
Aussen-T/F 826 27-04-2020 17:33:17 21.7 C 20 %
827 27-04-2020 17:43:17 21.6 C 20 %
828 27-04-2020 17:53:17 22.2 C 20 %
829 27-04-2020 18:03:17 21.5 C 20 %
830 27-04-2020 18:13:17 21.8 C 20 %
831 27-04-2020 18:23:17 24 C 20 %
832 27-04-2020 18:33:18 23.1 C 20 %
833 27-04-2020 18:43:18 22.4 C 20 %
834 27-04-2020 18:53:17 22.1 C 20 %
835 27-04-2020 19:03:17 20.9 C 20 %
836 27-04-2020 19:13:17 19.4 C 20 %
837 27-04-2020 19:23:18 19.2 C 20 %
838 27-04-2020 19:33:17 18.3 C 20 %
839 27-04-2020 19:43:18 18.2 C 20 %
840 27-04-2020 19:53:17 17.4 C 20 %
841 27-04-2020 20:03:17 17.1 C 20 %
842 27-04-2020 20:13:17 16.8 C 20 %
843 27-04-2020 20:23:17 16.2 C 20 %
844 27-04-2020 20:33:17 15.4 C 21 %
845 27-04-2020 20:43:17 15.1 C 21 %
846 27-04-2020 20:53:18 15.2 C 21 %
847 27-04-2020 21:03:17 15 C 21 %
848 27-04-2020 21:13:17 15 C 22 %
849 27-04-2020 21:23:17 14.6 C 25 %
850 27-04-2020 21:33:18 14.2 C 25 %
Sensor: Nr:Datum:Temp:Feuchte:
Aussen-T/F 851 27-04-2020 21:43:18 13.6 C 26 %
852 27-04-2020 21:53:17 13.2 C 27 %
853 27-04-2020 22:03:18 13.3 C 27 %
854 27-04-2020 22:13:18 13.3 C 27 %
855 27-04-2020 22:23:17 13 C 28 %
856 27-04-2020 22:33:17 12.3 C 30 %
857 27-04-2020 22:43:17 12.1 C 30 %
858 27-04-2020 22:53:18 12 C 30 %
859 27-04-2020 23:03:17 12 C 30 %
860 27-04-2020 23:13:17 12 C 30 %
861 27-04-2020 23:23:17 11.8 C 31 %
862 27-04-2020 23:33:17 11.4 C 32 %
863 27-04-2020 23:43:17 11 C 32 %
864 27-04-2020 23:53:18 10.6 C 34 %
865 28-04-2020 00:03:17 10.5 C 35 %
866 28-04-2020 00:13:17 10 C 35 %
867 28-04-2020 00:23:17 10 C 35 %
868 28-04-2020 00:33:18 9.8 C 36 %
869 28-04-2020 00:43:18 9.8 C 36 %
870 28-04-2020 00:53:17 9.7 C 36 %
871 28-04-2020 01:03:18 9.5 C 36 %
872 28-04-2020 01:13:18 9.3 C 37 %
873 28-04-2020 01:23:17 9.1 C 37 %
874 28-04-2020 01:33:17 9.1 C 37 %
875 28-04-2020 01:43:18 9.2 C 37 %
Sensor: Nr:Datum:Temp:Feuchte:
Aussen-T/F 876 28-04-2020 01:53:17 8.8 C 38 %
877 28-04-2020 02:03:18 8.7 C 39 %
878 28-04-2020 02:13:18 8.8 C 39 %
879 28-04-2020 02:23:17 8.4 C 39 %
880 28-04-2020 02:33:18 8.2 C 39 %
881 28-04-2020 02:43:18 8.3 C 40 %
882 28-04-2020 02:53:18 8.6 C 40 %
883 28-04-2020 03:03:17 8.7 C 40 %
884 28-04-2020 03:13:17 8.4 C 40 %
885 28-04-2020 03:23:17 8.3 C 40 %
886 28-04-2020 03:33:18 8.3 C 40 %
887 28-04-2020 03:43:18 7.8 C 40 %
888 28-04-2020 03:53:18 7.7 C 41 %
889 28-04-2020 04:03:18 7.9 C 41 %
890 28-04-2020 04:13:18 7.4 C 41 %
891 28-04-2020 04:23:18 7.3 C 41 %
892 28-04-2020 04:33:18 7.3 C 42 %
893 28-04-2020 04:43:18 7.6 C 43 %
894 28-04-2020 04:53:17 7.7 C 42 %
895 28-04-2020 05:03:17 7.8 C 41 %
896 28-04-2020 05:13:17 7.8 C 42 %
897 28-04-2020 05:23:17 7.8 C 41 %
898 28-04-2020 05:33:18 7.9 C 41 %
899 28-04-2020 05:43:18 7.7 C 41 %
900 28-04-2020 05:53:17 7.5 C 41 %
Sensor: Nr:Datum:Temp:Feuchte:
Aussen-T/F 901 28-04-2020 06:03:17 7.2 C 41 %
902 28-04-2020 06:13:17 7 C 42 %
903 28-04-2020 06:23:17 7.3 C 43 %
904 28-04-2020 06:33:18 7.6 C 43 %
905 28-04-2020 06:43:18 8 C 42 %
906 28-04-2020 06:53:17 8.3 C 41 %
907 28-04-2020 07:03:18 8.7 C 41 %
908 28-04-2020 07:13:18 9.1 C 40 %
909 28-04-2020 07:23:18 9.3 C 39 %
910 28-04-2020 07:33:17 9.5 C 39 %
911 28-04-2020 07:43:17 9.6 C 39 %
912 28-04-2020 07:53:17 9.4 C 39 %
913 28-04-2020 08:03:17 9.2 C 40 %
914 28-04-2020 08:13:17 9.5 C 41 %
915 28-04-2020 08:23:17 9.8 C 41 %
916 28-04-2020 08:33:17 10 C 41 %
917 28-04-2020 08:43:17 10.1 C 41 %
918 28-04-2020 08:53:17 10.6 C 40 %
919 28-04-2020 09:03:17 10.7 C 40 %
920 28-04-2020 09:13:17 11.2 C 39 %
921 28-04-2020 09:23:17 11.7 C 39 %
922 28-04-2020 09:33:18 11.8 C 39 %
923 28-04-2020 09:43:18 11.8 C 38 %
924 28-04-2020 09:53:17 12.2 C 38 %
925 28-04-2020 10:03:17 12.8 C 38 %
Sensor: Nr:Datum:Temp:Feuchte:
Aussen-T/F 926 28-04-2020 10:13:17 12.9 C 37 %
927 28-04-2020 10:23:18 13.3 C 36 %
928 28-04-2020 10:33:17 13.7 C 36 %
929 28-04-2020 10:43:17 14 C 35 %
930 28-04-2020 10:53:17 14.1 C 35 %
931 28-04-2020 11:03:17 13.4 C 37 %
932 28-04-2020 11:13:17 13.8 C 38 %
933 28-04-2020 11:23:17 13.5 C 38 %
934 28-04-2020 11:33:17 14.2 C 38 %
935 28-04-2020 11:43:17 14.3 C 37 %
936 28-04-2020 11:53:17 14.6 C 38 %
937 28-04-2020 12:03:17 14.9 C 37 %
938 28-04-2020 12:13:17 15 C 37 %
939 28-04-2020 12:23:17 14.9 C 38 %
940 28-04-2020 12:33:17 15.2 C 37 %
941 28-04-2020 12:43:17 15 C 38 %
942 28-04-2020 12:53:17 14.9 C 39 %
943 28-04-2020 13:03:18 14.7 C 39 %
944 28-04-2020 13:13:18 14.5 C 41 %
945 28-04-2020 13:23:17 14.2 C 41 %
946 28-04-2020 13:33:17 14.9 C 40 %
947 28-04-2020 13:43:17 14.9 C 38 %
948 28-04-2020 13:53:17 15.2 C 36 %
949 28-04-2020 14:03:17 16.2 C 36 %
950 28-04-2020 14:13:17 16.9 C 35 %
Sensor: Nr:Datum:Temp:Feuchte:
Aussen-T/F 951 28-04-2020 14:23:18 20.2 C 30 %
952 28-04-2020 14:33:18 17.5 C 32 %
953 28-04-2020 14:43:18 16.5 C 34 %
954 28-04-2020 14:53:17 17.2 C 33 %
955 28-04-2020 15:03:17 16.4 C 34 %
956 28-04-2020 15:13:17 15.6 C 36 %
957 28-04-2020 15:23:17 15.6 C 36 %
958 28-04-2020 15:33:17 18.1 C 32 %
959 28-04-2020 15:43:17 16.5 C 33 %
960 28-04-2020 15:53:17 17 C 32 %
961 28-04-2020 16:03:18 17.1 C 32 %
962 28-04-2020 16:13:18 16.7 C 32 %
963 28-04-2020 16:23:17 16.9 C 32 %
964 28-04-2020 16:33:17 18.5 C 30 %
965 28-04-2020 16:43:17 20.1 C 26 %
966 28-04-2020 16:53:17 19.4 C 27 %
967 28-04-2020 17:03:17 17.6 C 30 %
968 28-04-2020 17:13:17 17.4 C 30 %
969 28-04-2020 17:23:17 17.2 C 29 %
970 28-04-2020 17:33:17 17 C 30 %
971 28-04-2020 17:43:17 16.8 C 30 %
972 28-04-2020 17:53:17 17.6 C 28 %
973 28-04-2020 18:03:17 18.2 C 27 %
974 28-04-2020 18:13:17 17.4 C 29 %
975 28-04-2020 18:23:17 18 C 28 %
Sensor: Nr:Datum:Temp:Feuchte:
Aussen-T/F 976 28-04-2020 18:33:18 17.6 C 28 %
977 28-04-2020 18:43:18 17.7 C 28 %
978 28-04-2020 18:53:17 16.6 C 30 %
979 28-04-2020 19:03:17 16.3 C 30 %
980 28-04-2020 19:13:17 16.3 C 30 %
981 28-04-2020 19:23:17 16.3 C 30 %
982 28-04-2020 19:33:18 16.4 C 30 %
983 28-04-2020 19:43:18 16.5 C 30 %
984 28-04-2020 19:53:17 16.1 C 30 %
985 28-04-2020 20:03:18 15 C 32 %
986 28-04-2020 20:13:18 14.2 C 35 %
987 28-04-2020 20:23:17 13.6 C 37 %
988 28-04-2020 20:33:17 13.4 C 37 %
989 28-04-2020 20:43:18 13.1 C 37 %
990 28-04-2020 20:53:17 13 C 38 %
991 28-04-2020 21:03:17 12.5 C 39 %
992 28-04-2020 21:13:17 13.5 C 36 %
993 28-04-2020 21:23:17 13.9 C 35 %
994 28-04-2020 21:33:17 14.6 C 34 %
995 28-04-2020 21:43:17 14.4 C 34 %
996 28-04-2020 21:53:17 14.2 C 34 %
997 28-04-2020 22:03:17 13.4 C 35 %
998 28-04-2020 22:13:17 12.8 C 37 %
999 28-04-2020 22:23:17 12.8 C 37 %
1000 28-04-2020 22:33:17 13 C 36 %
Sensor: Nr:Datum:Temp:Feuchte:
Aussen-T/F 1001 28-04-2020 22:43:17 13.1 C 36 %
1002 28-04-2020 22:53:18 12.9 C 37 %
1003 28-04-2020 23:03:17 12.7 C 38 %
1004 28-04-2020 23:13:18 12.7 C 38 %
1005 28-04-2020 23:23:18 12.7 C 38 %
1006 28-04-2020 23:33:18 12.7 C 38 %
1007 28-04-2020 23:43:18 12.5 C 39 %
1008 28-04-2020 23:53:18 12.2 C 39 %
1009 29-04-2020 00:03:17 12.2 C 39 %
1010 29-04-2020 00:13:17 12.2 C 39 %
1011 29-04-2020 00:23:17 12.1 C 39 %
1012 29-04-2020 00:33:18 11.8 C 40 %
1013 29-04-2020 00:43:18 11.5 C 40 %
1014 29-04-2020 00:53:18 11.5 C 40 %
1015 29-04-2020 01:03:18 11.5 C 40 %
1016 29-04-2020 01:13:18 11.6 C 40 %
1017 29-04-2020 01:23:17 11.7 C 40 %
1018 29-04-2020 01:33:17 11.6 C 42 %
1019 29-04-2020 01:43:17 11.4 C 43 %
1020 29-04-2020 01:53:17 11.4 C 44 %
1021 29-04-2020 02:03:17 11.4 C 44 %
1022 29-04-2020 02:13:17 11.4 C 41 %
1023 29-04-2020 02:23:17 12.3 C 37 %
1024 29-04-2020 02:33:18 12.6 C 37 %
1025 29-04-2020 02:43:18 12.5 C 36 %
Sensor: Nr:Datum:Temp:Feuchte:
Aussen-T/F 1026 29-04-2020 02:53:17 12.1 C 36 %
1027 29-04-2020 03:03:17 12 C 36 %
1028 29-04-2020 03:13:17 11.4 C 39 %
1029 29-04-2020 03:23:17 11.5 C 39 %
1030 29-04-2020 03:33:17 11.7 C 39 %
1031 29-04-2020 03:43:17 12 C 37 %
1032 29-04-2020 03:53:17 12.1 C 37 %
1033 29-04-2020 04:03:17 11.9 C 39 %
1034 29-04-2020 04:13:17 11.9 C 39 %
1035 29-04-2020 04:23:17 11.7 C 39 %
1036 29-04-2020 04:33:17 11.9 C 38 %
1037 29-04-2020 04:43:18 11.6 C 39 %
1038 29-04-2020 04:53:17 11.4 C 39 %
1039 29-04-2020 05:03:18 11.7 C 39 %
1040 29-04-2020 05:13:18 11.5 C 39 %
1041 29-04-2020 05:23:18 11.7 C 39 %
1042 29-04-2020 05:33:17 11.5 C 39 %
1043 29-04-2020 05:43:17 11.4 C 39 %
1044 29-04-2020 05:53:17 11.3 C 40 %
1045 29-04-2020 06:03:18 11.3 C 40 %
1046 29-04-2020 06:13:18 11.5 C 39 %
1047 29-04-2020 06:23:17 11.6 C 38 %
1048 29-04-2020 06:33:17 11.2 C 39 %
1049 29-04-2020 06:43:17 11 C 40 %
1050 29-04-2020 06:53:17 11.2 C 40 %
Sensor: Nr:Datum:Temp:Feuchte:
Aussen-T/F 1051 29-04-2020 07:03:17 11.5 C 39 %
1052 29-04-2020 07:13:17 11.9 C 39 %
1053 29-04-2020 07:23:17 12.1 C 37 %
1054 29-04-2020 07:33:17 12.3 C 37 %
1055 29-04-2020 07:43:17 12.4 C 36 %
1056 29-04-2020 07:53:17 12.7 C 36 %
1057 29-04-2020 08:03:17 12.9 C 36 %
1058 29-04-2020 08:13:17 12.9 C 36 %
1059 29-04-2020 08:23:17 12.7 C 36 %
1060 29-04-2020 08:33:17 12.6 C 36 %
1061 29-04-2020 08:43:17 12.5 C 36 %
1062 29-04-2020 08:53:17 13 C 35 %
1063 29-04-2020 09:03:17 13.1 C 35 %
1064 29-04-2020 09:13:17 13.2 C 35 %
1065 29-04-2020 09:23:17 13.5 C 34 %
1066 29-04-2020 09:33:17 13.6 C 33 %
1067 29-04-2020 09:43:17 13.9 C 32 %
1068 29-04-2020 09:53:17 14.1 C 32 %
1069 29-04-2020 10:03:17 14.5 C 31 %
1070 29-04-2020 10:13:17 14.8 C 30 %
1071 29-04-2020 10:23:17 15.1 C 29 %
1072 29-04-2020 10:33:17 14.8 C 30 %
1073 29-04-2020 10:43:17 15 C 29 %
1074 29-04-2020 10:53:17 15.5 C 28 %
1075 29-04-2020 11:03:17 16 C 28 %
Sensor: Nr:Datum:Temp:Feuchte:
Aussen-T/F 1076 29-04-2020 11:13:17 16 C 28 %
1077 29-04-2020 11:23:17 16.3 C 27 %
1078 29-04-2020 11:33:18 16.8 C 27 %
1079 29-04-2020 11:43:18 16.9 C 25 %
1080 29-04-2020 11:53:17 17.1 C 25 %
1081 29-04-2020 12:03:18 17.5 C 25 %
1082 29-04-2020 12:13:18 16.4 C 25 %
1083 29-04-2020 12:23:17 15.5 C 26 %
1084 29-04-2020 12:33:17 15.9 C 26 %
1085 29-04-2020 12:43:17 16.3 C 25 %
1086 29-04-2020 12:53:17 16.2 C 25 %
1087 29-04-2020 13:03:17 17.5 C 25 %
1088 29-04-2020 13:13:17 16.4 C 25 %
1089 29-04-2020 13:23:18 16.1 C 25 %
1090 29-04-2020 13:33:18 17.5 C 25 %
1091 29-04-2020 13:43:18 17.3 C 25 %
1092 29-04-2020 13:53:18 16.6 C 25 %
1093 29-04-2020 14:03:18 16.7 C 26 %
1094 29-04-2020 14:13:18 15.7 C 26 %
1095 29-04-2020 14:23:18 15.9 C 26 %
1096 29-04-2020 14:33:17 16.1 C 26 %
1097 29-04-2020 14:43:17 19.2 C 22 %
1098 29-04-2020 14:53:17 21.1 C 20 %
1099 29-04-2020 15:03:17 20.9 C 20 %
1100 29-04-2020 15:13:17 22.7 C 20 %
Sensor: Nr:Datum:Temp:Feuchte:
Aussen-T/F 1101 29-04-2020 15:23:17 22.3 C 20 %
1102 29-04-2020 15:33:17 19.6 C 20 %
1103 29-04-2020 15:43:17 18.7 C 20 %
1104 29-04-2020 15:53:17 19.2 C 20 %
1105 29-04-2020 16:03:17 17.4 C 22 %
1106 29-04-2020 16:13:17 17.9 C 22 %
1107 29-04-2020 16:23:17 18.4 C 20 %
1108 29-04-2020 16:33:17 17.7 C 21 %
1109 29-04-2020 16:43:17 20.2 C 20 %
1110 29-04-2020 16:53:17 18.2 C 20 %
1111 29-04-2020 17:03:17 17.4 C 22 %
1112 29-04-2020 17:13:17 16 C 25 %
1113 29-04-2020 17:23:17 19.4 C 23 %
1114 29-04-2020 17:33:17 21.1 C 20 %
1115 29-04-2020 17:43:17 21.2 C 20 %
1116 29-04-2020 17:53:17 20.2 C 20 %
1117 29-04-2020 18:03:17 21 C 20 %
1118 29-04-2020 18:13:18 17.5 C 21 %
1119 29-04-2020 18:23:17 17.4 C 21 %
1120 29-04-2020 18:33:17 17.7 C 22 %
1121 29-04-2020 18:43:17 17.9 C 22 %
1122 29-04-2020 18:53:17 17.2 C 23 %
1123 29-04-2020 19:03:18 17 C 25 %
1124 29-04-2020 19:13:18 17.5 C 24 %
1125 29-04-2020 19:23:17 17.5 C 23 %
Sensor: Nr:Datum:Temp:Feuchte:
Aussen-T/F 1126 29-04-2020 19:33:17 17.1 C 23 %
1127 29-04-2020 19:43:18 16.7 C 24 %
1128 29-04-2020 19:53:17 16.1 C 25 %
1129 29-04-2020 20:03:18 15.4 C 26 %
1130 29-04-2020 20:13:18 15 C 26 %
1131 29-04-2020 20:23:18 14.7 C 29 %
1132 29-04-2020 20:33:17 14.5 C 29 %
1133 29-04-2020 20:43:17 14.5 C 28 %
1134 29-04-2020 20:53:18 14.4 C 28 %
1135 29-04-2020 21:03:18 13.8 C 30 %
1136 29-04-2020 21:13:18 13.2 C 31 %
1137 29-04-2020 21:23:17 12.9 C 33 %
1138 29-04-2020 21:33:17 13 C 32 %
1139 29-04-2020 21:43:17 13.5 C 32 %
1140 29-04-2020 21:53:17 13.2 C 32 %
1141 29-04-2020 22:03:18 13 C 32 %
1142 29-04-2020 22:13:18 13.2 C 33 %
1143 29-04-2020 22:23:17 13.5 C 32 %
1144 29-04-2020 22:33:17 13.3 C 32 %
1145 29-04-2020 22:43:17 13.1 C 32 %
1146 29-04-2020 22:53:18 13.3 C 33 %
1147 29-04-2020 23:03:18 12.8 C 35 %
1148 29-04-2020 23:13:18 12.8 C 35 %
1149 29-04-2020 23:23:17 13 C 34 %
1150 29-04-2020 23:33:17 13.2 C 33 %
Sensor: Nr:Datum:Temp:Feuchte:
Aussen-T/F 1151 29-04-2020 23:43:17 13.2 C 34 %
1152 29-04-2020 23:53:18 12.9 C 35 %
1153 30-04-2020 00:03:17 13 C 34 %
1154 30-04-2020 00:13:17 13.2 C 34 %
1155 30-04-2020 00:23:17 13.3 C 33 %
1156 30-04-2020 00:33:17 13.2 C 33 %
1157 30-04-2020 00:43:17 13.3 C 33 %
1158 30-04-2020 00:53:17 13.1 C 33 %
1159 30-04-2020 01:03:17 13.1 C 33 %
1160 30-04-2020 01:13:17 13.2 C 33 %
1161 30-04-2020 01:23:17 13.2 C 33 %
1162 30-04-2020 01:33:17 13.4 C 33 %
1163 30-04-2020 01:43:17 13.4 C 32 %
1164 30-04-2020 01:53:17 13 C 34 %
1165 30-04-2020 02:03:17 12 C 37 %
1166 30-04-2020 02:13:17 11.8 C 39 %
1167 30-04-2020 02:23:17 11.5 C 39 %
1168 30-04-2020 02:33:17 11.8 C 38 %
1169 30-04-2020 02:43:17 11.7 C 38 %
1170 30-04-2020 02:53:17 11.8 C 37 %
1171 30-04-2020 03:03:17 11.7 C 37 %
1172 30-04-2020 03:13:17 11.2 C 38 %
1173 30-04-2020 03:23:17 10.9 C 40 %
1174 30-04-2020 03:33:17 10.9 C 40 %
1175 30-04-2020 03:43:18 11 C 40 %
Sensor: Nr:Datum:Temp:Feuchte:
Aussen-T/F 1176 30-04-2020 03:53:17 11 C 40 %
1177 30-04-2020 04:03:17 10.8 C 41 %
1178 30-04-2020 04:13:17 10.7 C 41 %
1179 30-04-2020 04:23:17 10.6 C 43 %
1180 30-04-2020 04:33:18 10.7 C 44 %
1181 30-04-2020 04:43:18 10.6 C 44 %
1182 30-04-2020 04:53:17 10.7 C 45 %
1183 30-04-2020 05:03:17 10.7 C 45 %
1184 30-04-2020 05:13:17 10.8 C 45 %
1185 30-04-2020 05:23:17 10.8 C 45 %
1186 30-04-2020 05:33:17 10.8 C 45 %
1187 30-04-2020 05:43:17 10.7 C 45 %
1188 30-04-2020 05:53:18 10.8 C 45 %
1189 30-04-2020 06:03:17 10.7 C 45 %
1190 30-04-2020 06:13:18 10.7 C 45 %
1191 30-04-2020 06:23:17 10.7 C 45 %
1192 30-04-2020 06:33:17 10.8 C 45 %
1193 30-04-2020 06:43:17 10.7 C 45 %
1194 30-04-2020 06:53:17 10.8 C 45 %
1195 30-04-2020 07:03:17 10.6 C 44 %
1196 30-04-2020 07:13:17 10.3 C 42 %
1197 30-04-2020 07:23:17 10.2 C 42 %
1198 30-04-2020 07:33:17 10.2 C 42 %
1199 30-04-2020 07:43:17 10.1 C 42 %
1200 30-04-2020 07:53:17 10 C 43 %
Sensor: Nr:Datum:Temp:Feuchte:
Aussen-T/F 1201 30-04-2020 08:03:17 9.9 C 42 %
1202 30-04-2020 08:13:17 9.8 C 43 %
1203 30-04-2020 08:23:17 10 C 43 %
1204 30-04-2020 08:33:17 11 C 39 %
1205 30-04-2020 08:43:17 10.7 C 40 %
1206 30-04-2020 08:53:17 10.9 C 40 %
1207 30-04-2020 09:03:17 11.2 C 39 %
1208 30-04-2020 09:13:17 11.8 C 37 %
1209 30-04-2020 09:23:18 12.1 C 36 %
1210 30-04-2020 09:33:17 12.5 C 36 %
1211 30-04-2020 09:43:17 12.5 C 36 %
1212 30-04-2020 09:53:17 12.7 C 36 %
1213 30-04-2020 10:03:17 13.2 C 35 %
1214 30-04-2020 10:13:17 13.9 C 35 %
1215 30-04-2020 10:23:17 14 C 33 %
1216 30-04-2020 10:33:17 13.7 C 32 %
1217 30-04-2020 10:43:17 14.4 C 31 %
1218 30-04-2020 10:53:18 14 C 31 %
1219 30-04-2020 11:03:18 14 C 30 %
1220 30-04-2020 11:13:18 14 C 30 %
1221 30-04-2020 11:23:17 14 C 31 %
1222 30-04-2020 11:33:17 14.5 C 31 %
1223 30-04-2020 11:43:17 14.2 C 30 %
1224 30-04-2020 11:53:17 14.3 C 30 %
1225 30-04-2020 12:03:18 14.5 C 30 %
Sensor: Nr:Datum:Temp:Feuchte:
Aussen-T/F 1226 30-04-2020 12:13:18 14.2 C 29 %
1227 30-04-2020 12:23:17 14.6 C 29 %
1228 30-04-2020 12:33:17 14.4 C 29 %
1229 30-04-2020 12:43:17 14.5 C 29 %
1230 30-04-2020 12:53:18 15 C 27 %
1231 30-04-2020 13:03:17 14.7 C 27 %
1232 30-04-2020 13:13:17 14.6 C 27 %
1233 30-04-2020 13:23:17 14.6 C 27 %
1234 30-04-2020 13:33:17 14.5 C 27 %
1235 30-04-2020 13:43:17 15.2 C 26 %
1236 30-04-2020 13:53:17 15.9 C 25 %
1237 30-04-2020 14:03:18 16.8 C 23 %
1238 30-04-2020 14:13:18 16.2 C 21 %
1239 30-04-2020 14:23:17 16.6 C 21 %
1240 30-04-2020 14:33:18 19.7 C 20 %
1241 30-04-2020 14:43:18 18.3 C 20 %
1242 30-04-2020 14:53:17 18.1 C 20 %
1243 30-04-2020 15:03:18 19.2 C 20 %
1244 30-04-2020 15:13:18 19.5 C 20 %
1245 30-04-2020 15:23:17 17.4 C 20 %
1246 30-04-2020 15:33:17 16.5 C 20 %
1247 30-04-2020 15:43:17 15.8 C 20 %
1248 30-04-2020 15:53:18 15.9 C 21 %
1249 30-04-2020 16:03:17 16.2 C 20 %
1250 30-04-2020 16:13:17 16.3 C 20 %
Sensor: Nr:Datum:Temp:Feuchte:
Aussen-T/F 1251 30-04-2020 16:23:17 16.7 C 21 %
1252 30-04-2020 16:33:17 16.4 C 20 %
1253 30-04-2020 16:43:18 16.3 C 21 %
1254 30-04-2020 16:53:17 15.9 C 21 %
1255 30-04-2020 17:03:17 14.8 C 25 %
1256 30-04-2020 17:13:17 12.5 C 33 %
1257 30-04-2020 17:23:18 11.8 C 37 %
1258 30-04-2020 17:33:17 11.5 C 37 %
1259 30-04-2020 17:43:17 10.7 C 40 %
1260 30-04-2020 17:53:17 10.8 C 42 %
1261 30-04-2020 18:03:17 10.6 C 41 %
1262 30-04-2020 18:13:18 10.3 C 42 %
1263 30-04-2020 18:23:17 10.2 C 42 %
1264 30-04-2020 18:33:17 10.2 C 43 %
1265 30-04-2020 18:43:17 10 C 41 %
1266 30-04-2020 18:53:17 9.9 C 41 %
1267 30-04-2020 19:03:18 9.6 C 41 %
1268 30-04-2020 19:13:18 9.5 C 41 %
1269 30-04-2020 19:23:17 10 C 40 %
1270 30-04-2020 19:33:18 10.1 C 41 %
1271 30-04-2020 19:43:18 10 C 41 %
1272 30-04-2020 19:53:17 9.9 C 44 %
1273 30-04-2020 20:03:17 9.7 C 45 %
1274 30-04-2020 20:13:17 9.6 C 45 %
1275 30-04-2020 20:23:17 9.4 C 44 %
Sensor: Nr:Datum:Temp:Feuchte:
Aussen-T/F 1276 30-04-2020 20:33:18 9 C 44 %
1277 30-04-2020 20:43:18 8.6 C 45 %
1278 30-04-2020 20:53:17 8.6 C 46 %
1279 30-04-2020 21:03:17 8.7 C 46 %
1280 30-04-2020 21:13:17 8.8 C 45 %
1281 30-04-2020 21:23:17 8.9 C 45 %
1282 30-04-2020 21:33:17 9 C 45 %
1283 30-04-2020 21:43:18 9 C 45 %
1284 30-04-2020 21:53:17 9 C 45 %
1285 30-04-2020 22:03:18 8.6 C 45 %
1286 30-04-2020 22:13:18 8.4 C 45 %
1287 30-04-2020 22:23:18 8.7 C 45 %
1288 30-04-2020 22:33:17 8.7 C 45 %
1289 30-04-2020 22:43:17 8.6 C 45 %
1290 30-04-2020 22:53:18 8.5 C 45 %
1291 30-04-2020 23:03:17 8.4 C 45 %
1292 30-04-2020 23:13:17 8.3 C 45 %
1293 30-04-2020 23:23:17 8.3 C 45 %
1294 30-04-2020 23:33:17 8.6 C 45 %
1295 30-04-2020 23:43:17 9 C 44 %
1296 30-04-2020 23:53:17 9.2 C 43 %
1297 01-05-2020 00:03:17 8.9 C 43 %
1298 01-05-2020 00:13:17 8.6 C 44 %
1299 01-05-2020 00:23:17 8.2 C 44 %
1300 01-05-2020 00:33:18 8.4 C 44 %
Sensor: Nr:Datum:Temp:Feuchte:
Aussen-T/F 1301 01-05-2020 00:43:18 8.2 C 44 %
1302 01-05-2020 00:53:17 7.8 C 45 %
1303 01-05-2020 01:03:17 8.1 C 45 %
1304 01-05-2020 01:13:18 8.2 C 44 %
1305 01-05-2020 01:23:18 8.1 C 43 %
1306 01-05-2020 01:33:18 8.1 C 43 %
1307 01-05-2020 01:43:18 8.5 C 42 %
1308 01-05-2020 01:53:17 8.5 C 41 %
1309 01-05-2020 02:03:17 8.1 C 42 %
1310 01-05-2020 02:13:18 8 C 42 %
1311 01-05-2020 02:23:17 7.7 C 43 %
1312 01-05-2020 02:33:17 7.6 C 43 %
1313 01-05-2020 02:43:17 7.8 C 43 %
1314 01-05-2020 02:53:17 7.7 C 44 %
1315 01-05-2020 03:03:17 7.4 C 44 %
1316 01-05-2020 03:13:18 7.4 C 46 %
1317 01-05-2020 03:23:17 7.9 C 44 %
1318 01-05-2020 03:33:17 8.2 C 41 %
1319 01-05-2020 03:43:17 8 C 42 %
1320 01-05-2020 03:53:18 7.4 C 44 %
1321 01-05-2020 04:03:17 7.3 C 45 %
1322 01-05-2020 04:13:17 7 C 45 %
1323 01-05-2020 04:23:17 7.1 C 46 %
1324 01-05-2020 04:33:17 7.3 C 46 %
1325 01-05-2020 04:43:17 7.4 C 46 %
Sensor: Nr:Datum:Temp:Feuchte:
Aussen-T/F 1326 01-05-2020 04:53:17 7.6 C 46 %
1327 01-05-2020 05:03:18 7.8 C 46 %
1328 01-05-2020 05:13:18 7.9 C 46 %
1329 01-05-2020 05:23:17 8 C 45 %
1330 01-05-2020 05:33:18 8 C 45 %
1331 01-05-2020 05:43:18 8.6 C 41 %
1332 01-05-2020 05:53:17 8.4 C 40 %
1333 01-05-2020 06:03:17 8.1 C 41 %
1334 01-05-2020 06:13:17 7.8 C 43 %
1335 01-05-2020 06:23:17 7.6 C 44 %
1336 01-05-2020 06:33:17 7.6 C 45 %
1337 01-05-2020 06:43:17 7.4 C 45 %
1338 01-05-2020 06:53:17 7 C 45 %
1339 01-05-2020 07:03:17 6.8 C 46 %
1340 01-05-2020 07:13:17 6.9 C 46 %
1341 01-05-2020 07:23:17 7.8 C 46 %
1342 01-05-2020 07:33:18 7.9 C 46 %
1343 01-05-2020 07:43:18 8.3 C 45 %
1344 01-05-2020 07:53:17 8.1 C 41 %
1345 01-05-2020 08:03:18 8.1 C 41 %
1346 01-05-2020 08:13:18 8.4 C 41 %
1347 01-05-2020 08:23:18 8.3 C 42 %
1348 01-05-2020 08:33:18 8.3 C 44 %
1349 01-05-2020 08:43:18 9 C 44 %
1350 01-05-2020 08:53:17 9.2 C 42 %
Sensor: Nr:Datum:Temp:Feuchte:
Aussen-T/F 1351 01-05-2020 09:03:17 9.6 C 42 %
1352 01-05-2020 09:13:17 9.7 C 42 %
1353 01-05-2020 09:23:17 10.1 C 40 %
1354 01-05-2020 09:33:17 10.4 C 38 %
1355 01-05-2020 09:43:18 10.6 C 39 %
1356 01-05-2020 09:53:18 10.5 C 38 %
1357 01-05-2020 10:03:18 10.5 C 38 %
1358 01-05-2020 10:13:18 10.6 C 37 %
1359 01-05-2020 10:23:17 10.5 C 37 %
1360 01-05-2020 10:33:17 11 C 37 %
1361 01-05-2020 10:43:17 11.5 C 36 %
1362 01-05-2020 10:53:17 12.6 C 34 %
1363 01-05-2020 11:03:17 12.5 C 33 %
1364 01-05-2020 11:13:18 12.8 C 33 %
1365 01-05-2020 11:23:17 12.7 C 32 %
1366 01-05-2020 11:33:18 13.1 C 31 %
1367 01-05-2020 11:43:18 13.1 C 31 %
1368 01-05-2020 11:53:17 12.8 C 32 %
1369 01-05-2020 12:03:17 12.1 C 32 %
1370 01-05-2020 12:13:17 11.9 C 34 %
1371 01-05-2020 12:23:17 12.1 C 33 %
1372 01-05-2020 12:33:17 11.1 C 36 %
1373 01-05-2020 12:43:17 10.7 C 38 %
1374 01-05-2020 12:53:17 10.4 C 39 %
1375 01-05-2020 13:03:18 10.3 C 38 %
Sensor: Nr:Datum:Temp:Feuchte:
Aussen-T/F 1376 01-05-2020 13:13:18 9.7 C 38 %
1377 01-05-2020 13:23:17 10.5 C 38 %
1378 01-05-2020 13:33:17 11.3 C 36 %
1379 01-05-2020 13:43:17 12.4 C 34 %
1380 01-05-2020 13:53:17 12.8 C 34 %
1381 01-05-2020 14:03:17 12.3 C 33 %
1382 01-05-2020 14:13:17 13.5 C 31 %
1383 01-05-2020 14:23:18 14.7 C 28 %
1384 01-05-2020 14:33:18 14.2 C 27 %
1385 01-05-2020 14:43:18 16.8 C 22 %
1386 01-05-2020 14:53:17 19.6 C 20 %
1387 01-05-2020 15:03:17 19.2 C 20 %
1388 01-05-2020 15:13:17 20 C 20 %
1389 01-05-2020 15:23:17 16.6 C 20 %
1390 01-05-2020 15:33:17 14.9 C 25 %
1391 01-05-2020 15:43:17 13.5 C 27 %
1392 01-05-2020 15:53:17 11.7 C 34 %
1393 01-05-2020 16:03:18 13.5 C 30 %
1394 01-05-2020 16:13:18 18.5 C 24 %
1395 01-05-2020 16:23:17 19 C 20 %
1396 01-05-2020 16:33:18 18 C 20 %
1397 01-05-2020 16:43:18 18.4 C 20 %
1398 01-05-2020 16:53:17 17.1 C 22 %
1399 01-05-2020 17:03:18 19.1 C 20 %
1400 01-05-2020 17:13:18 18.3 C 20 %
Sensor: Nr:Datum:Temp:Feuchte:
Aussen-T/F 1401 01-05-2020 17:23:17 15.5 C 25 %
1402 01-05-2020 17:33:17 14 C 28 %
1403 01-05-2020 17:43:17 12.2 C 34 %
1404 01-05-2020 17:53:17 12.3 C 35 %
1405 01-05-2020 18:03:18 12.5 C 35 %
1406 01-05-2020 18:13:18 12.1 C 35 %
1407 01-05-2020 18:23:17 12.2 C 35 %
1408 01-05-2020 18:33:18 12.8 C 35 %
1409 01-05-2020 18:43:18 13.8 C 34 %
1410 01-05-2020 18:53:17 13.2 C 31 %
1411 01-05-2020 19:03:18 12.7 C 34 %
1412 01-05-2020 19:13:18 12.1 C 35 %
1413 01-05-2020 19:23:18 11.7 C 36 %
1414 01-05-2020 19:33:17 11.8 C 35 %
1415 01-05-2020 19:43:17 11.8 C 35 %
1416 01-05-2020 19:53:17 11.4 C 35 %
1417 01-05-2020 20:03:17 11.3 C 35 %
1418 01-05-2020 20:13:17 11.3 C 35 %
1419 01-05-2020 20:23:17 11.5 C 34 %
1420 01-05-2020 20:33:17 11.1 C 34 %
1421 01-05-2020 20:43:17 10.5 C 36 %
1422 01-05-2020 20:53:17 10.3 C 37 %
1423 01-05-2020 21:03:18 10.3 C 37 %
1424 01-05-2020 21:13:18 10.4 C 37 %
1425 01-05-2020 21:23:17 10.2 C 37 %
Sensor: Nr:Datum:Temp:Feuchte:
Aussen-T/F 1426 01-05-2020 21:33:17 9.8 C 38 %
1427 01-05-2020 21:43:17 9.3 C 39 %
1428 01-05-2020 21:53:17 8.8 C 40 %
1429 01-05-2020 22:03:18 9 C 40 %
1430 01-05-2020 22:13:18 9 C 40 %
1431 01-05-2020 22:23:17 9.2 C 39 %
1432 01-05-2020 22:33:17 9.3 C 39 %
1433 01-05-2020 22:43:17 9.3 C 40 %
1434 01-05-2020 22:53:18 9.5 C 39 %
1435 01-05-2020 23:03:17 9.4 C 40 %
1436 01-05-2020 23:13:17 9.3 C 40 %
1437 01-05-2020 23:23:17 9.3 C 40 %
1438 01-05-2020 23:33:17 9.4 C 40 %
1439 01-05-2020 23:43:17 9.5 C 39 %
1440 01-05-2020 23:53:17 9.4 C 40 %
1441 02-05-2020 00:03:17 9.3 C 40 %
1442 02-05-2020 00:13:17 9.2 C 40 %
1443 02-05-2020 00:23:17 9 C 40 %
1444 02-05-2020 00:33:18 8.9 C 40 %
1445 02-05-2020 00:43:18 8.9 C 40 %
1446 02-05-2020 00:53:17 8.9 C 40 %
1447 02-05-2020 01:03:18 9.1 C 40 %
1448 02-05-2020 01:13:18 9.3 C 39 %
1449 02-05-2020 01:23:17 9.3 C 39 %
1450 02-05-2020 01:33:17 9.1 C 40 %
Sensor: Nr:Datum:Temp:Feuchte:
Aussen-T/F 1451 02-05-2020 01:43:18 8.8 C 40 %
1452 02-05-2020 01:53:17 8.5 C 40 %
1453 02-05-2020 02:03:18 8.3 C 41 %
1454 02-05-2020 02:13:18 8.3 C 42 %
1455 02-05-2020 02:23:17 8.4 C 42 %
1456 02-05-2020 02:33:18 8.7 C 41 %
1457 02-05-2020 02:43:18 9.1 C 40 %
1458 02-05-2020 02:53:17 9.3 C 39 %
1459 02-05-2020 03:03:18 9.3 C 39 %
1460 02-05-2020 03:13:18 9.1 C 39 %
1461 02-05-2020 03:23:17 9.3 C 39 %
1462 02-05-2020 03:33:17 9.2 C 39 %
1463 02-05-2020 03:43:17 8.9 C 40 %
1464 02-05-2020 03:53:17 8.9 C 40 %
1465 02-05-2020 04:03:18 8.6 C 40 %
1466 02-05-2020 04:13:18 8.4 C 41 %
1467 02-05-2020 04:23:17 8.4 C 41 %
1468 02-05-2020 04:33:18 8.8 C 40 %
1469 02-05-2020 04:43:18 9 C 39 %
1470 02-05-2020 04:53:18 8.8 C 40 %
1471 02-05-2020 05:03:17 8.8 C 39 %
1472 02-05-2020 05:13:17 8.8 C 39 %
1473 02-05-2020 05:23:17 8.7 C 39 %
1474 02-05-2020 05:33:17 8.8 C 39 %
1475 02-05-2020 05:43:17 8.4 C 40 %
Sensor: Nr:Datum:Temp:Feuchte:
Aussen-T/F 1476 02-05-2020 05:53:17 8.2 C 39 %
1477 02-05-2020 06:03:17 8.2 C 39 %
1478 02-05-2020 06:13:17 7.7 C 40 %
1479 02-05-2020 06:23:17 7.9 C 40 %
1480 02-05-2020 06:33:17 7.9 C 40 %
1481 02-05-2020 06:43:17 8 C 39 %
1482 02-05-2020 06:53:17 8.2 C 39 %
1483 02-05-2020 07:03:17 8 C 39 %
1484 02-05-2020 07:13:17 8.3 C 39 %
1485 02-05-2020 07:23:17 8.4 C 38 %
1486 02-05-2020 07:33:17 8.2 C 38 %
1487 02-05-2020 07:43:17 8 C 39 %
1488 02-05-2020 07:53:17 8.4 C 39 %
1489 02-05-2020 08:03:17 8.5 C 39 %
1490 02-05-2020 08:13:17 8.9 C 38 %
1491 02-05-2020 08:23:17 9 C 37 %
1492 02-05-2020 08:33:17 9.8 C 37 %
1493 02-05-2020 08:43:17 9.8 C 37 %
1494 02-05-2020 08:53:17 9.5 C 37 %
1495 02-05-2020 09:03:17 9.6 C 36 %
1496 02-05-2020 09:13:17 9.7 C 36 %
1497 02-05-2020 09:23:17 9.9 C 36 %
1498 02-05-2020 09:33:17 10.8 C 35 %
1499 02-05-2020 09:43:17 10.8 C 35 %
1500 02-05-2020 09:53:17 10.2 C 35 %
Sensor: Nr:Datum:Temp:Feuchte:
Aussen-T/F 1501 02-05-2020 10:03:18 9.7 C 36 %
1502 02-05-2020 10:13:18 8.6 C 40 %
1503 02-05-2020 10:23:17 6.8 C 41 %
1504 02-05-2020 10:33:17 6.7 C 44 %
1505 02-05-2020 10:43:17 6.7 C 43 %
1506 02-05-2020 10:53:17 6.9 C 43 %
1507 02-05-2020 11:03:17 7.4 C 42 %
1508 02-05-2020 11:13:17 8.4 C 40 %
1509 02-05-2020 11:23:17 8.7 C 40 %
1510 02-05-2020 11:33:17 8.8 C 40 %
1511 02-05-2020 11:43:17 9.3 C 39 %
1512 02-05-2020 11:53:17 9.2 C 39 %
1513 02-05-2020 12:03:17 9.6 C 38 %
1514 02-05-2020 12:13:17 10 C 36 %
1515 02-05-2020 12:23:17 10.3 C 36 %
1516 02-05-2020 12:33:18 10.8 C 36 %
1517 02-05-2020 12:43:18 11.8 C 35 %
1518 02-05-2020 12:53:17 10.4 C 37 %
1519 02-05-2020 13:03:17 11.7 C 32 %
1520 02-05-2020 13:13:17 12.1 C 31 %
1521 02-05-2020 13:23:17 11.4 C 32 %
1522 02-05-2020 13:33:17 11.3 C 32 %
1523 02-05-2020 13:43:17 11.5 C 33 %
1524 02-05-2020 13:53:17 12.2 C 32 %
1525 02-05-2020 14:03:17 12.7 C 31 %
Sensor: Nr:Datum:Temp:Feuchte:
Aussen-T/F 1526 02-05-2020 14:13:17 14.3 C 28 %
1527 02-05-2020 14:23:18 15.6 C 25 %
1528 02-05-2020 14:33:17 12.8 C 27 %
1529 02-05-2020 14:43:18 8.8 C 37 %
1530 02-05-2020 14:53:17 8.4 C 40 %
1531 02-05-2020 15:03:17 7.7 C 42 %
1532 02-05-2020 15:13:17 8.1 C 45 %
1533 02-05-2020 15:23:17 8.9 C 41 %
1534 02-05-2020 15:33:18 13.2 C 32 %
1535 02-05-2020 15:43:18 17.2 C 29 %
1536 02-05-2020 15:53:17 16.8 C 25 %
1537 02-05-2020 16:03:17 18.1 C 23 %
1538 02-05-2020 16:13:17 19.2 C 20 %
1539 02-05-2020 16:23:17 19.8 C 20 %
1540 02-05-2020 16:33:17 16.9 C 20 %
1541 02-05-2020 16:43:17 14.2 C 28 %
1542 02-05-2020 16:53:17 13.5 C 29 %
1543 02-05-2020 17:03:17 18.1 C 23 %
1544 02-05-2020 17:13:17 16.2 C 22 %
1545 02-05-2020 17:23:18 14.5 C 25 %
1546 02-05-2020 17:33:18 14 C 28 %
1547 02-05-2020 17:43:18 14.2 C 27 %
1548 02-05-2020 17:53:17 16.8 C 22 %
1549 02-05-2020 18:03:17 14.7 C 20 %
1550 02-05-2020 18:13:17 14.1 C 22 %
Sensor: Nr:Datum:Temp:Feuchte:
Aussen-T/F 1551 02-05-2020 18:23:17 13.3 C 26 %
1552 02-05-2020 18:33:17 13.2 C 27 %
1553 02-05-2020 18:43:17 12.6 C 29 %
1554 02-05-2020 18:53:17 12.3 C 29 %
1555 02-05-2020 19:03:17 11.9 C 31 %
1556 02-05-2020 19:13:17 11.2 C 31 %
1557 02-05-2020 19:23:17 11.7 C 29 %
1558 02-05-2020 19:33:17 11.5 C 29 %
1559 02-05-2020 19:43:18 11.5 C 30 %
1560 02-05-2020 19:53:17 11.9 C 30 %
1561 02-05-2020 20:03:17 12.1 C 30 %
1562 02-05-2020 20:13:17 11.5 C 30 %
1563 02-05-2020 20:23:17 11.3 C 30 %
1564 02-05-2020 20:33:17 10 C 35 %
1565 02-05-2020 20:43:17 9.2 C 38 %
1566 02-05-2020 20:53:17 8.8 C 39 %
1567 02-05-2020 21:03:17 8.5 C 40 %
1568 02-05-2020 21:13:17 8.3 C 40 %
1569 02-05-2020 21:23:17 8.2 C 39 %
1570 02-05-2020 21:33:17 7.9 C 40 %
1571 02-05-2020 21:43:17 7.8 C 41 %
1572 02-05-2020 21:53:18 7.4 C 41 %
1573 02-05-2020 22:03:17 6.9 C 43 %
1574 02-05-2020 22:13:17 6.8 C 44 %
1575 02-05-2020 22:23:17 6.5 C 45 %
Sensor: Nr:Datum:Temp:Feuchte:
Aussen-T/F 1576 02-05-2020 22:33:17 6.3 C 45 %
1577 02-05-2020 22:43:17 6.3 C 45 %
1578 02-05-2020 22:53:18 6.6 C 45 %
1579 02-05-2020 23:03:17 6.6 C 44 %
1580 02-05-2020 23:13:17 6.4 C 44 %
1581 02-05-2020 23:23:17 6.4 C 44 %
1582 02-05-2020 23:33:17 6.4 C 44 %
1583 02-05-2020 23:43:17 6.2 C 44 %
1584 02-05-2020 23:53:17 6 C 45 %
1585 03-05-2020 00:03:17 6 C 45 %
1586 03-05-2020 00:13:17 5.8 C 46 %
1587 03-05-2020 00:23:17 5.9 C 46 %
1588 03-05-2020 00:33:17 5.6 C 46 %
1589 03-05-2020 00:43:17 5.5 C 46 %
1590 03-05-2020 00:53:17 5.3 C 46 %
1591 03-05-2020 01:03:18 5.2 C 46 %
1592 03-05-2020 01:13:18 5.1 C 46 %
1593 03-05-2020 01:23:17 4.8 C 47 %
1594 03-05-2020 01:33:18 4.6 C 47 %
1595 03-05-2020 01:43:18 4.7 C 47 %
1596 03-05-2020 01:53:18 4.7 C 47 %
1597 03-05-2020 02:03:18 4.7 C 47 %
1598 03-05-2020 02:13:18 5 C 46 %
1599 03-05-2020 02:23:17 4.7 C 47 %
1600 03-05-2020 02:33:18 4.5 C 47 %
Sensor: Nr:Datum:Temp:Feuchte:
Aussen-T/F 1601 03-05-2020 02:43:18 4.5 C 47 %
1602 03-05-2020 02:53:17 4.3 C 47 %
1603 03-05-2020 03:03:17 4.2 C 47 %
1604 03-05-2020 03:13:17 4 C 47 %
1605 03-05-2020 03:23:17 4.2 C 47 %
1606 03-05-2020 03:33:18 4.3 C 47 %
1607 03-05-2020 03:43:18 4.1 C 46 %
1608 03-05-2020 03:53:17 3.8 C 47 %
1609 03-05-2020 04:03:18 3.8 C 47 %
1610 03-05-2020 04:13:18 3.6 C 47 %
1611 03-05-2020 04:23:18 3.5 C 47 %
1612 03-05-2020 04:33:17 3.3 C 47 %
1613 03-05-2020 04:43:17 3 C 47 %
1614 03-05-2020 04:53:17 3.1 C 47 %
1615 03-05-2020 05:03:17 2.9 C 48 %
1616 03-05-2020 05:13:17 2.8 C 48 %
1617 03-05-2020 05:23:17 2.8 C 48 %
1618 03-05-2020 05:33:17 2.8 C 48 %
1619 03-05-2020 05:43:17 2.8 C 48 %
1620 03-05-2020 05:53:17 3.1 C 47 %
1621 03-05-2020 06:03:17 3.3 C 47 %
1622 03-05-2020 06:13:17 3.6 C 47 %
1623 03-05-2020 06:23:17 3.9 C 47 %
1624 03-05-2020 06:33:18 4 C 46 %
1625 03-05-2020 06:43:18 4 C 46 %
Sensor: Nr:Datum:Temp:Feuchte:
Aussen-T/F 1626 03-05-2020 06:53:17 4 C 46 %
1627 03-05-2020 07:03:17 4 C 46 %
1628 03-05-2020 07:13:17 4.1 C 46 %
1629 03-05-2020 07:23:18 4.2 C 46 %
1630 03-05-2020 07:33:18 4.2 C 46 %
1631 03-05-2020 07:43:18 4.4 C 46 %
1632 03-05-2020 07:53:18 4.7 C 46 %
1633 03-05-2020 08:03:18 4.6 C 46 %
1634 03-05-2020 08:13:18 5 C 46 %
1635 03-05-2020 08:23:18 5.5 C 46 %
1636 03-05-2020 08:33:17 5.4 C 46 %
1637 03-05-2020 08:43:17 6.1 C 45 %
1638 03-05-2020 08:53:17 6.2 C 43 %
1639 03-05-2020 09:03:17 6.5 C 43 %
1640 03-05-2020 09:13:17 6.4 C 42 %
1641 03-05-2020 09:23:17 7.2 C 41 %
1642 03-05-2020 09:33:18 7.6 C 42 %
1643 03-05-2020 09:43:18 7.6 C 40 %
1644 03-05-2020 09:53:17 8.6 C 40 %
1645 03-05-2020 10:03:17 8.9 C 40 %
1646 03-05-2020 10:13:17 9.7 C 40 %
1647 03-05-2020 10:23:18 10.1 C 37 %
1648 03-05-2020 10:33:17 10.7 C 39 %
1649 03-05-2020 10:43:17 11.6 C 36 %
1650 03-05-2020 10:53:17 12.5 C 34 %
Sensor: Nr:Datum:Temp:Feuchte:
Aussen-T/F 1651 03-05-2020 11:03:17 12.7 C 33 %
1652 03-05-2020 11:13:17 13.5 C 32 %
1653 03-05-2020 11:23:17 14.4 C 31 %
1654 03-05-2020 11:33:17 14.5 C 30 %
1655 03-05-2020 11:43:18 14.8 C 28 %
1656 03-05-2020 11:53:18 14.5 C 25 %
1657 03-05-2020 12:03:18 14.5 C 25 %
1658 03-05-2020 12:13:18 14.7 C 25 %
1659 03-05-2020 12:23:17 14.7 C 22 %
1660 03-05-2020 12:33:18 14.7 C 23 %
1661 03-05-2020 12:43:18 14.9 C 23 %
1662 03-05-2020 12:53:17 15.1 C 20 %
1663 03-05-2020 13:03:18 16.2 C 20 %
1664 03-05-2020 13:13:18 16.1 C 20 %
1665 03-05-2020 13:23:17 16.3 C 20 %
1666 03-05-2020 13:33:18 16.3 C 20 %
1667 03-05-2020 13:43:18 16.6 C 20 %
1668 03-05-2020 13:53:18 17 C 20 %
1669 03-05-2020 14:03:18 17.4 C 20 %
1670 03-05-2020 14:13:18 18.4 C 20 %
1671 03-05-2020 14:23:17 19.4 C 20 %
1672 03-05-2020 14:33:18 23.3 C 20 %
1673 03-05-2020 14:43:18 22.4 C 20 %
1674 03-05-2020 14:53:17 20.3 C 20 %
1675 03-05-2020 15:03:17 20.3 C 20 %
Sensor: Nr:Datum:Temp:Feuchte:
Aussen-T/F 1676 03-05-2020 15:13:17 20.6 C 20 %
1677 03-05-2020 15:23:17 19.6 C 20 %
1678 03-05-2020 15:33:18 19 C 20 %
1679 03-05-2020 15:43:18 21.2 C 20 %
1680 03-05-2020 15:53:17 19.3 C 20 %
1681 03-05-2020 16:03:17 19 C 20 %
1682 03-05-2020 16:13:17 18.5 C 20 %
1683 03-05-2020 16:23:17 17.9 C 20 %
1684 03-05-2020 16:33:18 17.9 C 20 %
1685 03-05-2020 16:43:18 18.9 C 20 %
1686 03-05-2020 16:53:17 18.2 C 20 %
1687 03-05-2020 17:03:17 17.8 C 20 %
1688 03-05-2020 17:13:17 18.1 C 20 %
1689 03-05-2020 17:23:18 17.2 C 20 %
1690 03-05-2020 17:33:17 17.6 C 20 %
1691 03-05-2020 17:43:17 17.6 C 20 %
1692 03-05-2020 17:53:18 17.3 C 20 %
1693 03-05-2020 18:03:18 16.9 C 20 %
1694 03-05-2020 18:13:18 16.9 C 20 %
1695 03-05-2020 18:23:17 17.2 C 20 %
1696 03-05-2020 18:33:17 16.7 C 20 %
1697 03-05-2020 18:43:17 17 C 20 %
1698 03-05-2020 18:53:17 16.7 C 20 %
1699 03-05-2020 19:03:17 16.2 C 20 %
1700 03-05-2020 19:13:17 15.7 C 21 %
Sensor: Nr:Datum:Temp:Feuchte:
Aussen-T/F 1701 03-05-2020 19:23:17 15.6 C 22 %
1702 03-05-2020 19:33:18 15.2 C 27 %
1703 03-05-2020 19:43:18 14.1 C 29 %
1704 03-05-2020 19:53:17 13.8 C 30 %
1705 03-05-2020 20:03:17 13.3 C 30 %
1706 03-05-2020 20:13:17 13 C 30 %
1707 03-05-2020 20:23:17 12.8 C 31 %
1708 03-05-2020 20:33:18 12.5 C 31 %
1709 03-05-2020 20:43:18 12.4 C 31 %
1710 03-05-2020 20:53:17 12.3 C 32 %
1711 03-05-2020 21:03:17 12.1 C 32 %
1712 03-05-2020 21:13:17 12.1 C 32 %
1713 03-05-2020 21:23:17 12 C 32 %
1714 03-05-2020 21:33:17 12.1 C 32 %
1715 03-05-2020 21:43:18 12 C 32 %
1716 03-05-2020 21:53:17 12 C 33 %
1717 03-05-2020 22:03:18 12 C 33 %
1718 03-05-2020 22:13:18 11.8 C 34 %
1719 03-05-2020 22:23:17 11.8 C 34 %
1720 03-05-2020 22:33:17 11.7 C 34 %
1721 03-05-2020 22:43:17 11.6 C 34 %
1722 03-05-2020 22:53:18 11.4 C 35 %
1723 03-05-2020 23:03:17 11.3 C 35 %
1724 03-05-2020 23:13:17 11.2 C 34 %
1725 03-05-2020 23:23:17 11.4 C 35 %
Sensor: Nr:Datum:Temp:Feuchte:
Aussen-T/F 1726 03-05-2020 23:33:17 11.4 C 34 %
1727 03-05-2020 23:43:17 11.3 C 35 %
1728 03-05-2020 23:53:17 11.4 C 35 %
1729 04-05-2020 00:03:17 11.4 C 35 %
1730 04-05-2020 00:13:17 11.2 C 35 %
1731 04-05-2020 00:23:17 11 C 36 %
1732 04-05-2020 00:33:18 11 C 36 %
1733 04-05-2020 00:43:18 11.1 C 36 %
1734 04-05-2020 00:53:17 11 C 36 %
1735 04-05-2020 01:03:17 10.9 C 36 %
1736 04-05-2020 01:13:17 10.8 C 36 %
1737 04-05-2020 01:23:17 11.1 C 35 %
1738 04-05-2020 01:33:17 11 C 35 %
1739 04-05-2020 01:43:17 11.1 C 35 %
1740 04-05-2020 01:53:17 11 C 35 %
1741 04-05-2020 02:03:17 10.8 C 37 %
1742 04-05-2020 02:13:17 10.8 C 36 %
1743 04-05-2020 02:23:17 10.6 C 37 %
1744 04-05-2020 02:33:18 10.7 C 36 %
1745 04-05-2020 02:43:18 10.7 C 37 %
1746 04-05-2020 02:53:17 10.1 C 37 %
1747 04-05-2020 03:03:17 9.9 C 37 %
1748 04-05-2020 03:13:17 9.7 C 37 %
1749 04-05-2020 03:23:17 9.4 C 38 %
1750 04-05-2020 03:33:17 9.1 C 39 %
Sensor: Nr:Datum:Temp:Feuchte:
Aussen-T/F 1751 04-05-2020 03:43:17 9.1 C 38 %
1752 04-05-2020 03:53:18 8.8 C 39 %
1753 04-05-2020 04:03:17 8.5 C 40 %
1754 04-05-2020 04:13:17 8.6 C 40 %
1755 04-05-2020 04:23:17 8.8 C 40 %
1756 04-05-2020 04:33:17 9 C 40 %
1757 04-05-2020 04:43:17 9.2 C 40 %
1758 04-05-2020 04:53:18 9.3 C 40 %
1759 04-05-2020 05:03:17 9.5 C 39 %
1760 04-05-2020 05:13:17 9.6 C 40 %
1761 04-05-2020 05:23:17 9.6 C 39 %
1762 04-05-2020 05:33:18 9.8 C 39 %
1763 04-05-2020 05:43:18 9.7 C 39 %
1764 04-05-2020 05:53:17 9.7 C 39 %
1765 04-05-2020 06:03:18 9.6 C 40 %
1766 04-05-2020 06:13:18 9.6 C 40 %
1767 04-05-2020 06:23:18 9.6 C 40 %
1768 04-05-2020 06:33:17 9.6 C 40 %
1769 04-05-2020 06:43:17 9.5 C 40 %
1770 04-05-2020 06:53:17 9.6 C 40 %
1771 04-05-2020 07:03:17 9.8 C 40 %
1772 04-05-2020 07:13:17 10.1 C 40 %
1773 04-05-2020 07:23:17 10.6 C 39 %
1774 04-05-2020 07:33:17 11.2 C 37 %
1775 04-05-2020 07:43:18 11.4 C 36 %
Sensor: Nr:Datum:Temp:Feuchte:
Aussen-T/F 1776 04-05-2020 07:53:17 11.3 C 37 %
1777 04-05-2020 08:03:17 10.8 C 40 %
1778 04-05-2020 08:13:17 10.6 C 41 %
1779 04-05-2020 08:23:17 10.7 C 43 %
1780 04-05-2020 08:33:17 11 C 42 %
1781 04-05-2020 08:43:18 11.3 C 42 %
1782 04-05-2020 08:53:17 11.2 C 41 %
1783 04-05-2020 09:03:18 11.2 C 41 %
1784 04-05-2020 09:13:18 11.3 C 41 %
1785 04-05-2020 09:23:18 11.3 C 42 %
1786 04-05-2020 09:33:17 11.3 C 43 %
1787 04-05-2020 09:43:17 11.5 C 41 %
1788 04-05-2020 09:53:17 12.3 C 39 %
1789 04-05-2020 10:03:18 13 C 37 %
1790 04-05-2020 10:13:18 14 C 36 %
1791 04-05-2020 10:23:17 13.6 C 36 %
1792 04-05-2020 10:33:18 14.8 C 35 %
1793 04-05-2020 10:43:18 14.3 C 35 %
1794 04-05-2020 10:53:17 14.2 C 36 %
1795 04-05-2020 11:03:17 13.4 C 37 %
1796 04-05-2020 11:13:17 13.2 C 38 %
1797 04-05-2020 11:23:17 13 C 39 %
1798 04-05-2020 11:33:18 12.4 C 40 %
1799 04-05-2020 11:43:18 12.2 C 40 %
1800 04-05-2020 11:53:17 12 C 41 %
Sensor: Nr:Datum:Temp:Feuchte:
Aussen-T/F 1801 04-05-2020 12:03:17 11.9 C 41 %
1802 04-05-2020 12:13:17 12.3 C 40 %
1803 04-05-2020 12:23:17 13.1 C 38 %
1804 04-05-2020 12:33:17 13.8 C 36 %
1805 04-05-2020 12:43:17 13.5 C 37 %
1806 04-05-2020 12:53:17 14.4 C 36 %
1807 04-05-2020 13:03:18 14.5 C 35 %
1808 04-05-2020 13:13:18 15.6 C 34 %
1809 04-05-2020 13:23:17 16 C 32 %
1810 04-05-2020 13:33:17 16.4 C 32 %
1811 04-05-2020 13:43:17 16.3 C 31 %
1812 04-05-2020 13:53:17 15.3 C 32 %
1813 04-05-2020 14:03:17 15 C 32 %
1814 04-05-2020 14:13:17 15.6 C 33 %
1815 04-05-2020 14:23:17 16.2 C 31 %
1816 04-05-2020 14:33:17 15.9 C 31 %
1817 04-05-2020 14:43:17 15.3 C 31 %
1818 04-05-2020 14:53:17 15.2 C 32 %
1819 04-05-2020 15:03:17 14.4 C 34 %
1820 04-05-2020 15:13:17 14.4 C 34 %
1821 04-05-2020 15:23:17 14.8 C 33 %
1822 04-05-2020 15:33:17 14.5 C 33 %
1823 04-05-2020 15:43:17 15.4 C 31 %
1824 04-05-2020 15:53:17 15.8 C 31 %
1825 04-05-2020 16:03:18 16 C 30 %
Sensor: Nr:Datum:Temp:Feuchte:
Aussen-T/F 1826 04-05-2020 16:13:18 15.9 C 30 %
1827 04-05-2020 16:23:17 15.2 C 30 %
1828 04-05-2020 16:33:17 14.4 C 30 %
1829 04-05-2020 16:43:17 15 C 30 %
1830 04-05-2020 16:53:18 14.9 C 30 %
1831 04-05-2020 17:03:18 14.8 C 31 %
1832 04-05-2020 17:13:18 14.4 C 31 %
1833 04-05-2020 17:23:17 14.7 C 30 %
1834 04-05-2020 17:33:18 14.4 C 31 %
1835 04-05-2020 17:43:18 14.2 C 30 %
1836 04-05-2020 17:53:17 14.4 C 30 %
1837 04-05-2020 18:03:17 14.7 C 30 %
1838 04-05-2020 18:13:17 14.4 C 30 %
1839 04-05-2020 18:23:17 14 C 30 %
1840 04-05-2020 18:33:17 13.8 C 31 %
1841 04-05-2020 18:43:17 13.7 C 31 %
1842 04-05-2020 18:53:17 13.7 C 30 %
1843 04-05-2020 19:03:17 13.7 C 31 %
1844 04-05-2020 19:13:17 13.4 C 32 %
1845 04-05-2020 19:23:17 13.1 C 33 %
1846 04-05-2020 19:33:17 13 C 33 %
1847 04-05-2020 19:43:17 12.8 C 34 %
1848 04-05-2020 19:53:17 12.7 C 35 %
1849 04-05-2020 20:03:18 12.7 C 35 %
1850 04-05-2020 20:13:18 12.6 C 36 %
Sensor: Nr:Datum:Temp:Feuchte:
Aussen-T/F 1851 04-05-2020 20:23:17 12.2 C 36 %
1852 04-05-2020 20:33:17 11.7 C 37 %
1853 04-05-2020 20:43:18 11.8 C 35 %
1854 04-05-2020 20:53:17 11.4 C 36 %
1855 04-05-2020 21:03:17 10.8 C 36 %
1856 04-05-2020 21:13:17 10.4 C 36 %
1857 04-05-2020 21:23:18 9.9 C 36 %
1858 04-05-2020 21:33:17 9.6 C 36 %
1859 04-05-2020 21:43:17 9.1 C 37 %
1860 04-05-2020 21:53:17 8.6 C 37 %
1861 04-05-2020 22:03:17 8.5 C 37 %
1862 04-05-2020 22:13:17 8.3 C 37 %
1863 04-05-2020 22:23:17 7.7 C 40 %
1864 04-05-2020 22:33:17 7.3 C 40 %
1865 04-05-2020 22:43:17 7 C 41 %
1866 04-05-2020 22:53:17 6.9 C 42 %
1867 04-05-2020 23:03:17 6.5 C 42 %
1868 04-05-2020 23:13:17 6.3 C 42 %
1869 04-05-2020 23:23:17 6.4 C 42 %
1870 04-05-2020 23:33:17 6.5 C 41 %
1871 04-05-2020 23:43:17 6.3 C 41 %
1872 04-05-2020 23:53:17 6.1 C 42 %
1873 05-05-2020 00:03:17 6.1 C 41 %
1874 05-05-2020 00:13:17 5.9 C 42 %
1875 05-05-2020 00:23:17 5.8 C 43 %
Sensor: Nr:Datum:Temp:Feuchte:
Aussen-T/F 1876 05-05-2020 00:33:18 5.5 C 43 %
1877 05-05-2020 00:43:18 5.4 C 45 %
1878 05-05-2020 00:53:17 5.4 C 44 %
1879 05-05-2020 01:03:18 5.1 C 44 %
1880 05-05-2020 01:13:18 5 C 45 %
1881 05-05-2020 01:23:18 4.8 C 45 %
1882 05-05-2020 01:33:17 4.7 C 46 %
1883 05-05-2020 01:43:17 4.6 C 45 %
1884 05-05-2020 01:53:18 4.3 C 46 %
1885 05-05-2020 02:03:18 4.2 C 46 %
1886 05-05-2020 02:13:18 4.2 C 46 %
1887 05-05-2020 02:23:17 4.2 C 47 %
1888 05-05-2020 02:33:17 4.1 C 46 %
1889 05-05-2020 02:43:17 4 C 47 %
1890 05-05-2020 02:53:17 4 C 47 %
1891 05-05-2020 03:03:17 3.9 C 48 %
1892 05-05-2020 03:13:18 4.4 C 47 %
1893 05-05-2020 03:23:17 4.4 C 47 %
1894 05-05-2020 03:33:18 4.2 C 46 %
1895 05-05-2020 03:43:18 4.2 C 47 %
1896 05-05-2020 03:53:18 4.1 C 47 %
1897 05-05-2020 04:03:17 4 C 47 %
1898 05-05-2020 04:13:17 3.8 C 47 %
1899 05-05-2020 04:23:17 3.7 C 47 %
1900 05-05-2020 04:33:17 3.7 C 47 %
Sensor: Nr:Datum:Temp:Feuchte:
Aussen-T/F 1901 05-05-2020 04:43:18 3.6 C 47 %
1902 05-05-2020 04:53:17 3.5 C 47 %
1903 05-05-2020 05:03:18 3.4 C 47 %
1904 05-05-2020 05:13:18 3.6 C 47 %
1905 05-05-2020 05:23:17 3.7 C 47 %
1906 05-05-2020 05:33:17 3.6 C 47 %
1907 05-05-2020 05:43:17 3.5 C 47 %
1908 05-05-2020 05:53:17 3.5 C 47 %
1909 05-05-2020 06:03:17 3.6 C 47 %
1910 05-05-2020 06:13:17 3.6 C 47 %
1911 05-05-2020 06:23:17 3.8 C 47 %
1912 05-05-2020 06:33:17 4.1 C 46 %
1913 05-05-2020 06:43:17 4.2 C 46 %
1914 05-05-2020 06:53:17 4.3 C 46 %
1915 05-05-2020 07:03:17 4.6 C 46 %
1916 05-05-2020 07:13:17 4.9 C 46 %
1917 05-05-2020 07:23:18 4.9 C 46 %
1918 05-05-2020 07:33:17 5.3 C 46 %
1919 05-05-2020 07:43:17 5.7 C 46 %
1920 05-05-2020 07:53:17 6 C 45 %
1921 05-05-2020 08:03:17 6.3 C 45 %
1922 05-05-2020 08:13:17 6.4 C 44 %
1923 05-05-2020 08:23:17 6.9 C 43 %
1924 05-05-2020 08:33:17 6.9 C 42 %
1925 05-05-2020 08:43:17 6.9 C 42 %
Sensor: Nr:Datum:Temp:Feuchte:
Aussen-T/F 1926 05-05-2020 08:53:17 7.1 C 41 %
1927 05-05-2020 09:03:17 7.4 C 40 %
1928 05-05-2020 09:13:17 7.9 C 39 %
1929 05-05-2020 09:23:17 8.1 C 39 %
1930 05-05-2020 09:33:17 8.6 C 38 %
1931 05-05-2020 09:43:18 9.1 C 37 %
1932 05-05-2020 09:53:17 9.3 C 36 %
1933 05-05-2020 10:03:17 9.5 C 36 %
1934 05-05-2020 10:13:17 10 C 34 %
1935 05-05-2020 10:23:18 10.1 C 33 %
1936 05-05-2020 10:33:17 10.5 C 32 %
1937 05-05-2020 10:43:17 11 C 31 %
1938 05-05-2020 10:53:17 11.3 C 31 %
1939 05-05-2020 11:03:17 12.1 C 29 %
1940 05-05-2020 11:13:17 12.2 C 28 %
1941 05-05-2020 11:23:18 13.1 C 27 %
1942 05-05-2020 11:33:18 13.1 C 26 %
1943 05-05-2020 11:43:18 13.4 C 26 %
1944 05-05-2020 11:53:17 13.7 C 26 %
1945 05-05-2020 12:03:18 13.7 C 25 %
1946 05-05-2020 12:13:18 14.5 C 25 %
1947 05-05-2020 12:23:17 13.9 C 25 %
1948 05-05-2020 12:33:18 13.5 C 25 %
1949 05-05-2020 12:43:18 13.7 C 25 %
1950 05-05-2020 12:53:17 13.7 C 25 %
Sensor: Nr:Datum:Temp:Feuchte:
Aussen-T/F 1951 05-05-2020 13:03:18 13.9 C 25 %
1952 05-05-2020 13:13:18 14.2 C 25 %
1953 05-05-2020 13:23:18 14.5 C 24 %
1954 05-05-2020 13:33:17 15.8 C 22 %
1955 05-05-2020 13:43:17 15.9 C 21 %
1956 05-05-2020 13:53:17 16.4 C 20 %
1957 05-05-2020 14:03:17 15.3 C 20 %
1958 05-05-2020 14:13:17 16 C 20 %
1959 05-05-2020 14:23:17 21.9 C 20 %
1960 05-05-2020 14:33:17 23.5 C 20 %
1961 05-05-2020 14:43:17 24.9 C 20 %
1962 05-05-2020 14:53:17 23.7 C 20 %
1963 05-05-2020 15:03:17 21.4 C 20 %
1964 05-05-2020 15:13:17 23.8 C 20 %
1965 05-05-2020 15:23:17 24.3 C 20 %
1966 05-05-2020 15:33:17 25.4 C 20 %
1967 05-05-2020 15:43:17 21.3 C 20 %
1968 05-05-2020 15:53:17 22.1 C 20 %
1969 05-05-2020 16:03:18 25 C 20 %
1970 05-05-2020 16:13:18 21.3 C 20 %
1971 05-05-2020 16:23:17 24.8 C 20 %
1972 05-05-2020 16:33:17 25.9 C 20 %
1973 05-05-2020 16:43:18 24.4 C 20 %
1974 05-05-2020 16:53:17 24.7 C 20 %
1975 05-05-2020 17:03:17 22.1 C 20 %
Sensor: Nr:Datum:Temp:Feuchte:
Aussen-T/F 1976 05-05-2020 17:13:17 25.1 C 20 %
1977 05-05-2020 17:23:17 24.2 C 20 %
1978 05-05-2020 17:33:18 23.7 C 20 %
1979 05-05-2020 17:43:18 23.3 C 20 %
1980 05-05-2020 17:53:17 21.2 C 20 %
1981 05-05-2020 18:03:17 20 C 20 %
1982 05-05-2020 18:13:17 18.4 C 20 %
1983 05-05-2020 18:23:17 17.4 C 20 %
1984 05-05-2020 18:33:18 17.6 C 20 %
1985 05-05-2020 18:43:18 16.8 C 20 %
1986 05-05-2020 18:53:17 16.9 C 20 %
1987 05-05-2020 19:03:17 17.1 C 20 %
1988 05-05-2020 19:13:17 16.5 C 20 %
1989 05-05-2020 19:23:17 16.2 C 20 %
1990 05-05-2020 19:33:17 16 C 20 %
1991 05-05-2020 19:43:18 15.7 C 20 %
1992 05-05-2020 19:53:17 15.5 C 20 %
1993 05-05-2020 20:03:18 15.2 C 20 %
1994 05-05-2020 20:13:18 15.1 C 20 %
1995 05-05-2020 20:23:17 14.6 C 20 %
1996 05-05-2020 20:33:17 14.2 C 20 %
1997 05-05-2020 20:43:17 13.8 C 20 %
1998 05-05-2020 20:53:17 12.8 C 20 %
1999 05-05-2020 21:03:17 11.3 C 21 %
2000 05-05-2020 21:13:17 11 C 23 %
Sensor: Nr:Datum:Temp:Feuchte:
Aussen-T/F 2001 05-05-2020 21:23:17 10.7 C 21 %
2002 05-05-2020 21:33:17 10.3 C 25 %
2003 05-05-2020 21:43:17 10.1 C 22 %
2004 05-05-2020 21:53:17 9.8 C 25 %
2005 05-05-2020 22:03:17 9.7 C 25 %
2006 05-05-2020 22:13:17 9.3 C 26 %
2007 05-05-2020 22:23:17 9.4 C 26 %
2008 05-05-2020 22:33:17 9.2 C 26 %
2009 05-05-2020 22:43:17 9.1 C 26 %
2010 05-05-2020 22:53:18 9.1 C 26 %
2011 05-05-2020 23:03:17 8.7 C 27 %
2012 05-05-2020 23:13:17 8.6 C 27 %
2013 05-05-2020 23:23:18 8.2 C 27 %
2014 05-05-2020 23:33:18 8 C 27 %
2015 05-05-2020 23:43:18 7.5 C 29 %
2016 05-05-2020 23:53:18 7.6 C 29 %
2017 06-05-2020 00:03:18 7.5 C 29 %
2018 06-05-2020 00:13:18 7.4 C 30 %
2019 06-05-2020 00:23:18 7 C 30 %
2020 06-05-2020 00:33:17 6.8 C 31 %
2021 06-05-2020 00:43:17 6.4 C 33 %
2022 06-05-2020 00:53:17 6 C 33 %
2023 06-05-2020 01:03:17 5.9 C 34 %
2024 06-05-2020 01:13:17 5.7 C 35 %
2025 06-05-2020 01:23:17 5 C 36 %
Sensor: Nr:Datum:Temp:Feuchte:
Aussen-T/F 2026 06-05-2020 01:33:17 4.7 C 37 %
2027 06-05-2020 01:43:17 4.3 C 38 %
2028 06-05-2020 01:53:18 4.2 C 38 %
2029 06-05-2020 02:03:17 4 C 39 %
2030 06-05-2020 02:13:17 3.7 C 40 %
2031 06-05-2020 02:23:17 3.7 C 40 %
2032 06-05-2020 02:33:18 3.6 C 40 %
2033 06-05-2020 02:43:18 3.4 C 40 %
2034 06-05-2020 02:53:17 3.1 C 41 %
2035 06-05-2020 03:03:17 3.1 C 41 %
2036 06-05-2020 03:13:17 2.8 C 42 %
2037 06-05-2020 03:23:17 2.8 C 42 %
2038 06-05-2020 03:33:17 2.5 C 42 %
2039 06-05-2020 03:43:17 2.3 C 43 %
2040 06-05-2020 03:53:18 2.3 C 43 %
2041 06-05-2020 04:03:17 2.4 C 43 %
2042 06-05-2020 04:13:17 2.2 C 43 %
2043 06-05-2020 04:23:17 2.4 C 44 %
2044 06-05-2020 04:33:18 2.3 C 43 %
2045 06-05-2020 04:43:18 2 C 44 %
2046 06-05-2020 04:53:17 2 C 44 %
2047 06-05-2020 05:03:17 2.1 C 45 %
2048 06-05-2020 05:13:17 1.8 C 45 %
2049 06-05-2020 05:23:17 1.8 C 46 %
2050 06-05-2020 05:33:17 1.8 C 47 %
Sensor: Nr:Datum:Temp:Feuchte:
Aussen-T/F 2051 06-05-2020 05:43:17 1.7 C 46 %
2052 06-05-2020 05:53:18 1.5 C 46 %
2053 06-05-2020 06:03:18 1.5 C 46 %
2054 06-05-2020 06:13:18 1.4 C 46 %
2055 06-05-2020 06:23:17 1.4 C 47 %
2056 06-05-2020 06:33:17 1.4 C 47 %
2057 06-05-2020 06:43:17 1.5 C 47 %
2058 06-05-2020 06:53:17 1.6 C 47 %
2059 06-05-2020 07:03:17 1.7 C 47 %
2060 06-05-2020 07:13:17 1.8 C 47 %
2061 06-05-2020 07:23:17 2 C 47 %
2062 06-05-2020 07:33:17 2.2 C 45 %
2063 06-05-2020 07:43:17 2.4 C 46 %
2064 06-05-2020 07:53:17 2.6 C 46 %
2065 06-05-2020 08:03:18 2.8 C 45 %
2066 06-05-2020 08:13:18 3 C 44 %
2067 06-05-2020 08:23:17 3.6 C 44 %
2068 06-05-2020 08:33:17 3.7 C 44 %
2069 06-05-2020 08:43:17 4.1 C 43 %
2070 06-05-2020 08:53:18 4.7 C 42 %
2071 06-05-2020 09:03:17 5.1 C 41 %
2072 06-05-2020 09:13:18 5.7 C 41 %
2073 06-05-2020 09:23:17 6.5 C 40 %
2074 06-05-2020 09:33:17 6.8 C 39 %
2075 06-05-2020 09:43:17 7.5 C 38 %
Sensor: Nr:Datum:Temp:Feuchte:
Aussen-T/F 2076 06-05-2020 09:53:17 7.8 C 37 %
2077 06-05-2020 10:03:18 8.3 C 37 %
2078 06-05-2020 10:13:18 9 C 35 %
2079 06-05-2020 10:23:17 9.9 C 31 %
2080 06-05-2020 10:33:18 11.7 C 25 %
2081 06-05-2020 10:43:18 12.3 C 20 %
2082 06-05-2020 10:53:17 12.4 C 20 %
2083 06-05-2020 11:03:17 12.9 C 20 %
2084 06-05-2020 11:13:17 13.1 C 20 %
2085 06-05-2020 11:23:17 13.6 C 20 %
2086 06-05-2020 11:33:17 13.7 C 20 %
2087 06-05-2020 11:43:18 13.6 C 20 %
2088 06-05-2020 11:53:17 13.9 C 20 %
2089 06-05-2020 12:03:17 13.8 C 20 %
2090 06-05-2020 12:13:17 13.8 C 20 %
2091 06-05-2020 12:23:18 14 C 20 %
2092 06-05-2020 12:33:18 14.1 C 20 %
2093 06-05-2020 12:43:18 13.8 C 20 %
2094 06-05-2020 12:53:17 14.2 C 20 %
2095 06-05-2020 13:03:18 14.3 C 20 %
2096 06-05-2020 13:13:18 14.2 C 20 %
2097 06-05-2020 13:23:18 14.6 C 20 %
2098 06-05-2020 13:33:17 14.8 C 20 %
2099 06-05-2020 13:43:18 14.8 C 20 %
2100 06-05-2020 13:53:17 15.6 C 20 %
Sensor: Nr:Datum:Temp:Feuchte:
Aussen-T/F 2101 06-05-2020 14:03:18 18.6 C 20 %
2102 06-05-2020 14:13:18 20.6 C 20 %
2103 06-05-2020 14:23:17 23.8 C 20 %
2104 06-05-2020 14:33:17 23.1 C 20 %
2105 06-05-2020 14:43:17 23.1 C 20 %
2106 06-05-2020 14:53:17 24.2 C 20 %
2107 06-05-2020 15:03:17 24.4 C 20 %
2108 06-05-2020 15:13:17 26.3 C 20 %
2109 06-05-2020 15:23:17 22.6 C 20 %
2110 06-05-2020 15:33:17 26.1 C 20 %
2111 06-05-2020 15:43:17 23.6 C 20 %
2112 06-05-2020 15:53:17 24.9 C 20 %
2113 06-05-2020 16:03:18 24.5 C 20 %
2114 06-05-2020 16:13:18 25.9 C 20 %
2115 06-05-2020 16:23:17 25.5 C 20 %
2116 06-05-2020 16:33:17 26.9 C 20 %
2117 06-05-2020 16:43:17 24.7 C 20 %
2118 06-05-2020 16:53:17 24.5 C 20 %
2119 06-05-2020 17:03:17 26.3 C 20 %
2120 06-05-2020 17:13:17 23.5 C 20 %
2121 06-05-2020 17:23:17 24.9 C 20 %
2122 06-05-2020 17:33:17 24.1 C 20 %
2123 06-05-2020 17:43:17 24.5 C 20 %
2124 06-05-2020 17:53:18 25.2 C 20 %
2125 06-05-2020 18:03:18 24.7 C 20 %
Sensor: Nr:Datum:Temp:Feuchte:
Aussen-T/F 2126 06-05-2020 18:13:18 20.4 C 20 %
2127 06-05-2020 18:23:18 20.3 C 20 %
2128 06-05-2020 18:33:17 19.6 C 20 %
2129 06-05-2020 18:43:17 19.1 C 20 %
2130 06-05-2020 18:53:17 18.7 C 20 %
2131 06-05-2020 19:03:18 18.4 C 20 %
2132 06-05-2020 19:13:18 18.1 C 20 %
2133 06-05-2020 19:23:18 18.2 C 20 %
2134 06-05-2020 19:33:17 17.7 C 20 %
2135 06-05-2020 19:43:18 17.4 C 20 %
2136 06-05-2020 19:53:17 17.2 C 20 %
2137 06-05-2020 20:03:17 16.6 C 20 %
2138 06-05-2020 20:13:17 16 C 20 %
2139 06-05-2020 20:23:17 14.8 C 20 %
2140 06-05-2020 20:33:18 14 C 20 %
2141 06-05-2020 20:43:18 13.5 C 20 %
2142 06-05-2020 20:53:17 13 C 20 %
2143 06-05-2020 21:03:17 12.8 C 20 %
2144 06-05-2020 21:13:17 12.4 C 20 %
2145 06-05-2020 21:23:18 11.9 C 25 %
2146 06-05-2020 21:33:17 10.9 C 27 %
2147 06-05-2020 21:43:17 10.5 C 29 %
2148 06-05-2020 21:53:17 9.7 C 31 %
2149 06-05-2020 22:03:18 9.4 C 31 %
2150 06-05-2020 22:13:18 9.4 C 30 %
Sensor: Nr:Datum:Temp:Feuchte:
Aussen-T/F 2151 06-05-2020 22:23:17 9.1 C 32 %
2152 06-05-2020 22:33:18 9 C 31 %
2153 06-05-2020 22:43:18 8.6 C 32 %
2154 06-05-2020 22:53:17 8.2 C 33 %
2155 06-05-2020 23:03:17 8.1 C 33 %
2156 06-05-2020 23:13:18 7.7 C 35 %
2157 06-05-2020 23:23:17 7.2 C 35 %
2158 06-05-2020 23:33:17 6.9 C 36 %
2159 06-05-2020 23:43:17 6.8 C 36 %
2160 06-05-2020 23:53:17 6.6 C 36 %
2161 07-05-2020 00:03:17 6.4 C 36 %
2162 07-05-2020 00:13:17 6.4 C 37 %
2163 07-05-2020 00:23:17 6.1 C 37 %
2164 07-05-2020 00:33:18 6.1 C 37 %
2165 07-05-2020 00:43:18 6.1 C 37 %
2166 07-05-2020 00:53:17 6.3 C 37 %
2167 07-05-2020 01:03:18 6.2 C 37 %
2168 07-05-2020 01:13:18 6.2 C 37 %
2169 07-05-2020 01:23:17 6 C 37 %
2170 07-05-2020 01:33:18 5.9 C 38 %
2171 07-05-2020 01:43:18 5.9 C 38 %
2172 07-05-2020 01:53:17 5.2 C 39 %
2173 07-05-2020 02:03:17 5.2 C 39 %
2174 07-05-2020 02:13:17 5.2 C 39 %
2175 07-05-2020 02:23:18 5.1 C 40 %
Sensor: Nr:Datum:Temp:Feuchte:
Aussen-T/F 2176 07-05-2020 02:33:17 4.8 C 40 %
2177 07-05-2020 02:43:17 4.7 C 40 %
2178 07-05-2020 02:53:17 4.6 C 41 %
2179 07-05-2020 03:03:17 4.6 C 41 %
2180 07-05-2020 03:13:18 4.5 C 41 %
2181 07-05-2020 03:23:17 4.3 C 41 %
2182 07-05-2020 03:33:17 4.4 C 41 %
2183 07-05-2020 03:43:17 4.1 C 41 %
2184 07-05-2020 03:53:17 4.2 C 42 %
2185 07-05-2020 04:03:17 4.2 C 42 %
2186 07-05-2020 04:13:17 4 C 42 %
2187 07-05-2020 04:23:18 3.7 C 43 %
2188 07-05-2020 04:33:17 3.6 C 43 %
2189 07-05-2020 04:43:17 3.3 C 43 %
2190 07-05-2020 04:53:17 3.2 C 44 %
2191 07-05-2020 05:03:17 3.2 C 45 %
2192 07-05-2020 05:13:17 3.3 C 45 %
2193 07-05-2020 05:23:17 3 C 44 %
2194 07-05-2020 05:33:17 3.1 C 45 %
2195 07-05-2020 05:43:17 3 C 45 %
2196 07-05-2020 05:53:17 3.1 C 45 %
2197 07-05-2020 06:03:17 3 C 45 %
2198 07-05-2020 06:13:17 2.9 C 45 %
2199 07-05-2020 06:23:17 2.9 C 46 %
2200 07-05-2020 06:33:17 2.9 C 46 %
Sensor: Nr:Datum:Temp:Feuchte:
Aussen-T/F 2201 07-05-2020 06:43:17 2.7 C 46 %
2202 07-05-2020 06:53:18 3 C 46 %
2203 07-05-2020 07:03:17 3 C 45 %
2204 07-05-2020 07:13:17 3 C 45 %
2205 07-05-2020 07:23:17 3.2 C 46 %
2206 07-05-2020 07:33:17 3.4 C 46 %
2207 07-05-2020 07:43:17 3.6 C 45 %
2208 07-05-2020 07:53:17 3.8 C 44 %
2209 07-05-2020 08:03:17 3.9 C 44 %
2210 07-05-2020 08:13:17 4.2 C 43 %
2211 07-05-2020 08:23:17 4.5 C 43 %
2212 07-05-2020 08:33:18 4.6 C 43 %
2213 07-05-2020 08:43:18 5.1 C 41 %
2214 07-05-2020 08:53:17 5.2 C 41 %
2215 07-05-2020 09:03:17 5.8 C 41 %
2216 07-05-2020 09:13:17 6.2 C 41 %
2217 07-05-2020 09:23:17 6.7 C 41 %
2218 07-05-2020 09:33:18 7.5 C 40 %
2219 07-05-2020 09:43:18 8.6 C 38 %
2220 07-05-2020 09:53:17 8.8 C 38 %
2221 07-05-2020 10:03:17 9.3 C 37 %
2222 07-05-2020 10:13:17 9.8 C 36 %
2223 07-05-2020 10:23:17 10.3 C 35 %
2224 07-05-2020 10:33:17 11.3 C 35 %
2225 07-05-2020 10:43:17 11.9 C 34 %
Sensor: Nr:Datum:Temp:Feuchte:
Aussen-T/F 2226 07-05-2020 10:53:17 13.4 C 30 %
2227 07-05-2020 11:03:17 14.2 C 26 %
2228 07-05-2020 11:13:17 14.7 C 28 %
2229 07-05-2020 11:23:17 15.3 C 25 %
2230 07-05-2020 11:33:17 15.4 C 25 %
2231 07-05-2020 11:43:17 15.9 C 25 %
2232 07-05-2020 11:53:17 16.2 C 22 %
2233 07-05-2020 12:03:17 16.6 C 20 %
2234 07-05-2020 12:13:17 16.8 C 20 %
2235 07-05-2020 12:23:17 16.9 C 20 %
2236 07-05-2020 12:33:17 17 C 20 %
2237 07-05-2020 12:43:18 17 C 20 %
2238 07-05-2020 12:53:17 17.3 C 20 %
2239 07-05-2020 13:03:17 17.5 C 20 %
2240 07-05-2020 13:13:17 17.6 C 20 %
2241 07-05-2020 13:23:17 17.6 C 20 %
2242 07-05-2020 13:33:17 18.2 C 20 %
2243 07-05-2020 13:43:17 18.5 C 20 %
2244 07-05-2020 13:54:17 20.1 C 20 %
2245 07-05-2020 14:03:17 23.3 C 20 %
2246 07-05-2020 14:13:17 25.2 C 20 %
2247 07-05-2020 14:23:17 27.5 C 20 %
2248 07-05-2020 14:33:17 28.2 C 20 %
2249 07-05-2020 14:43:17 28.7 C 20 %
2250 07-05-2020 14:54:17 28.4 C 20 %
Sensor: Nr:Datum:Temp:Feuchte:
Aussen-T/F 2251 07-05-2020 15:03:18 28.7 C 20 %
2252 07-05-2020 15:13:18 27.9 C 20 %
2253 07-05-2020 15:23:17 28.5 C 20 %
2254 07-05-2020 15:33:18 30.2 C 20 %
2255 07-05-2020 15:43:18 29.3 C 20 %
2256 07-05-2020 15:53:17 30 C 20 %
2257 07-05-2020 16:03:17 30.1 C 20 %
2258 07-05-2020 16:13:17 31.3 C 20 %
2259 07-05-2020 16:24:17 28.8 C 20 %
2260 07-05-2020 16:33:17 29.5 C 20 %
2261 07-05-2020 16:43:17 31.1 C 20 %
2262 07-05-2020 16:54:17 31.3 C 20 %
2263 07-05-2020 17:03:17 29 C 20 %
2264 07-05-2020 17:13:17 29.3 C 20 %
2265 07-05-2020 17:23:17 28.6 C 20 %
2266 07-05-2020 17:33:17 30.2 C 20 %
2267 07-05-2020 17:43:17 27.4 C 20 %
2268 07-05-2020 17:53:17 27.9 C 20 %
2269 07-05-2020 18:04:17 27.4 C 20 %
2270 07-05-2020 18:13:17 24.5 C 20 %
2271 07-05-2020 18:23:17 23.3 C 20 %
2272 07-05-2020 18:33:17 23.5 C 20 %
2273 07-05-2020 18:43:18 22.8 C 20 %
2274 07-05-2020 18:54:17 22.1 C 20 %
2275 07-05-2020 19:03:17 22.2 C 20 %
Sensor: Nr:Datum:Temp:Feuchte:
Aussen-T/F 2276 07-05-2020 19:13:18 22.1 C 20 %
2277 07-05-2020 19:24:17 22 C 20 %
2278 07-05-2020 19:33:17 21.4 C 20 %
2279 07-05-2020 19:43:17 20.2 C 20 %
2280 07-05-2020 19:54:17 19.3 C 20 %
2281 07-05-2020 20:03:18 18.7 C 20 %
2282 07-05-2020 20:13:18 18.1 C 20 %
2283 07-05-2020 20:24:17 17.5 C 20 %
2284 07-05-2020 20:34:17 17.1 C 20 %
2285 07-05-2020 20:44:17 16.5 C 20 %
2286 07-05-2020 20:54:17 16.2 C 20 %
2287 07-05-2020 21:04:17 16 C 20 %
2288 07-05-2020 21:14:17 15.4 C 21 %
2289 07-05-2020 21:24:17 15 C 22 %
2290 07-05-2020 21:34:17 14.6 C 25 %
2291 07-05-2020 21:43:17 14.2 C 25 %
2292 07-05-2020 21:54:17 13.7 C 26 %
2293 07-05-2020 22:04:17 13.2 C 27 %
2294 07-05-2020 22:14:17 13.2 C 27 %
2295 07-05-2020 22:24:17 12.8 C 30 %
2296 07-05-2020 22:34:17 12.3 C 30 %
2297 07-05-2020 22:44:17 12.3 C 30 %
2298 07-05-2020 22:53:18 12.2 C 30 %
2299 07-05-2020 23:04:17 11.7 C 31 %
2300 07-05-2020 23:14:17 11.4 C 31 %
Sensor: Nr:Datum:Temp:Feuchte:
Aussen-T/F 2301 07-05-2020 23:24:17 11.4 C 30 %
2302 07-05-2020 23:34:17 11.6 C 31 %
2303 07-05-2020 23:44:17 11.2 C 32 %
2304 07-05-2020 23:54:17 11.1 C 32 %
2305 08-05-2020 00:04:17 10.7 C 33 %
2306 08-05-2020 00:14:17 10.4 C 33 %
2307 08-05-2020 00:24:17 10.2 C 33 %
2308 08-05-2020 00:34:17 9.7 C 35 %
2309 08-05-2020 00:44:17 9.6 C 35 %
2310 08-05-2020 00:54:17 9.4 C 35 %
2311 08-05-2020 01:04:17 9.4 C 35 %
2312 08-05-2020 01:14:17 9.6 C 35 %
2313 08-05-2020 01:24:17 9.6 C 35 %
2314 08-05-2020 01:34:17 9.3 C 36 %
2315 08-05-2020 01:44:17 9.8 C 36 %
2316 08-05-2020 01:54:18 9.5 C 36 %
2317 08-05-2020 02:04:18 9.2 C 36 %
2318 08-05-2020 02:13:18 8.9 C 37 %
2319 08-05-2020 02:24:17 8.6 C 38 %
2320 08-05-2020 02:34:17 8.4 C 38 %
2321 08-05-2020 02:44:17 8.2 C 38 %
2322 08-05-2020 02:54:17 7.9 C 39 %
2323 08-05-2020 03:04:17 7.9 C 39 %
2324 08-05-2020 03:14:17 7.9 C 39 %
2325 08-05-2020 03:24:17 7.8 C 40 %
Sensor: Nr:Datum:Temp:Feuchte:
Aussen-T/F 2326 08-05-2020 03:34:18 7.7 C 40 %
2327 08-05-2020 03:44:18 7.5 C 40 %
2328 08-05-2020 03:54:17 7.4 C 40 %
2329 08-05-2020 04:04:18 7.5 C 40 %
2330 08-05-2020 04:14:18 7 C 40 %
2331 08-05-2020 04:24:18 6.9 C 41 %
2332 08-05-2020 04:34:18 6.8 C 42 %
2333 08-05-2020 04:44:18 7 C 41 %
2334 08-05-2020 04:54:18 7.3 C 41 %
2335 08-05-2020 05:04:18 7.3 C 41 %
2336 08-05-2020 05:14:18 7.4 C 41 %
2337 08-05-2020 05:24:17 7.5 C 41 %
2338 08-05-2020 05:34:17 7.2 C 41 %
2339 08-05-2020 05:44:17 7 C 41 %
2340 08-05-2020 05:54:18 7.1 C 41 %
2341 08-05-2020 06:04:17 6.9 C 42 %
2342 08-05-2020 06:14:17 6.9 C 42 %
2343 08-05-2020 06:24:17 6.8 C 42 %
2344 08-05-2020 06:34:17 6.7 C 43 %
2345 08-05-2020 06:44:17 6.4 C 42 %
2346 08-05-2020 06:54:17 6.3 C 43 %
2347 08-05-2020 07:04:17 6.5 C 43 %
2348 08-05-2020 07:14:17 6.9 C 44 %
2349 08-05-2020 07:24:17 7.3 C 42 %
2350 08-05-2020 07:34:18 7.3 C 41 %
Sensor: Nr:Datum:Temp:Feuchte:
Aussen-T/F 2351 08-05-2020 07:44:18 7.4 C 42 %
2352 08-05-2020 07:54:17 7.9 C 41 %
2353 08-05-2020 08:04:17 8.2 C 40 %
2354 08-05-2020 08:14:17 8.4 C 40 %
2355 08-05-2020 08:24:17 8.4 C 40 %
2356 08-05-2020 08:34:17 8.5 C 40 %
2357 08-05-2020 08:44:17 8.7 C 40 %
2358 08-05-2020 08:54:17 9 C 40 %
2359 08-05-2020 09:04:17 9.5 C 39 %
2360 08-05-2020 09:14:17 10.2 C 37 %
2361 08-05-2020 09:24:17 10.7 C 37 %
2362 08-05-2020 09:34:17 11.1 C 36 %
2363 08-05-2020 09:44:17 11.8 C 36 %
2364 08-05-2020 09:54:17 12.2 C 35 %
2365 08-05-2020 10:04:17 12.5 C 35 %
2366 08-05-2020 10:14:17 13.1 C 34 %
2367 08-05-2020 10:24:17 14 C 33 %
2368 08-05-2020 10:34:17 14.6 C 32 %
2369 08-05-2020 10:44:18 15.8 C 28 %
2370 08-05-2020 10:54:17 16.7 C 27 %
2371 08-05-2020 11:04:17 17.1 C 26 %
2372 08-05-2020 11:14:17 17.5 C 27 %
2373 08-05-2020 11:24:17 17.7 C 27 %
2374 08-05-2020 11:34:17 18.2 C 25 %
2375 08-05-2020 11:44:18 18.9 C 22 %
Sensor: Nr:Datum:Temp:Feuchte:
Aussen-T/F 2376 08-05-2020 11:54:17 19 C 21 %
2377 08-05-2020 12:04:17 19.3 C 20 %
2378 08-05-2020 12:14:18 19.4 C 20 %
2379 08-05-2020 12:24:17 19.5 C 20 %
2380 08-05-2020 12:34:17 19.8 C 20 %
2381 08-05-2020 12:44:17 20 C 20 %
2382 08-05-2020 12:54:17 20.3 C 20 %
2383 08-05-2020 13:04:16 20.7 C 20 %
2384 08-05-2020 13:14:16 21.4 C 20 %
2385 08-05-2020 13:24:17 21.9 C 20 %
2386 08-05-2020 13:34:17 22.3 C 20 %
2387 08-05-2020 13:44:17 22.5 C 20 %
2388 08-05-2020 13:54:16 24 C 20 %
2389 08-05-2020 14:04:17 26.1 C 20 %
2390 08-05-2020 14:14:17 27.5 C 20 %
2391 08-05-2020 14:24:17 28.2 C 20 %
2392 08-05-2020 14:34:16 30 C 20 %
2393 08-05-2020 14:44:16 27.5 C 20 %
2394 08-05-2020 14:54:17 27.3 C 20 %
2395 08-05-2020 15:04:17 26 C 20 %
2396 08-05-2020 15:14:18 25.2 C 20 %
2397 08-05-2020 15:24:17 25.8 C 20 %
2398 08-05-2020 15:34:16 27.1 C 20 %
2399 08-05-2020 15:44:16 28.3 C 20 %
2400 08-05-2020 15:54:17 30.6 C 20 %
Sensor: Nr:Datum:Temp:Feuchte:
Aussen-T/F 2401 08-05-2020 16:04:17 31.3 C 20 %
2402 08-05-2020 16:14:17 29.3 C 20 %
2403 08-05-2020 16:24:17 32 C 20 %
2404 08-05-2020 16:34:16 30.5 C 20 %
2405 08-05-2020 16:44:16 27.4 C 20 %
2406 08-05-2020 16:54:16 26.3 C 20 %
2407 08-05-2020 17:04:17 26.8 C 20 %
2408 08-05-2020 17:14:17 26.3 C 20 %
2409 08-05-2020 17:24:16 28.5 C 20 %
2410 08-05-2020 17:34:16 26.8 C 20 %
2411 08-05-2020 17:44:16 28.8 C 20 %
2412 08-05-2020 17:54:16 27.5 C 20 %
2413 08-05-2020 18:04:17 26.5 C 20 %
2414 08-05-2020 18:14:17 25.5 C 20 %
2415 08-05-2020 18:24:16 25.1 C 20 %
2416 08-05-2020 18:34:17 25.1 C 20 %
2417 08-05-2020 18:44:18 24.4 C 20 %
2418 08-05-2020 18:54:16 24 C 20 %
2419 08-05-2020 19:04:16 23.5 C 20 %
2420 08-05-2020 19:14:16 23.7 C 20 %
2421 08-05-2020 19:24:16 23.6 C 20 %
2422 08-05-2020 19:34:16 22.9 C 20 %
2423 08-05-2020 19:44:16 22.4 C 20 %
2424 08-05-2020 19:54:16 21.6 C 20 %
2425 08-05-2020 20:04:17 19.7 C 20 %
Sensor: Nr:Datum:Temp:Feuchte:
Aussen-T/F 2426 08-05-2020 20:14:17 18.8 C 20 %
2427 08-05-2020 20:24:16 18.5 C 20 %
2428 08-05-2020 20:34:17 18.2 C 20 %
2429 08-05-2020 20:44:17 17.7 C 20 %
2430 08-05-2020 20:54:17 17.3 C 20 %
2431 08-05-2020 21:04:17 17.1 C 20 %
2432 08-05-2020 21:14:17 16.9 C 20 %
2433 08-05-2020 21:24:16 16.4 C 21 %
2434 08-05-2020 21:34:16 16 C 22 %
2435 08-05-2020 21:44:16 15.7 C 24 %
2436 08-05-2020 21:54:16 15.2 C 25 %
2437 08-05-2020 22:04:17 14.9 C 26 %
2438 08-05-2020 22:14:17 15 C 26 %
2439 08-05-2020 22:24:16 14.9 C 27 %
2440 08-05-2020 22:34:16 14.7 C 27 %
2441 08-05-2020 22:44:16 14.3 C 28 %
2442 08-05-2020 22:54:16 14.1 C 27 %
2443 08-05-2020 23:04:17 14 C 27 %
2444 08-05-2020 23:14:17 13.7 C 28 %
2445 08-05-2020 23:24:16 13.6 C 29 %
2446 08-05-2020 23:34:16 13.3 C 29 %
2447 08-05-2020 23:44:16 13.2 C 29 %
2448 08-05-2020 23:54:16 13.3 C 29 %
2449 09-05-2020 00:04:16 12.7 C 30 %
2450 09-05-2020 00:14:16 12.4 C 30 %
Sensor: Nr:Datum:Temp:Feuchte:
Aussen-T/F 2451 09-05-2020 00:24:16 12 C 31 %
2452 09-05-2020 00:34:16 11.8 C 32 %
2453 09-05-2020 00:44:16 11.7 C 32 %
2454 09-05-2020 00:54:16 11.4 C 32 %
2455 09-05-2020 01:04:16 11.7 C 32 %
2456 09-05-2020 01:14:16 11.7 C 32 %
2457 09-05-2020 01:24:16 11.6 C 32 %
2458 09-05-2020 01:34:16 11.6 C 32 %
2459 09-05-2020 01:44:16 11.5 C 33 %
2460 09-05-2020 01:54:16 11.6 C 34 %
2461 09-05-2020 02:04:16 11.7 C 34 %
2462 09-05-2020 02:14:16 12 C 33 %
2463 09-05-2020 02:24:16 12 C 32 %
2464 09-05-2020 02:34:16 11.8 C 34 %
2465 09-05-2020 02:44:16 11.4 C 35 %
2466 09-05-2020 02:54:17 11.4 C 35 %
2467 09-05-2020 03:04:17 11.4 C 35 %
2468 09-05-2020 03:14:17 11.2 C 35 %
2469 09-05-2020 03:24:17 10.8 C 36 %
2470 09-05-2020 03:34:17 10.6 C 36 %
2471 09-05-2020 03:44:17 10.2 C 37 %
2472 09-05-2020 03:54:17 10.1 C 36 %
2473 09-05-2020 04:04:17 9.9 C 37 %
2474 09-05-2020 04:14:17 9.5 C 37 %
2475 09-05-2020 04:24:17 9.4 C 37 %
Sensor: Nr:Datum:Temp:Feuchte:
Aussen-T/F 2476 09-05-2020 04:34:18 9.3 C 37 %
2477 09-05-2020 04:44:18 9 C 37 %
2478 09-05-2020 04:54:18 9 C 39 %
2479 09-05-2020 05:04:17 9 C 39 %
2480 09-05-2020 05:14:17 9 C 39 %
2481 09-05-2020 05:24:17 8.8 C 39 %
2482 09-05-2020 05:34:18 9 C 40 %
2483 09-05-2020 05:44:18 9 C 40 %
2484 09-05-2020 05:54:17 9.2 C 40 %
2485 09-05-2020 06:04:18 9.4 C 39 %
2486 09-05-2020 06:14:18 9.7 C 39 %
2487 09-05-2020 06:24:17 10.2 C 38 %
2488 09-05-2020 06:34:17 10.5 C 37 %
2489 09-05-2020 06:44:17 10.7 C 37 %
2490 09-05-2020 06:54:17 10.9 C 38 %
2491 09-05-2020 07:04:18 11.1 C 36 %
2492 09-05-2020 07:14:18 11.3 C 36 %
2493 09-05-2020 07:24:17 11.5 C 36 %
2494 09-05-2020 07:34:17 11.5 C 36 %
2495 09-05-2020 07:44:17 12 C 35 %
2496 09-05-2020 07:54:17 12.2 C 35 %
2497 09-05-2020 08:04:18 12.3 C 35 %
2498 09-05-2020 08:14:18 12.6 C 35 %
2499 09-05-2020 08:24:17 13.2 C 33 %
2500 09-05-2020 08:34:17 13.9 C 32 %
Sensor: Nr:Datum:Temp:Feuchte:
Aussen-T/F 2501 09-05-2020 08:44:17 14.3 C 31 %
2502 09-05-2020 08:54:17 14.8 C 31 %
2503 09-05-2020 09:04:17 15.3 C 30 %
2504 09-05-2020 09:14:17 16 C 30 %
2505 09-05-2020 09:24:17 16.3 C 30 %
2506 09-05-2020 09:34:17 16 C 29 %
2507 09-05-2020 09:44:17 16.2 C 29 %
2508 09-05-2020 09:54:17 16.7 C 27 %
2509 09-05-2020 10:04:17 17.3 C 25 %
2510 09-05-2020 10:14:17 17.7 C 25 %
2511 09-05-2020 10:24:17 18.1 C 25 %
2512 09-05-2020 10:34:17 18.8 C 22 %
2513 09-05-2020 10:44:17 18.4 C 22 %
2514 09-05-2020 10:54:17 18.9 C 22 %
2515 09-05-2020 11:04:17 19 C 22 %
2516 09-05-2020 11:14:17 18.9 C 22 %
2517 09-05-2020 11:24:17 19.4 C 21 %
2518 09-05-2020 11:34:17 19.5 C 21 %
2519 09-05-2020 11:44:17 19.3 C 20 %
2520 09-05-2020 11:54:17 19.6 C 20 %
2521 09-05-2020 12:04:17 19.9 C 21 %
2522 09-05-2020 12:14:17 20.9 C 20 %
2523 09-05-2020 12:24:17 22.3 C 20 %
2524 09-05-2020 12:34:17 23 C 20 %
2525 09-05-2020 12:44:17 23.6 C 20 %
Sensor: Nr:Datum:Temp:Feuchte:
Aussen-T/F 2526 09-05-2020 12:54:17 22.8 C 20 %
2527 09-05-2020 13:04:18 22.9 C 20 %
2528 09-05-2020 13:14:18 23 C 20 %
2529 09-05-2020 13:24:17 23.9 C 20 %
2530 09-05-2020 13:34:17 23.6 C 20 %
2531 09-05-2020 13:44:17 24.1 C 20 %
2532 09-05-2020 13:54:17 24.5 C 20 %
2533 09-05-2020 14:04:17 23.5 C 20 %
2534 09-05-2020 14:14:17 23.4 C 20 %
2535 09-05-2020 14:24:17 23.3 C 20 %
2536 09-05-2020 14:34:17 21.7 C 20 %
2537 09-05-2020 14:44:17 20.7 C 20 %
2538 09-05-2020 14:54:17 20.7 C 20 %
2539 09-05-2020 15:04:17 19.9 C 21 %
2540 09-05-2020 15:14:17 20 C 21 %
2541 09-05-2020 15:24:17 19.1 C 25 %
2542 09-05-2020 15:34:17 19.7 C 25 %
2543 09-05-2020 15:44:17 21.3 C 22 %
2544 09-05-2020 15:54:17 21.9 C 21 %
2545 09-05-2020 16:04:17 21.6 C 21 %
2546 09-05-2020 16:14:17 21.6 C 22 %
2547 09-05-2020 16:24:17 22.1 C 21 %
2548 09-05-2020 16:34:17 21.4 C 21 %
2549 09-05-2020 16:44:17 21.8 C 21 %
2550 09-05-2020 16:54:17 21.8 C 21 %
Sensor: Nr:Datum:Temp:Feuchte:
Aussen-T/F 2551 09-05-2020 17:04:17 22 C 20 %
2552 09-05-2020 17:14:17 22.4 C 20 %
2553 09-05-2020 17:24:17 22.6 C 20 %
2554 09-05-2020 17:34:17 22.7 C 20 %
2555 09-05-2020 17:44:17 22.2 C 21 %
2556 09-05-2020 17:54:17 23.3 C 20 %
2557 09-05-2020 18:04:18 25 C 20 %
2558 09-05-2020 18:14:18 23.9 C 20 %
2559 09-05-2020 18:24:17 22 C 20 %
2560 09-05-2020 18:34:17 22.1 C 21 %
2561 09-05-2020 18:44:17 21.5 C 21 %
2562 09-05-2020 18:54:17 21.5 C 22 %
2563 09-05-2020 19:04:17 21.3 C 21 %
2564 09-05-2020 19:14:18 21.1 C 22 %
2565 09-05-2020 19:24:17 21.1 C 22 %
2566 09-05-2020 19:34:17 20.8 C 23 %
2567 09-05-2020 19:44:17 20.5 C 23 %
2568 09-05-2020 19:54:17 20.4 C 24 %
2569 09-05-2020 20:04:18 20 C 25 %
2570 09-05-2020 20:14:18 19.7 C 27 %
2571 09-05-2020 20:24:17 19.2 C 28 %
2572 09-05-2020 20:34:17 18.7 C 29 %
2573 09-05-2020 20:44:17 18.2 C 30 %
2574 09-05-2020 20:54:17 17.4 C 31 %
2575 09-05-2020 21:04:17 16.3 C 33 %
Sensor: Nr:Datum:Temp:Feuchte:
Aussen-T/F 2576 09-05-2020 21:14:17 15.8 C 35 %
2577 09-05-2020 21:24:17 15.1 C 35 %
2578 09-05-2020 21:34:17 15.1 C 36 %
2579 09-05-2020 21:44:17 15.3 C 35 %
2580 09-05-2020 21:54:17 15 C 35 %
2581 09-05-2020 22:04:17 14.7 C 36 %
2582 09-05-2020 22:14:17 14.6 C 36 %
2583 09-05-2020 22:24:17 14.3 C 36 %
2584 09-05-2020 22:34:17 14.1 C 36 %
2585 09-05-2020 22:44:17 13.8 C 37 %
2586 09-05-2020 22:54:18 13.6 C 37 %
2587 09-05-2020 23:04:18 13.5 C 38 %
2588 09-05-2020 23:14:18 13.3 C 38 %
2589 09-05-2020 23:24:17 13.3 C 39 %
2590 09-05-2020 23:34:18 12.8 C 40 %
2591 09-05-2020 23:44:18 12.7 C 40 %
2592 09-05-2020 23:54:18 12.4 C 41 %
2593 10-05-2020 00:04:18 12.3 C 41 %
2594 10-05-2020 00:14:18 12.2 C 41 %
2595 10-05-2020 00:24:17 12 C 41 %
2596 10-05-2020 00:34:17 12 C 41 %
2597 10-05-2020 00:44:17 11.7 C 41 %
2598 10-05-2020 00:54:17 11.4 C 41 %
2599 10-05-2020 01:04:18 11.4 C 41 %
2600 10-05-2020 01:14:18 11.4 C 41 %
Sensor: Nr:Datum:Temp:Feuchte:
Aussen-T/F 2601 10-05-2020 01:24:17 11.2 C 41 %
2602 10-05-2020 01:34:17 11.2 C 42 %
2603 10-05-2020 01:44:18 11.4 C 42 %
2604 10-05-2020 01:54:17 11.7 C 42 %
2605 10-05-2020 02:04:17 11.2 C 41 %
2606 10-05-2020 02:14:17 11 C 42 %
2607 10-05-2020 02:24:17 11 C 42 %
2608 10-05-2020 02:34:17 10.8 C 43 %
2609 10-05-2020 02:44:17 10.7 C 43 %
2610 10-05-2020 02:54:17 10.5 C 43 %
2611 10-05-2020 03:04:17 10.5 C 44 %
2612 10-05-2020 03:14:17 10.5 C 44 %
2613 10-05-2020 03:24:17 10.4 C 44 %
2614 10-05-2020 03:34:18 10.8 C 45 %
2615 10-05-2020 03:44:18 10.7 C 45 %
2616 10-05-2020 03:54:17 10.7 C 44 %
2617 10-05-2020 04:04:18 10.7 C 45 %
2618 10-05-2020 04:14:18 10.8 C 45 %
2619 10-05-2020 04:24:17 10.8 C 45 %
2620 10-05-2020 04:34:18 10.5 C 45 %
2621 10-05-2020 04:44:18 10.4 C 45 %
2622 10-05-2020 04:54:17 10.4 C 45 %
2623 10-05-2020 05:04:17 10.8 C 45 %
2624 10-05-2020 05:14:17 10.7 C 45 %
2625 10-05-2020 05:24:17 10.7 C 45 %
Sensor: Nr:Datum:Temp:Feuchte:
Aussen-T/F 2626 10-05-2020 05:34:17 10.8 C 45 %
2627 10-05-2020 05:44:17 10.9 C 45 %
2628 10-05-2020 05:54:18 10.9 C 44 %
2629 10-05-2020 06:04:17 10.9 C 45 %
2630 10-05-2020 06:14:17 11 C 43 %
2631 10-05-2020 06:24:17 11 C 44 %
2632 10-05-2020 06:34:17 11 C 44 %
2633 10-05-2020 06:44:18 11 C 44 %
2634 10-05-2020 06:54:17 11.1 C 44 %
2635 10-05-2020 07:04:17 11.3 C 44 %
2636 10-05-2020 07:14:17 11.3 C 44 %
2637 10-05-2020 07:24:17 11.4 C 44 %
2638 10-05-2020 07:34:17 11.5 C 44 %
2639 10-05-2020 07:44:17 11.6 C 44 %
2640 10-05-2020 07:54:17 11.7 C 44 %
2641 10-05-2020 08:04:17 11.9 C 43 %
2642 10-05-2020 08:14:17 12.1 C 42 %
2643 10-05-2020 08:24:17 12.3 C 41 %
2644 10-05-2020 08:34:18 12.3 C 41 %
2645 10-05-2020 08:44:18 12.3 C 41 %
2646 10-05-2020 08:54:17 12.5 C 41 %
2647 10-05-2020 09:04:17 12.7 C 41 %
2648 10-05-2020 09:14:17 13 C 40 %
2649 10-05-2020 09:24:17 13.1 C 38 %
2650 10-05-2020 09:34:17 13.7 C 38 %
Sensor: Nr:Datum:Temp:Feuchte:
Aussen-T/F 2651 10-05-2020 09:44:17 13.7 C 38 %
2652 10-05-2020 09:54:17 14 C 37 %
2653 10-05-2020 10:04:17 14.4 C 37 %
2654 10-05-2020 10:14:17 15.6 C 36 %
2655 10-05-2020 10:24:17 15.7 C 36 %
2656 10-05-2020 10:34:17 16.6 C 35 %
2657 10-05-2020 10:44:17 16.8 C 35 %
2658 10-05-2020 10:54:17 17.4 C 34 %
2659 10-05-2020 11:04:17 18.9 C 32 %
2660 10-05-2020 11:14:17 19.6 C 32 %
2661 10-05-2020 11:24:17 19.6 C 30 %
2662 10-05-2020 11:34:17 20.3 C 30 %
2663 10-05-2020 11:44:17 20.6 C 29 %
2664 10-05-2020 11:54:17 21.4 C 28 %
2665 10-05-2020 12:04:18 20.5 C 29 %
2666 10-05-2020 12:14:18 20.9 C 30 %
2667 10-05-2020 12:24:18 21.2 C 28 %
2668 10-05-2020 12:34:17 21.6 C 28 %
2669 10-05-2020 12:44:17 21.8 C 28 %
2670 10-05-2020 12:54:17 22.4 C 26 %
2671 10-05-2020 13:04:17 22.3 C 27 %
2672 10-05-2020 13:14:17 21.8 C 28 %
2673 10-05-2020 13:24:17 22.8 C 27 %
2674 10-05-2020 13:34:17 22.5 C 26 %
2675 10-05-2020 13:44:17 22.6 C 27 %
Sensor: Nr:Datum:Temp:Feuchte:
Aussen-T/F 2676 10-05-2020 13:54:17 23.7 C 25 %
2677 10-05-2020 14:04:17 23.8 C 25 %
2678 10-05-2020 14:14:17 24 C 24 %
2679 10-05-2020 14:24:18 23.6 C 25 %
2680 10-05-2020 14:34:17 24.2 C 24 %
2681 10-05-2020 14:44:17 23.7 C 25 %
2682 10-05-2020 14:54:18 22.1 C 26 %
2683 10-05-2020 15:04:17 21.8 C 27 %
2684 10-05-2020 15:14:17 21.7 C 27 %
2685 10-05-2020 15:24:17 22.6 C 25 %
2686 10-05-2020 15:34:18 22.5 C 25 %
2687 10-05-2020 15:44:18 21.5 C 26 %
2688 10-05-2020 15:54:17 21.9 C 26 %
2689 10-05-2020 16:04:17 21.4 C 26 %
2690 10-05-2020 16:14:17 18.8 C 34 %
2691 10-05-2020 16:24:17 19.2 C 33 %
2692 10-05-2020 16:34:18 19.9 C 32 %
2693 10-05-2020 16:44:18 16.9 C 35 %
2694 10-05-2020 16:54:17 16 C 37 %
2695 10-05-2020 17:04:18 19 C 35 %
2696 10-05-2020 17:14:18 22.7 C 26 %
2697 10-05-2020 17:24:17 22.5 C 26 %
2698 10-05-2020 17:34:17 23.1 C 26 %
2699 10-05-2020 17:44:18 21.7 C 27 %
2700 10-05-2020 17:54:17 22.5 C 26 %
Sensor: Nr:Datum:Temp:Feuchte:
Aussen-T/F 2701 10-05-2020 18:04:17 20.2 C 30 %
2702 10-05-2020 18:14:17 19.4 C 31 %
2703 10-05-2020 18:24:17 19.3 C 32 %
2704 10-05-2020 18:34:17 19.2 C 32 %
2705 10-05-2020 18:44:17 19.7 C 32 %
2706 10-05-2020 18:54:17 19.5 C 32 %
2707 10-05-2020 19:04:18 19 C 32 %
2708 10-05-2020 19:14:18 18.9 C 33 %
2709 10-05-2020 19:24:17 18.7 C 33 %
2710 10-05-2020 19:34:17 18.3 C 34 %
2711 10-05-2020 19:44:17 18 C 35 %
2712 10-05-2020 19:54:17 17.7 C 35 %
2713 10-05-2020 20:04:17 17.6 C 36 %
2714 10-05-2020 20:14:17 17.4 C 37 %
2715 10-05-2020 20:24:17 17.2 C 37 %
2716 10-05-2020 20:34:17 17.1 C 37 %
2717 10-05-2020 20:44:18 17.1 C 37 %
2718 10-05-2020 20:54:18 16.8 C 38 %
2719 10-05-2020 21:04:18 16.5 C 38 %
2720 10-05-2020 21:14:18 16.4 C 39 %
2721 10-05-2020 21:24:17 16.1 C 40 %
2722 10-05-2020 21:34:17 16.2 C 39 %
2723 10-05-2020 21:44:17 16 C 39 %
2724 10-05-2020 21:54:17 15.9 C 40 %
2725 10-05-2020 22:04:17 15.8 C 40 %
Sensor: Nr:Datum:Temp:Feuchte:
Aussen-T/F 2726 10-05-2020 22:14:17 15.7 C 40 %
2727 10-05-2020 22:24:17 15.5 C 40 %
2728 10-05-2020 22:34:18 15.5 C 40 %
2729 10-05-2020 22:44:18 15.4 C 40 %
2730 10-05-2020 22:54:17 15.7 C 39 %
2731 10-05-2020 23:04:17 16 C 38 %
2732 10-05-2020 23:14:17 15.7 C 39 %
2733 10-05-2020 23:24:17 15.6 C 39 %
2734 10-05-2020 23:34:17 15.6 C 40 %
2735 10-05-2020 23:44:17 15.7 C 40 %
2736 10-05-2020 23:54:17 15.9 C 39 %
2737 11-05-2020 00:04:17 16.2 C 38 %
2738 11-05-2020 00:14:17 16.2 C 38 %
2739 11-05-2020 00:24:17 16 C 37 %
2740 11-05-2020 00:34:18 15.9 C 37 %
2741 11-05-2020 00:44:18 15.5 C 36 %
2742 11-05-2020 00:54:17 15.3 C 36 %
2743 11-05-2020 01:04:17 14.8 C 36 %
2744 11-05-2020 01:14:17 14.5 C 36 %
2745 11-05-2020 01:24:17 14.3 C 36 %
2746 11-05-2020 01:34:18 14 C 36 %
2747 11-05-2020 01:44:18 13.7 C 36 %
2748 11-05-2020 01:54:18 13.4 C 36 %
2749 11-05-2020 02:04:18 13.1 C 36 %
2750 11-05-2020 02:14:18 12.7 C 37 %
Sensor: Nr:Datum:Temp:Feuchte:
Aussen-T/F 2751 11-05-2020 02:24:18 12.5 C 37 %
2752 11-05-2020 02:34:17 12.1 C 37 %
2753 11-05-2020 02:44:17 11.7 C 38 %
2754 11-05-2020 02:54:17 11.3 C 37 %
2755 11-05-2020 03:04:18 11.1 C 37 %
2756 11-05-2020 03:14:18 11.1 C 37 %
2757 11-05-2020 03:24:18 10.8 C 38 %
2758 11-05-2020 03:34:18 10.3 C 37 %
2759 11-05-2020 03:44:18 9.8 C 39 %
2760 11-05-2020 03:54:17 9.3 C 40 %
2761 11-05-2020 04:04:17 8.8 C 41 %
2762 11-05-2020 04:14:17 8.5 C 42 %
2763 11-05-2020 04:24:18 8.2 C 42 %
2764 11-05-2020 04:34:18 7.8 C 45 %
2765 11-05-2020 04:44:18 7.8 C 45 %
2766 11-05-2020 04:54:17 7.4 C 44 %
2767 11-05-2020 05:04:17 7.2 C 44 %
2768 11-05-2020 05:14:17 7.1 C 44 %
2769 11-05-2020 05:24:17 6.8 C 44 %
2770 11-05-2020 05:34:17 6.7 C 45 %
2771 11-05-2020 05:44:18 6.5 C 45 %
2772 11-05-2020 05:54:17 6.2 C 44 %
2773 11-05-2020 06:04:17 6.2 C 44 %
2774 11-05-2020 06:14:17 6.2 C 44 %
2775 11-05-2020 06:24:17 6.2 C 45 %
Sensor: Nr:Datum:Temp:Feuchte:
Aussen-T/F 2776 11-05-2020 06:34:17 6.2 C 45 %
2777 11-05-2020 06:44:17 6.3 C 46 %
2778 11-05-2020 06:54:18 6.2 C 45 %
2779 11-05-2020 07:04:17 5.8 C 43 %
2780 11-05-2020 07:14:17 5.5 C 43 %
2781 11-05-2020 07:24:17 5.5 C 43 %
2782 11-05-2020 07:34:17 5.4 C 44 %
2783 11-05-2020 07:44:17 5.4 C 45 %
2784 11-05-2020 07:54:17 5.3 C 45 %
2785 11-05-2020 08:04:17 5.5 C 46 %
2786 11-05-2020 08:14:17 5.2 C 45 %
2787 11-05-2020 08:24:17 5.2 C 44 %
2788 11-05-2020 08:34:17 5.1 C 45 %
2789 11-05-2020 08:44:17 5.2 C 45 %
2790 11-05-2020 08:54:17 5 C 43 %
2791 11-05-2020 09:04:17 4.8 C 43 %
2792 11-05-2020 09:14:17 4.8 C 42 %
2793 11-05-2020 09:24:17 4.6 C 41 %
2794 11-05-2020 09:34:17 4.6 C 41 %
2795 11-05-2020 09:44:17 4.6 C 41 %
2796 11-05-2020 09:54:17 4.7 C 41 %
2797 11-05-2020 10:04:17 5 C 40 %
2798 11-05-2020 10:14:17 5.3 C 40 %
2799 11-05-2020 10:24:18 5.4 C 40 %
2800 11-05-2020 10:34:17 5.7 C 40 %
Sensor: Nr:Datum:Temp:Feuchte:
Aussen-T/F 2801 11-05-2020 10:44:17 5.7 C 39 %
2802 11-05-2020 10:54:17 5.9 C 38 %
2803 11-05-2020 11:04:17 5.8 C 37 %
2804 11-05-2020 11:14:17 5.9 C 38 %
2805 11-05-2020 11:24:17 5.9 C 37 %
2806 11-05-2020 11:34:17 5.9 C 38 %
2807 11-05-2020 11:44:17 6.2 C 37 %
2808 11-05-2020 11:54:17 6.2 C 37 %
2809 11-05-2020 12:04:17 6.4 C 37 %
2810 11-05-2020 12:14:17 6.5 C 36 %
2811 11-05-2020 12:24:17 6.6 C 36 %
2812 11-05-2020 12:34:17 6.8 C 36 %
2813 11-05-2020 12:44:17 6.9 C 36 %
2814 11-05-2020 12:54:17 7.2 C 35 %
2815 11-05-2020 13:04:17 7.3 C 35 %
2816 11-05-2020 13:14:17 7.4 C 33 %
2817 11-05-2020 13:24:17 7.7 C 33 %
2818 11-05-2020 13:34:17 8 C 32 %
2819 11-05-2020 13:44:17 8.4 C 31 %
2820 11-05-2020 13:54:17 8.6 C 30 %
2821 11-05-2020 14:04:18 8.8 C 30 %
2822 11-05-2020 14:14:18 8.9 C 30 %
2823 11-05-2020 14:24:17 9.2 C 28 %
2824 11-05-2020 14:34:17 9.7 C 27 %
2825 11-05-2020 14:44:17 10.3 C 26 %
Sensor: Nr:Datum:Temp:Feuchte:
Aussen-T/F 2826 11-05-2020 14:54:17 10.7 C 25 %
2827 11-05-2020 15:04:17 11.8 C 24 %
2828 11-05-2020 15:14:17 13.8 C 20 %
2829 11-05-2020 15:24:17 12.4 C 20 %
2830 11-05-2020 15:34:18 11.8 C 20 %
2831 11-05-2020 15:44:18 13.5 C 20 %
2832 11-05-2020 15:54:17 14.2 C 20 %
2833 11-05-2020 16:04:17 14.5 C 20 %
2834 11-05-2020 16:14:17 12.6 C 20 %
2835 11-05-2020 16:24:17 14.5 C 20 %
2836 11-05-2020 16:34:17 13.3 C 20 %
2837 11-05-2020 16:44:17 14 C 20 %
2838 11-05-2020 16:54:18 13.2 C 20 %
2839 11-05-2020 17:04:17 13 C 20 %
2840 11-05-2020 17:14:17 15 C 20 %
2841 11-05-2020 17:24:18 12.6 C 20 %
2842 11-05-2020 17:34:18 12.2 C 20 %
2843 11-05-2020 17:44:18 12.5 C 20 %
2844 11-05-2020 17:54:17 12.6 C 20 %
2845 11-05-2020 18:04:17 11.9 C 20 %
2846 11-05-2020 18:14:17 11.7 C 20 %
2847 11-05-2020 18:24:18 11.8 C 20 %
2848 11-05-2020 18:34:17 11.5 C 20 %
2849 11-05-2020 18:44:17 11.4 C 20 %
2850 11-05-2020 18:54:17 11.2 C 20 %
Sensor: Nr:Datum:Temp:Feuchte:
Aussen-T/F 2851 11-05-2020 19:04:17 11.4 C 20 %
2852 11-05-2020 19:14:17 11.7 C 20 %
2853 11-05-2020 19:24:17 11.7 C 20 %
2854 11-05-2020 19:34:17 11.4 C 20 %
2855 11-05-2020 19:44:17 11 C 20 %
2856 11-05-2020 19:54:17 11 C 20 %
2857 11-05-2020 20:04:18 11 C 20 %
2858 11-05-2020 20:14:18 11.1 C 20 %
2859 11-05-2020 20:24:17 10.6 C 20 %
2860 11-05-2020 20:34:17 10.2 C 20 %
2861 11-05-2020 20:44:17 9.9 C 20 %
2862 11-05-2020 20:54:18 9.6 C 20 %
2863 11-05-2020 21:04:17 9.5 C 20 %
2864 11-05-2020 21:14:17 9.6 C 20 %
2865 11-05-2020 21:24:17 9.6 C 20 %
2866 11-05-2020 21:34:17 9.6 C 20 %
2867 11-05-2020 21:44:17 9.4 C 20 %
2868 11-05-2020 21:54:17 9.2 C 20 %
2869 11-05-2020 22:04:18 9.1 C 20 %
2870 11-05-2020 22:14:18 9 C 20 %
2871 11-05-2020 22:24:17 9 C 20 %
2872 11-05-2020 22:34:18 8.9 C 21 %
2873 11-05-2020 22:44:18 8.2 C 27 %
2874 11-05-2020 22:54:18 7.6 C 29 %
2875 11-05-2020 23:04:17 7.1 C 30 %
Sensor: Nr:Datum:Temp:Feuchte:
Aussen-T/F 2876 11-05-2020 23:14:18 7.2 C 30 %
2877 11-05-2020 23:24:17 7.1 C 30 %
2878 11-05-2020 23:34:17 7 C 30 %
2879 11-05-2020 23:44:17 6.3 C 32 %
2880 11-05-2020 23:54:18 5.3 C 34 %
2881 12-05-2020 00:04:17 5.3 C 33 %
2882 12-05-2020 00:14:17 5.1 C 33 %
2883 12-05-2020 00:24:17 4.8 C 35 %
2884 12-05-2020 00:34:17 4.5 C 35 %
2885 12-05-2020 00:44:17 4.3 C 35 %
2886 12-05-2020 00:54:17 4.3 C 35 %
2887 12-05-2020 01:04:17 4.3 C 35 %
2888 12-05-2020 01:14:17 4 C 35 %
2889 12-05-2020 01:24:18 3.6 C 36 %
2890 12-05-2020 01:34:17 3.7 C 36 %
2891 12-05-2020 01:44:17 3.7 C 36 %
2892 12-05-2020 01:54:17 4 C 35 %
2893 12-05-2020 02:04:18 4.4 C 33 %
2894 12-05-2020 02:14:18 3.8 C 35 %
2895 12-05-2020 02:24:18 4.2 C 33 %
2896 12-05-2020 02:34:17 3.6 C 35 %
2897 12-05-2020 02:44:17 3.2 C 36 %
2898 12-05-2020 02:54:17 2.8 C 37 %
2899 12-05-2020 03:04:18 2.7 C 38 %
2900 12-05-2020 03:14:18 2.5 C 38 %
Sensor: Nr:Datum:Temp:Feuchte:
Aussen-T/F 2901 12-05-2020 03:24:18 2.5 C 38 %
2902 12-05-2020 03:34:17 2.6 C 38 %
2903 12-05-2020 03:44:17 2.6 C 38 %
2904 12-05-2020 03:54:17 2.4 C 38 %
2905 12-05-2020 04:04:18 2.4 C 38 %
2906 12-05-2020 04:14:18 2.3 C 38 %
2907 12-05-2020 04:24:17 2.2 C 38 %
2908 12-05-2020 04:34:17 2.1 C 38 %
2909 12-05-2020 04:44:17 2.1 C 38 %
2910 12-05-2020 04:54:17 2.1 C 38 %
2911 12-05-2020 05:04:17 1.8 C 40 %
2912 12-05-2020 05:14:17 1.8 C 40 %
2913 12-05-2020 05:24:17 1.1 C 41 %
2914 12-05-2020 05:34:17 1.2 C 41 %
2915 12-05-2020 05:44:17 0.8 C 42 %
2916 12-05-2020 05:54:18 0.5 C 44 %
2917 12-05-2020 06:04:17 0.3 C 45 %
2918 12-05-2020 06:14:17 0.1 C 45 %
2919 12-05-2020 06:24:17 0.2 C 45 %
2920 12-05-2020 06:34:18 0.2 C 46 %
2921 12-05-2020 06:44:18 0.3 C 45 %
2922 12-05-2020 06:54:17 0.3 C 46 %
2923 12-05-2020 07:04:17 0.5 C 46 %
2924 12-05-2020 07:14:17 0.7 C 46 %
2925 12-05-2020 07:24:18 0.7 C 46 %
Sensor: Nr:Datum:Temp:Feuchte:
Aussen-T/F 2926 12-05-2020 07:34:17 0.9 C 46 %
2927 12-05-2020 07:44:17 1.5 C 44 %
2928 12-05-2020 07:54:17 1.8 C 43 %
2929 12-05-2020 08:04:17 2.1 C 42 %
2930 12-05-2020 08:14:17 2.2 C 42 %
2931 12-05-2020 08:24:17 2.5 C 42 %
2932 12-05-2020 08:34:17 2.7 C 42 %
2933 12-05-2020 08:44:17 3.1 C 41 %
2934 12-05-2020 08:54:17 3.6 C 40 %
2935 12-05-2020 09:04:17 3.8 C 40 %
2936 12-05-2020 09:14:17 4.4 C 39 %
2937 12-05-2020 09:24:17 5 C 37 %
2938 12-05-2020 09:34:17 5.8 C 35 %
2939 12-05-2020 09:44:17 6.5 C 35 %
2940 12-05-2020 09:54:17 6.9 C 34 %
2941 12-05-2020 10:04:17 7.2 C 32 %
2942 12-05-2020 10:14:17 7.4 C 31 %
2943 12-05-2020 10:24:17 7.7 C 31 %
2944 12-05-2020 10:34:17 8.4 C 29 %
2945 12-05-2020 10:44:17 8.7 C 28 %
2946 12-05-2020 10:54:17 9.1 C 27 %
2947 12-05-2020 11:04:17 9.7 C 26 %
2948 12-05-2020 11:14:17 9.7 C 25 %
2949 12-05-2020 11:24:17 9.8 C 25 %
2950 12-05-2020 11:34:17 9.8 C 25 %
Sensor: Nr:Datum:Temp:Feuchte:
Aussen-T/F 2951 12-05-2020 11:44:17 10 C 21 %
2952 12-05-2020 11:54:17 10.2 C 20 %
2953 12-05-2020 12:04:17 10.6 C 20 %
2954 12-05-2020 12:14:17 10.5 C 20 %
2955 12-05-2020 12:24:17 10 C 20 %
2956 12-05-2020 12:34:17 10.1 C 20 %
2957 12-05-2020 12:44:17 10.7 C 20 %
2958 12-05-2020 12:54:17 10.4 C 20 %
2959 12-05-2020 13:04:17 10.6 C 20 %
2960 12-05-2020 13:14:17 11.1 C 20 %
2961 12-05-2020 13:24:17 11.3 C 20 %
2962 12-05-2020 13:34:17 11.5 C 20 %
2963 12-05-2020 13:44:17 11.8 C 20 %
2964 12-05-2020 13:54:17 15.2 C 20 %
2965 12-05-2020 14:04:17 17.9 C 20 %
2966 12-05-2020 14:14:17 19.4 C 20 %
2967 12-05-2020 14:24:17 20.6 C 20 %
2968 12-05-2020 14:34:18 18.9 C 20 %
2969 12-05-2020 14:44:18 22.7 C 20 %
2970 12-05-2020 14:54:17 20.5 C 20 %
2971 12-05-2020 15:04:17 17.7 C 20 %
2972 12-05-2020 15:14:17 18.4 C 20 %
2973 12-05-2020 15:24:17 16 C 20 %
2974 12-05-2020 15:34:17 19.3 C 20 %
2975 12-05-2020 15:44:17 19.6 C 20 %
Sensor: Nr:Datum:Temp:Feuchte:
Aussen-T/F 2976 12-05-2020 15:54:17 17.7 C 20 %
2977 12-05-2020 16:04:17 21.9 C 20 %
2978 12-05-2020 16:14:17 21.2 C 20 %
2979 12-05-2020 16:24:17 16.8 C 20 %
2980 12-05-2020 16:34:18 17.4 C 20 %
2981 12-05-2020 16:44:18 15.8 C 20 %
2982 12-05-2020 16:54:18 18.5 C 20 %
2983 12-05-2020 17:04:17 20 C 20 %
2984 12-05-2020 17:14:17 18.6 C 20 %
2985 12-05-2020 17:24:17 14.5 C 20 %
2986 12-05-2020 17:34:17 16.7 C 20 %
2987 12-05-2020 17:44:17 18.5 C 20 %
2988 12-05-2020 17:54:17 20 C 20 %
2989 12-05-2020 18:04:17 21.3 C 20 %
2990 12-05-2020 18:14:18 16.3 C 20 %
2991 12-05-2020 18:24:17 15.4 C 20 %
2992 12-05-2020 18:34:17 15 C 20 %
2993 12-05-2020 18:44:17 14.6 C 20 %
2994 12-05-2020 18:54:17 14.4 C 20 %
2995 12-05-2020 19:04:17 13.5 C 20 %
2996 12-05-2020 19:14:17 13.5 C 20 %
2997 12-05-2020 19:24:17 13 C 20 %
2998 12-05-2020 19:34:17 12.7 C 20 %
2999 12-05-2020 19:44:18 12.4 C 20 %
3000 12-05-2020 19:54:17 12.3 C 20 %
Sensor: Nr:Datum:Temp:Feuchte:
Aussen-T/F 3001 12-05-2020 20:04:17 12 C 20 %
3002 12-05-2020 20:14:18 12 C 20 %
3003 12-05-2020 20:24:17 11.7 C 20 %
3004 12-05-2020 20:34:17 11.2 C 20 %
3005 12-05-2020 20:44:17 10.4 C 25 %
3006 12-05-2020 20:54:17 9.7 C 27 %
3007 12-05-2020 21:04:17 9.2 C 28 %
3008 12-05-2020 21:14:17 8.9 C 29 %
3009 12-05-2020 21:24:18 8.8 C 29 %
3010 12-05-2020 21:34:17 8.5 C 28 %
3011 12-05-2020 21:44:17 8.1 C 29 %
3012 12-05-2020 21:54:17 8 C 29 %
3013 12-05-2020 22:04:17 8.1 C 28 %
3014 12-05-2020 22:14:17 8 C 28 %
3015 12-05-2020 22:24:17 7.7 C 28 %
3016 12-05-2020 22:34:18 7.4 C 30 %
3017 12-05-2020 22:44:18 7.1 C 30 %
3018 12-05-2020 22:54:18 6.8 C 31 %
3019 12-05-2020 23:04:18 6.8 C 31 %
3020 12-05-2020 23:14:18 6.8 C 31 %
3021 12-05-2020 23:24:17 6.8 C 31 %
3022 12-05-2020 23:34:18 6.4 C 32 %
3023 12-05-2020 23:44:18 6.1 C 32 %
3024 12-05-2020 23:54:17 5.9 C 35 %
3025 13-05-2020 00:04:17 5.2 C 35 %
Sensor: Nr:Datum:Temp:Feuchte:
Aussen-T/F 3026 13-05-2020 00:14:17 4.9 C 37 %
3027 13-05-2020 00:24:17 4.6 C 37 %
3028 13-05-2020 00:34:17 4.3 C 38 %
3029 13-05-2020 00:44:18 4.3 C 38 %
3030 13-05-2020 00:54:17 4.1 C 38 %
3031 13-05-2020 01:04:17 4 C 38 %
3032 13-05-2020 01:14:17 3.7 C 40 %
3033 13-05-2020 01:24:17 3.3 C 40 %
3034 13-05-2020 01:34:18 3 C 40 %
3035 13-05-2020 01:44:18 2.9 C 41 %
3036 13-05-2020 01:54:17 2.9 C 41 %
3037 13-05-2020 02:04:17 2.8 C 41 %
3038 13-05-2020 02:14:17 2.9 C 41 %
3039 13-05-2020 02:24:17 2.6 C 41 %
3040 13-05-2020 02:34:18 2.5 C 42 %
3041 13-05-2020 02:44:18 2.4 C 42 %
3042 13-05-2020 02:54:18 2.3 C 42 %
3043 13-05-2020 03:04:17 2.3 C 43 %
3044 13-05-2020 03:14:17 2.2 C 43 %
3045 13-05-2020 03:24:17 2 C 43 %
3046 13-05-2020 03:34:17 1.7 C 44 %
3047 13-05-2020 03:44:17 1.6 C 45 %
3048 13-05-2020 03:54:17 1.8 C 46 %
3049 13-05-2020 04:04:17 1.6 C 45 %
3050 13-05-2020 04:14:17 1.5 C 45 %
Sensor: Nr:Datum:Temp:Feuchte:
Aussen-T/F 3051 13-05-2020 04:24:17 1.3 C 45 %
3052 13-05-2020 04:34:17 1.5 C 46 %
3053 13-05-2020 04:44:17 1.2 C 46 %
3054 13-05-2020 04:54:17 1.3 C 46 %
3055 13-05-2020 05:04:17 1.3 C 46 %
3056 13-05-2020 05:14:17 1.4 C 46 %
3057 13-05-2020 05:24:17 1.5 C 47 %
3058 13-05-2020 05:34:17 1.8 C 47 %
3059 13-05-2020 05:44:17 2.1 C 46 %
3060 13-05-2020 05:54:17 2.3 C 45 %
3061 13-05-2020 06:04:17 2.5 C 45 %
3062 13-05-2020 06:14:17 2.7 C 45 %
3063 13-05-2020 06:24:17 2.8 C 43 %
3064 13-05-2020 06:34:17 2.8 C 43 %
3065 13-05-2020 06:44:17 3 C 42 %
3066 13-05-2020 06:54:17 3.2 C 42 %
3067 13-05-2020 07:04:17 3.1 C 42 %
3068 13-05-2020 07:14:17 3.4 C 42 %
3069 13-05-2020 07:24:17 3.4 C 41 %
3070 13-05-2020 07:34:17 3.8 C 41 %
3071 13-05-2020 07:44:17 4.2 C 41 %
3072 13-05-2020 07:54:17 4.5 C 40 %
3073 13-05-2020 08:04:17 4.7 C 40 %
3074 13-05-2020 08:14:17 5.2 C 38 %
3075 13-05-2020 08:24:18 5.5 C 37 %
Sensor: Nr:Datum:Temp:Feuchte:
Aussen-T/F 3076 13-05-2020 08:34:17 5.8 C 37 %
3077 13-05-2020 08:44:17 5.9 C 37 %
3078 13-05-2020 08:54:18 5.8 C 37 %
3079 13-05-2020 09:04:17 5.8 C 38 %
3080 13-05-2020 09:14:17 6.1 C 37 %
3081 13-05-2020 09:24:17 6.7 C 37 %
3082 13-05-2020 09:34:17 7.5 C 36 %
3083 13-05-2020 09:44:17 7.8 C 36 %
3084 13-05-2020 09:54:17 8.2 C 35 %
3085 13-05-2020 10:04:17 9.1 C 31 %
3086 13-05-2020 10:14:17 9.6 C 30 %
3087 13-05-2020 10:24:17 9.9 C 30 %
3088 13-05-2020 10:34:17 10.8 C 27 %
3089 13-05-2020 10:44:17 11.2 C 26 %
3090 13-05-2020 10:54:17 11.8 C 25 %
3091 13-05-2020 11:04:18 12.4 C 25 %
3092 13-05-2020 11:14:18 12.5 C 21 %
3093 13-05-2020 11:24:17 12.9 C 21 %
3094 13-05-2020 11:34:17 13.2 C 20 %
3095 13-05-2020 11:44:17 13.6 C 20 %
3096 13-05-2020 11:54:17 13.6 C 20 %
3097 13-05-2020 12:04:17 13.3 C 20 %
3098 13-05-2020 12:14:17 14.4 C 20 %
3099 13-05-2020 12:24:17 15.2 C 20 %
3100 13-05-2020 12:34:18 15 C 20 %
Sensor: Nr:Datum:Temp:Feuchte:
Aussen-T/F 3101 13-05-2020 12:44:18 15.1 C 20 %
3102 13-05-2020 12:54:18 15.5 C 20 %
3103 13-05-2020 13:04:17 15.4 C 20 %
3104 13-05-2020 13:14:18 14.8 C 20 %
3105 13-05-2020 13:24:18 14.4 C 20 %
3106 13-05-2020 13:34:18 15.6 C 20 %
3107 13-05-2020 13:44:18 15.6 C 20 %
3108 13-05-2020 13:54:17 14.9 C 20 %
3109 13-05-2020 14:04:17 17.1 C 20 %
3110 13-05-2020 14:14:17 19.1 C 20 %
3111 13-05-2020 14:24:17 19.7 C 20 %
3112 13-05-2020 14:34:17 16.8 C 20 %
3113 13-05-2020 14:44:17 17.6 C 20 %
3114 13-05-2020 14:54:17 18.8 C 20 %
3115 13-05-2020 15:04:17 18.8 C 20 %
3116 13-05-2020 15:14:17 16.6 C 20 %
3117 13-05-2020 15:24:17 16.7 C 20 %
3118 13-05-2020 15:34:17 19.5 C 20 %
3119 13-05-2020 15:44:17 20.3 C 20 %
3120 13-05-2020 15:54:17 19.8 C 20 %
3121 13-05-2020 16:04:17 18 C 20 %
3122 13-05-2020 16:14:18 18.4 C 20 %
3123 13-05-2020 16:24:18 17.4 C 20 %
3124 13-05-2020 16:34:17 15.5 C 20 %
3125 13-05-2020 16:44:17 15.9 C 20 %
Sensor: Nr:Datum:Temp:Feuchte:
Aussen-T/F 3126 13-05-2020 16:54:17 15.3 C 20 %
3127 13-05-2020 17:04:18 18.1 C 20 %
3128 13-05-2020 17:14:18 16.8 C 20 %
3129 13-05-2020 17:24:18 15.6 C 20 %
3130 13-05-2020 17:34:17 15.8 C 20 %
3131 13-05-2020 17:44:17 16 C 20 %
3132 13-05-2020 17:54:17 15.6 C 20 %
3133 13-05-2020 18:04:17 15.6 C 20 %
3134 13-05-2020 18:14:17 14.4 C 20 %
3135 13-05-2020 18:24:17 13.8 C 20 %
3136 13-05-2020 18:34:17 13.7 C 20 %
3137 13-05-2020 18:44:17 13.4 C 20 %
3138 13-05-2020 18:54:18 13.2 C 20 %
3139 13-05-2020 19:04:18 13.4 C 20 %
3140 13-05-2020 19:14:18 13.3 C 20 %
3141 13-05-2020 19:24:17 13 C 20 %
3142 13-05-2020 19:34:17 12.9 C 20 %
3143 13-05-2020 19:44:17 12.7 C 20 %
3144 13-05-2020 19:54:17 12.6 C 20 %
3145 13-05-2020 20:04:17 12.8 C 20 %
3146 13-05-2020 20:14:17 13 C 20 %
3147 13-05-2020 20:24:17 13 C 20 %
3148 13-05-2020 20:34:18 12.9 C 20 %
3149 13-05-2020 20:44:18 12.5 C 20 %
3150 13-05-2020 20:54:17 12.2 C 20 %
Sensor: Nr:Datum:Temp:Feuchte:
Aussen-T/F 3151 13-05-2020 21:04:17 12 C 20 %
3152 13-05-2020 21:14:17 11.5 C 20 %
3153 13-05-2020 21:24:17 11.3 C 21 %
3154 13-05-2020 21:34:17 11 C 25 %
3155 13-05-2020 21:44:17 10.6 C 27 %
3156 13-05-2020 21:54:17 10.4 C 28 %
3157 13-05-2020 22:04:18 10 C 30 %
3158 13-05-2020 22:14:18 9.9 C 30 %
3159 13-05-2020 22:24:17 9.5 C 31 %
3160 13-05-2020 22:34:18 9.2 C 31 %
3161 13-05-2020 22:44:18 8.9 C 32 %
3162 13-05-2020 22:54:17 8.6 C 32 %
3163 13-05-2020 23:04:17 8.3 C 33 %
3164 13-05-2020 23:14:17 8.4 C 33 %
3165 13-05-2020 23:24:18 8.1 C 33 %
3166 13-05-2020 23:34:17 7.9 C 34 %
3167 13-05-2020 23:44:17 7.6 C 35 %
3168 13-05-2020 23:54:17 7.7 C 35 %
3169 14-05-2020 00:04:17 7.7 C 35 %
3170 14-05-2020 00:14:17 7.3 C 35 %
3171 14-05-2020 00:24:17 7.3 C 35 %
3172 14-05-2020 00:34:18 7.1 C 35 %
3173 14-05-2020 00:44:18 7.1 C 35 %
3174 14-05-2020 00:54:17 7 C 35 %
3175 14-05-2020 01:04:17 6.9 C 35 %
Sensor: Nr:Datum:Temp:Feuchte:
Aussen-T/F 3176 14-05-2020 01:14:17 6.7 C 35 %
3177 14-05-2020 01:24:18 6.6 C 36 %
3178 14-05-2020 01:34:18 6.1 C 36 %
3179 14-05-2020 01:44:18 5.7 C 38 %
3180 14-05-2020 01:54:17 5.3 C 38 %
3181 14-05-2020 02:04:18 5 C 39 %
3182 14-05-2020 02:14:18 5.2 C 39 %
3183 14-05-2020 02:24:17 6.2 C 37 %
3184 14-05-2020 02:34:17 5.9 C 38 %
3185 14-05-2020 02:44:18 5.5 C 38 %
3186 14-05-2020 02:54:17 5.8 C 38 %
3187 14-05-2020 03:04:18 5.6 C 38 %
3188 14-05-2020 03:14:18 5.9 C 38 %
3189 14-05-2020 03:24:18 5.5 C 38 %
3190 14-05-2020 03:34:17 5.6 C 39 %
3191 14-05-2020 03:44:17 5.8 C 38 %
3192 14-05-2020 03:54:17 6 C 37 %
3193 14-05-2020 04:04:18 6.2 C 37 %
3194 14-05-2020 04:14:18 5.8 C 38 %
3195 14-05-2020 04:24:17 5.4 C 38 %
3196 14-05-2020 04:34:18 5.2 C 39 %
3197 14-05-2020 04:44:18 5.1 C 39 %
3198 14-05-2020 04:54:18 5.2 C 38 %
3199 14-05-2020 05:04:17 5 C 39 %
3200 14-05-2020 05:14:17 5.2 C 38 %
Sensor: Nr:Datum:Temp:Feuchte:
Aussen-T/F 3201 14-05-2020 05:24:17 5.3 C 38 %
3202 14-05-2020 05:34:17 5.4 C 38 %
3203 14-05-2020 05:44:17 5.4 C 38 %
3204 14-05-2020 05:54:18 5.1 C 39 %
3205 14-05-2020 06:04:18 4.9 C 40 %
3206 14-05-2020 06:14:18 4.1 C 41 %
3207 14-05-2020 06:24:17 3.9 C 43 %
3208 14-05-2020 06:34:18 3.7 C 43 %
3209 14-05-2020 06:44:18 3.9 C 43 %
3210 14-05-2020 06:54:17 3.7 C 43 %
3211 14-05-2020 07:04:17 3.9 C 43 %
3212 14-05-2020 07:14:17 3.9 C 43 %
3213 14-05-2020 07:24:18 4.1 C 42 %
3214 14-05-2020 07:34:17 4.2 C 42 %
3215 14-05-2020 07:44:17 4.8 C 41 %
3216 14-05-2020 07:54:17 5.7 C 39 %
3217 14-05-2020 08:04:18 5.8 C 38 %
3218 14-05-2020 08:14:18 6 C 37 %
3219 14-05-2020 08:24:17 6.3 C 37 %
3220 14-05-2020 08:34:17 6.4 C 37 %
3221 14-05-2020 08:44:17 7.2 C 35 %
3222 14-05-2020 08:54:18 7.6 C 35 %
3223 14-05-2020 09:04:17 7.6 C 35 %
3224 14-05-2020 09:14:17 7.9 C 34 %
3225 14-05-2020 09:24:17 8.1 C 33 %
Sensor: Nr:Datum:Temp:Feuchte:
Aussen-T/F 3226 14-05-2020 09:34:17 8.2 C 33 %
3227 14-05-2020 09:44:17 8.6 C 32 %
3228 14-05-2020 09:54:17 8.7 C 32 %
3229 14-05-2020 10:04:17 8.6 C 32 %
3230 14-05-2020 10:14:17 9.2 C 31 %
3231 14-05-2020 10:24:18 9.5 C 32 %
3232 14-05-2020 10:34:17 10 C 30 %
3233 14-05-2020 10:44:17 10.6 C 30 %
3234 14-05-2020 10:54:17 11 C 28 %
3235 14-05-2020 11:04:17 11.1 C 27 %
3236 14-05-2020 11:14:18 11.5 C 27 %
3237 14-05-2020 11:24:17 12 C 26 %
3238 14-05-2020 11:34:18 12.4 C 26 %
3239 14-05-2020 11:44:18 12.2 C 25 %
3240 14-05-2020 11:54:17 12.8 C 25 %
3241 14-05-2020 12:04:17 13 C 25 %
3242 14-05-2020 12:14:17 13.3 C 25 %
3243 14-05-2020 12:24:17 13.3 C 22 %
3244 14-05-2020 12:34:18 12.9 C 23 %
3245 14-05-2020 12:44:18 13.5 C 22 %
3246 14-05-2020 12:54:18 13.7 C 20 %
3247 14-05-2020 13:04:18 13.6 C 20 %
3248 14-05-2020 13:14:18 14.4 C 20 %
3249 14-05-2020 13:24:17 14 C 20 %
3250 14-05-2020 13:34:17 13.9 C 20 %
Sensor: Nr:Datum:Temp:Feuchte:
Aussen-T/F 3251 14-05-2020 13:44:18 15.6 C 20 %
3252 14-05-2020 13:54:17 15.5 C 20 %
3253 14-05-2020 14:04:17 14.7 C 20 %
3254 14-05-2020 14:14:17 15.1 C 20 %
3255 14-05-2020 14:24:17 16.1 C 20 %
3256 14-05-2020 14:34:18 16.3 C 20 %
3257 14-05-2020 14:44:18 16.2 C 20 %
3258 14-05-2020 14:54:17 15.1 C 20 %
3259 14-05-2020 15:04:17 14.8 C 20 %
3260 14-05-2020 15:14:17 15.1 C 20 %
3261 14-05-2020 15:24:17 15.2 C 20 %
3262 14-05-2020 15:34:17 16.4 C 20 %
3263 14-05-2020 15:44:17 16.2 C 20 %
3264 14-05-2020 15:54:17 15.4 C 20 %
3265 14-05-2020 16:04:17 16.1 C 20 %
3266 14-05-2020 16:14:17 18.7 C 20 %
3267 14-05-2020 16:24:17 16.4 C 20 %
3268 14-05-2020 16:34:17 16.5 C 20 %
3269 14-05-2020 16:44:18 15 C 20 %
3270 14-05-2020 16:54:17 14.6 C 20 %
3271 14-05-2020 17:04:17 14.7 C 20 %
3272 14-05-2020 17:14:18 16.2 C 20 %
3273 14-05-2020 17:24:17 15.2 C 20 %
3274 14-05-2020 17:34:17 14.6 C 20 %
3275 14-05-2020 17:44:17 14.6 C 20 %
Sensor: Nr:Datum:Temp:Feuchte:
Aussen-T/F 3276 14-05-2020 17:54:17 14.6 C 20 %
3277 14-05-2020 18:04:18 15 C 20 %
3278 14-05-2020 18:14:18 15.4 C 20 %
3279 14-05-2020 18:24:17 14.9 C 20 %
3280 14-05-2020 18:34:17 14.6 C 20 %
3281 14-05-2020 18:44:17 14.7 C 20 %
3282 14-05-2020 18:54:18 14.6 C 20 %
3283 14-05-2020 19:04:17 14.5 C 20 %
3284 14-05-2020 19:14:17 14.7 C 20 %
3285 14-05-2020 19:24:17 14.5 C 20 %
3286 14-05-2020 19:34:17 14 C 20 %
3287 14-05-2020 19:44:17 13.3 C 20 %
3288 14-05-2020 19:54:18 12.9 C 20 %
3289 14-05-2020 20:04:18 12.2 C 20 %
3290 14-05-2020 20:14:18 11.8 C 20 %
3291 14-05-2020 20:24:17 11.2 C 21 %
3292 14-05-2020 20:34:18 10.7 C 20 %
3293 14-05-2020 20:44:18 10.4 C 22 %
3294 14-05-2020 20:54:17 10.1 C 23 %
3295 14-05-2020 21:04:17 9.5 C 25 %
3296 14-05-2020 21:14:17 9.3 C 25 %
3297 14-05-2020 21:24:18 8.9 C 27 %
3298 14-05-2020 21:34:18 8.7 C 27 %
3299 14-05-2020 21:44:18 8.6 C 27 %
3300 14-05-2020 21:54:18 8.4 C 27 %
Sensor: Nr:Datum:Temp:Feuchte:
Aussen-T/F 3301 14-05-2020 22:04:18 7.9 C 28 %
3302 14-05-2020 22:14:18 8 C 28 %
3303 14-05-2020 22:24:18 7.6 C 29 %
3304 14-05-2020 22:34:17 7.5 C 29 %
3305 14-05-2020 22:44:17 7.1 C 30 %
3306 14-05-2020 22:54:18 7.3 C 29 %
3307 14-05-2020 23:04:18 7.3 C 29 %
3308 14-05-2020 23:14:18 7.2 C 29 %
3309 14-05-2020 23:24:18 7 C 30 %
3310 14-05-2020 23:34:17 6.9 C 30 %
3311 14-05-2020 23:44:17 6.5 C 31 %
3312 14-05-2020 23:54:17 6.8 C 31 %
3313 15-05-2020 00:04:18 6.8 C 31 %
3314 15-05-2020 00:14:18 6.4 C 31 %
3315 15-05-2020 00:24:17 5.6 C 34 %
3316 15-05-2020 00:34:18 4.9 C 36 %
3317 15-05-2020 00:44:18 4.8 C 36 %
3318 15-05-2020 00:54:18 5.2 C 35 %
3319 15-05-2020 01:04:17 5.4 C 35 %
3320 15-05-2020 01:14:17 5.2 C 35 %
3321 15-05-2020 01:24:17 5.1 C 35 %
3322 15-05-2020 01:34:18 5.3 C 35 %
3323 15-05-2020 01:44:18 5.2 C 35 %
3324 15-05-2020 01:54:17 5.2 C 35 %
3325 15-05-2020 02:04:17 5.2 C 35 %
Sensor: Nr:Datum:Temp:Feuchte:
Aussen-T/F 3326 15-05-2020 02:14:17 4.9 C 35 %
3327 15-05-2020 02:24:17 4.9 C 35 %
3328 15-05-2020 02:34:17 4.7 C 35 %
3329 15-05-2020 02:44:17 4.5 C 35 %
3330 15-05-2020 02:54:17 4.1 C 36 %
3331 15-05-2020 03:04:17 3.8 C 38 %
3332 15-05-2020 03:14:17 3.5 C 38 %
3333 15-05-2020 03:24:17 3.2 C 39 %
3334 15-05-2020 03:34:17 3.1 C 39 %
3335 15-05-2020 03:44:17 3.1 C 40 %
3336 15-05-2020 03:54:17 3.3 C 39 %
3337 15-05-2020 04:04:17 3.1 C 40 %
3338 15-05-2020 04:14:17 2.9 C 40 %
3339 15-05-2020 04:24:17 2.6 C 41 %
3340 15-05-2020 04:34:18 2.3 C 41 %
3341 15-05-2020 04:44:18 2.1 C 41 %
3342 15-05-2020 04:54:17 2 C 42 %
3343 15-05-2020 05:04:18 1.8 C 42 %
3344 15-05-2020 05:14:18 1.6 C 43 %
3345 15-05-2020 05:24:18 1.6 C 44 %
3346 15-05-2020 05:34:17 1.5 C 44 %
3347 15-05-2020 05:44:17 1.5 C 45 %
3348 15-05-2020 05:54:17 1.5 C 45 %
3349 15-05-2020 06:04:17 1.4 C 45 %
3350 15-05-2020 06:14:17 1.4 C 45 %
Sensor: Nr:Datum:Temp:Feuchte:
Aussen-T/F 3351 15-05-2020 06:24:17 1.4 C 45 %
3352 15-05-2020 06:34:17 1.5 C 46 %
3353 15-05-2020 06:44:17 1.5 C 46 %
3354 15-05-2020 06:54:18 1.8 C 45 %
3355 15-05-2020 07:04:17 2.2 C 45 %
3356 15-05-2020 07:14:17 2.8 C 42 %
3357 15-05-2020 07:24:17 3.2 C 41 %
3358 15-05-2020 07:34:18 3.4 C 41 %
3359 15-05-2020 07:44:18 3.8 C 40 %
3360 15-05-2020 07:54:18 4 C 40 %
3361 15-05-2020 08:04:18 4.1 C 40 %
3362 15-05-2020 08:14:18 4.6 C 39 %
3363 15-05-2020 08:24:18 4.8 C 39 %
3364 15-05-2020 08:34:18 4.8 C 39 %
3365 15-05-2020 08:44:18 5.9 C 37 %
3366 15-05-2020 08:54:17 5.8 C 37 %
3367 15-05-2020 09:04:18 6.5 C 36 %
3368 15-05-2020 09:14:18 6.9 C 36 %
3369 15-05-2020 09:24:17 7.5 C 35 %
3370 15-05-2020 09:34:18 8.8 C 32 %
3371 15-05-2020 09:44:18 9.5 C 30 %
3372 15-05-2020 09:54:18 10.1 C 29 %
3373 15-05-2020 10:04:17 10.3 C 28 %
3374 15-05-2020 10:14:18 10.8 C 28 %
3375 15-05-2020 10:24:17 11.1 C 26 %
Sensor: Nr:Datum:Temp:Feuchte:
Aussen-T/F 3376 15-05-2020 10:34:17 11.2 C 26 %
3377 15-05-2020 10:44:17 12.1 C 25 %
3378 15-05-2020 10:54:18 12.9 C 25 %
3379 15-05-2020 11:04:17 12.8 C 25 %
3380 15-05-2020 11:14:17 13.1 C 20 %
3381 15-05-2020 11:24:17 13.2 C 20 %
3382 15-05-2020 11:34:17 13.8 C 20 %
3383 15-05-2020 11:44:17 14 C 20 %
3384 15-05-2020 11:54:17 14.6 C 20 %
3385 15-05-2020 12:04:17 14.3 C 20 %
3386 15-05-2020 12:14:17 14.7 C 20 %
3387 15-05-2020 12:24:18 14.6 C 20 %
3388 15-05-2020 12:34:17 14.8 C 20 %
3389 15-05-2020 12:44:17 14.7 C 20 %
3390 15-05-2020 12:54:17 15 C 20 %
3391 15-05-2020 13:04:17 15.1 C 20 %
3392 15-05-2020 13:14:17 15.2 C 20 %
3393 15-05-2020 13:24:17 15.6 C 20 %
3394 15-05-2020 13:34:18 15.1 C 20 %
3395 15-05-2020 13:44:18 16.3 C 20 %
3396 15-05-2020 13:54:17 19.5 C 20 %
3397 15-05-2020 14:04:17 23.4 C 20 %
3398 15-05-2020 14:14:17 23.3 C 20 %
3399 15-05-2020 14:24:17 23.8 C 20 %
3400 15-05-2020 14:34:18 22.9 C 20 %
Sensor: Nr:Datum:Temp:Feuchte:
Aussen-T/F 3401 15-05-2020 14:44:18 23.1 C 20 %
3402 15-05-2020 14:54:17 25.4 C 20 %
3403 15-05-2020 15:04:17 26.3 C 20 %
3404 15-05-2020 15:14:17 24.6 C 20 %
3405 15-05-2020 15:24:18 24.5 C 20 %
3406 15-05-2020 15:34:18 24.4 C 20 %
3407 15-05-2020 15:44:18 24.2 C 20 %
3408 15-05-2020 15:54:18 24.5 C 20 %
3409 15-05-2020 16:04:18 24.5 C 20 %
3410 15-05-2020 16:14:18 24.5 C 20 %
3411 15-05-2020 16:24:18 22 C 20 %
3412 15-05-2020 16:34:18 24 C 20 %
3413 15-05-2020 16:44:18 25.1 C 20 %
3414 15-05-2020 16:54:17 22.6 C 20 %
3415 15-05-2020 17:04:17 22 C 20 %
3416 15-05-2020 17:14:17 22.4 C 20 %
3417 15-05-2020 17:24:17 25.2 C 20 %
3418 15-05-2020 17:34:17 22.7 C 20 %
3419 15-05-2020 17:44:17 22.5 C 20 %
3420 15-05-2020 17:54:17 21.2 C 20 %
3421 15-05-2020 18:04:17 21.1 C 20 %
3422 15-05-2020 18:14:17 18.7 C 20 %
3423 15-05-2020 18:24:17 17.7 C 20 %
3424 15-05-2020 18:34:17 18.1 C 20 %
3425 15-05-2020 18:44:18 17.7 C 20 %
Sensor: Nr:Datum:Temp:Feuchte:
Aussen-T/F 3426 15-05-2020 18:54:17 16.9 C 20 %
3427 15-05-2020 19:04:17 16.8 C 20 %
3428 15-05-2020 19:14:17 16.9 C 20 %
3429 15-05-2020 19:24:17 16.8 C 20 %
3430 15-05-2020 19:34:18 16.6 C 20 %
3431 15-05-2020 19:44:18 16 C 20 %
3432 15-05-2020 19:54:17 15.8 C 20 %
3433 15-05-2020 20:04:18 15.6 C 20 %
3434 15-05-2020 20:14:18 15.3 C 20 %
3435 15-05-2020 20:24:17 15.1 C 20 %
3436 15-05-2020 20:34:17 14.8 C 20 %
3437 15-05-2020 20:44:17 14.2 C 20 %
3438 15-05-2020 20:54:17 13.5 C 20 %
3439 15-05-2020 21:04:17 12.1 C 20 %
3440 15-05-2020 21:14:17 11.8 C 20 %
3441 15-05-2020 21:24:17 10.9 C 20 %
3442 15-05-2020 21:34:17 10.7 C 20 %
3443 15-05-2020 21:44:17 10.4 C 20 %
3444 15-05-2020 21:54:17 11.6 C 20 %
3445 15-05-2020 22:04:17 10.5 C 20 %
3446 15-05-2020 22:14:17 9.9 C 25 %
3447 15-05-2020 22:24:17 9.5 C 26 %
3448 15-05-2020 22:34:18 9.2 C 26 %
3449 15-05-2020 22:44:18 9 C 27 %
3450 15-05-2020 22:54:18 9.1 C 27 %
Sensor: Nr:Datum:Temp:Feuchte:
Aussen-T/F 3451 15-05-2020 23:04:18 8.9 C 28 %
3452 15-05-2020 23:14:18 9 C 28 %
3453 15-05-2020 23:24:18 9.2 C 27 %
3454 15-05-2020 23:34:17 8.5 C 29 %
3455 15-05-2020 23:44:17 8.5 C 28 %
3456 15-05-2020 23:54:17 8.4 C 28 %
3457 16-05-2020 00:04:17 8 C 29 %
3458 16-05-2020 00:14:17 8.2 C 28 %
3459 16-05-2020 00:24:17 7.8 C 30 %
3460 16-05-2020 00:34:18 7.5 C 30 %
3461 16-05-2020 00:44:18 7.1 C 31 %
3462 16-05-2020 00:54:17 6.5 C 33 %
3463 16-05-2020 01:04:17 6 C 34 %
3464 16-05-2020 01:14:17 5.6 C 35 %
3465 16-05-2020 01:24:17 5.1 C 36 %
3466 16-05-2020 01:34:17 4.8 C 37 %
3467 16-05-2020 01:44:17 4.6 C 37 %
3468 16-05-2020 01:54:17 4.4 C 38 %
3469 16-05-2020 02:04:17 4.3 C 38 %
3470 16-05-2020 02:14:17 4.3 C 39 %
3471 16-05-2020 02:24:18 4.1 C 39 %
3472 16-05-2020 02:34:17 3.8 C 40 %
3473 16-05-2020 02:44:17 3.7 C 40 %
3474 16-05-2020 02:54:18 3.6 C 40 %
3475 16-05-2020 03:04:17 3.5 C 41 %
Sensor: Nr:Datum:Temp:Feuchte:
Aussen-T/F 3476 16-05-2020 03:14:17 3.4 C 41 %
3477 16-05-2020 03:24:18 3.2 C 41 %
3478 16-05-2020 03:34:18 3.7 C 41 %
3479 16-05-2020 03:44:18 3.2 C 42 %
3480 16-05-2020 03:54:17 3.2 C 41 %
3481 16-05-2020 04:04:17 3 C 42 %
3482 16-05-2020 04:14:17 2.9 C 43 %
3483 16-05-2020 04:24:17 2.7 C 43 %
3484 16-05-2020 04:34:18 2.5 C 43 %
3485 16-05-2020 04:44:18 2.6 C 44 %
3486 16-05-2020 04:54:17 2.7 C 44 %
3487 16-05-2020 05:04:17 2.4 C 44 %
3488 16-05-2020 05:14:17 2.5 C 45 %
3489 16-05-2020 05:24:17 2.5 C 44 %
3490 16-05-2020 05:34:17 2.3 C 44 %
3491 16-05-2020 05:44:17 2.1 C 44 %
3492 16-05-2020 05:54:17 2.1 C 45 %
3493 16-05-2020 06:04:17 2.3 C 45 %
3494 16-05-2020 06:14:17 2.2 C 45 %
3495 16-05-2020 06:24:17 2.1 C 45 %
3496 16-05-2020 06:34:18 2.2 C 45 %
3497 16-05-2020 06:44:18 2.4 C 45 %
3498 16-05-2020 06:54:18 2.4 C 45 %
3499 16-05-2020 07:04:17 2.4 C 45 %
3500 16-05-2020 07:14:17 2.7 C 45 %
Sensor: Nr:Datum:Temp:Feuchte:
Aussen-T/F 3501 16-05-2020 07:24:18 2.7 C 45 %
3502 16-05-2020 07:34:17 3 C 44 %
3503 16-05-2020 07:44:17 3.2 C 44 %
3504 16-05-2020 07:54:17 3.4 C 43 %
3505 16-05-2020 08:04:17 3.6 C 43 %
3506 16-05-2020 08:14:17 4 C 42 %
3507 16-05-2020 08:24:17 4.4 C 41 %
3508 16-05-2020 08:34:17 4.6 C 41 %
3509 16-05-2020 08:44:17 5.3 C 40 %
3510 16-05-2020 08:54:17 5.7 C 40 %
3511 16-05-2020 09:04:17 6.1 C 39 %
3512 16-05-2020 09:14:17 6.6 C 38 %
3513 16-05-2020 09:24:17 7.4 C 37 %
3514 16-05-2020 09:34:17 8.1 C 36 %
3515 16-05-2020 09:44:18 8.8 C 36 %
3516 16-05-2020 09:54:17 9.6 C 35 %
3517 16-05-2020 10:04:17 10.2 C 32 %
3518 16-05-2020 10:14:17 10.8 C 32 %
3519 16-05-2020 10:24:17 11.7 C 31 %
3520 16-05-2020 10:34:17 12.4 C 29 %
3521 16-05-2020 10:44:17 13.1 C 21 %
3522 16-05-2020 10:54:17 13.5 C 21 %
3523 16-05-2020 11:04:17 14.2 C 20 %
3524 16-05-2020 11:14:17 14.5 C 20 %
3525 16-05-2020 11:24:17 14.7 C 20 %
Sensor: Nr:Datum:Temp:Feuchte:
Aussen-T/F 3526 16-05-2020 11:34:17 14.3 C 20 %
3527 16-05-2020 11:44:17 15.5 C 20 %
3528 16-05-2020 11:54:17 15.1 C 20 %
3529 16-05-2020 12:04:18 15.6 C 20 %
3530 16-05-2020 12:14:18 15.4 C 20 %
3531 16-05-2020 12:24:17 14.8 C 20 %
3532 16-05-2020 12:34:17 15.1 C 20 %
3533 16-05-2020 12:44:17 15.1 C 20 %
3534 16-05-2020 12:54:17 15.6 C 20 %
3535 16-05-2020 13:04:18 15.5 C 20 %
3536 16-05-2020 13:14:18 15.8 C 20 %
3537 16-05-2020 13:24:17 16.5 C 20 %
3538 16-05-2020 13:34:17 16.5 C 20 %
3539 16-05-2020 13:44:17 17.3 C 20 %
3540 16-05-2020 13:54:18 21.1 C 20 %
3541 16-05-2020 14:04:18 21.6 C 20 %
3542 16-05-2020 14:14:18 25.7 C 20 %
3543 16-05-2020 14:24:17 25.2 C 20 %
3544 16-05-2020 14:34:17 25 C 20 %
3545 16-05-2020 14:44:17 23.5 C 20 %
3546 16-05-2020 14:54:17 23.9 C 20 %
3547 16-05-2020 15:04:17 24.7 C 20 %
3548 16-05-2020 15:14:17 24.6 C 20 %
3549 16-05-2020 15:24:17 24.7 C 20 %
3550 16-05-2020 15:34:17 22.4 C 20 %
Sensor: Nr:Datum:Temp:Feuchte:
Aussen-T/F 3551 16-05-2020 15:44:18 23.5 C 20 %
3552 16-05-2020 15:54:18 24.6 C 20 %
3553 16-05-2020 16:04:18 24.3 C 20 %
3554 16-05-2020 16:14:18 26.8 C 20 %
3555 16-05-2020 16:24:18 24.3 C 20 %
3556 16-05-2020 16:34:17 22.9 C 20 %
3557 16-05-2020 16:44:17 23.4 C 20 %
3558 16-05-2020 16:54:17 21.3 C 20 %
3559 16-05-2020 17:04:17 21.6 C 20 %
3560 16-05-2020 17:14:17 20.7 C 20 %
3561 16-05-2020 17:24:18 20.6 C 20 %
3562 16-05-2020 17:34:17 20.7 C 20 %
3563 16-05-2020 17:44:17 20.4 C 20 %
3564 16-05-2020 17:54:17 20 C 20 %
3565 16-05-2020 18:04:18 20.7 C 20 %
3566 16-05-2020 18:14:18 20.9 C 20 %
3567 16-05-2020 18:24:17 19.7 C 20 %
3568 16-05-2020 18:34:17 20.7 C 20 %
3569 16-05-2020 18:44:17 20.1 C 20 %
3570 16-05-2020 18:54:17 19 C 20 %
3571 16-05-2020 19:04:17 18.7 C 20 %
3572 16-05-2020 19:14:18 18.1 C 20 %
3573 16-05-2020 19:24:17 18 C 20 %
3574 16-05-2020 19:34:17 18.1 C 20 %
3575 16-05-2020 19:44:17 17.9 C 20 %
Sensor: Nr:Datum:Temp:Feuchte:
Aussen-T/F 3576 16-05-2020 19:54:18 18.1 C 20 %
3577 16-05-2020 20:04:17 17.7 C 20 %
3578 16-05-2020 20:14:17 17.4 C 20 %
3579 16-05-2020 20:24:18 17 C 20 %
3580 16-05-2020 20:34:17 16.5 C 20 %
3581 16-05-2020 20:44:17 16 C 20 %
3582 16-05-2020 20:54:18 14.5 C 20 %
3583 16-05-2020 21:04:18 13.7 C 23 %
3584 16-05-2020 21:14:18 13.6 C 20 %
3585 16-05-2020 21:24:18 13.8 C 20 %
3586 16-05-2020 21:34:18 13.4 C 23 %
3587 16-05-2020 21:44:18 13.2 C 23 %
3588 16-05-2020 21:54:17 13.2 C 24 %
3589 16-05-2020 22:04:17 13 C 23 %
3590 16-05-2020 22:14:17 13 C 23 %
3591 16-05-2020 22:24:17 12.7 C 25 %
3592 16-05-2020 22:34:17 12.6 C 25 %
3593 16-05-2020 22:44:17 12.6 C 25 %
3594 16-05-2020 22:54:17 12.3 C 25 %
3595 16-05-2020 23:04:17 11.7 C 27 %
3596 16-05-2020 23:14:17 12.2 C 26 %
3597 16-05-2020 23:24:18 12.1 C 26 %
3598 16-05-2020 23:34:18 11.8 C 27 %
3599 16-05-2020 23:44:18 11 C 29 %
3600 16-05-2020 23:54:17 11.2 C 29 %
Sensor: Nr:Datum:Temp:Feuchte:
Aussen-T/F 3601 17-05-2020 00:04:17 11.6 C 28 %
3602 17-05-2020 00:14:17 10.7 C 30 %
3603 17-05-2020 00:24:17 10.9 C 30 %
3604 17-05-2020 00:34:18 10.7 C 30 %
3605 17-05-2020 00:44:18 10 C 31 %
3606 17-05-2020 00:54:17 9.8 C 32 %
3607 17-05-2020 01:04:17 9.9 C 32 %
3608 17-05-2020 01:14:17 9.5 C 33 %
3609 17-05-2020 01:24:17 9.4 C 33 %
3610 17-05-2020 01:34:18 9.3 C 33 %
3611 17-05-2020 01:44:18 9 C 33 %
3612 17-05-2020 01:54:17 8.8 C 35 %
3613 17-05-2020 02:04:17 9 C 33 %
3614 17-05-2020 02:14:17 9.2 C 33 %
3615 17-05-2020 02:24:17 9.1 C 33 %
3616 17-05-2020 02:34:18 9 C 34 %
3617 17-05-2020 02:44:18 8.6 C 35 %
3618 17-05-2020 02:54:17 8.5 C 35 %
3619 17-05-2020 03:04:17 8.2 C 36 %
3620 17-05-2020 03:14:17 8.5 C 36 %
3621 17-05-2020 03:24:17 8.3 C 36 %
3622 17-05-2020 03:34:17 8.3 C 36 %
3623 17-05-2020 03:44:18 8.5 C 36 %
3624 17-05-2020 03:54:17 8.2 C 36 %
3625 17-05-2020 04:04:17 8.2 C 36 %
Sensor: Nr:Datum:Temp:Feuchte:
Aussen-T/F 3626 17-05-2020 04:14:17 7.7 C 37 %
3627 17-05-2020 04:24:17 7.8 C 38 %
3628 17-05-2020 04:34:18 7.4 C 38 %
3629 17-05-2020 04:44:18 7 C 39 %
3630 17-05-2020 04:54:17 7.1 C 39 %
3631 17-05-2020 05:04:17 6.8 C 40 %
3632 17-05-2020 05:14:17 6.8 C 40 %
3633 17-05-2020 05:24:17 6.8 C 40 %
3634 17-05-2020 05:34:18 6.8 C 40 %
3635 17-05-2020 05:44:18 6.4 C 40 %
3636 17-05-2020 05:54:18 6.5 C 40 %
3637 17-05-2020 06:04:17 6.4 C 40 %
3638 17-05-2020 06:14:17 6.5 C 40 %
3639 17-05-2020 06:24:17 6.3 C 40 %
3640 17-05-2020 06:34:17 6.5 C 40 %
3641 17-05-2020 06:44:17 6.7 C 40 %
3642 17-05-2020 06:54:17 6.6 C 40 %
3643 17-05-2020 07:04:17 6.5 C 40 %
3644 17-05-2020 07:14:17 6.5 C 40 %
3645 17-05-2020 07:24:18 6.4 C 41 %
3646 17-05-2020 07:34:17 6.6 C 41 %
3647 17-05-2020 07:44:17 6.7 C 41 %
3648 17-05-2020 07:54:17 6.8 C 40 %
3649 17-05-2020 08:04:17 7.1 C 40 %
3650 17-05-2020 08:14:17 7.1 C 40 %
Sensor: Nr:Datum:Temp:Feuchte:
Aussen-T/F 3651 17-05-2020 08:24:17 7.3 C 40 %
3652 17-05-2020 08:34:17 7.5 C 40 %
3653 17-05-2020 08:44:17 8.1 C 38 %
3654 17-05-2020 08:54:17 9 C 37 %
3655 17-05-2020 09:04:17 9.8 C 35 %
3656 17-05-2020 09:14:17 10.4 C 35 %
3657 17-05-2020 09:24:17 11.2 C 32 %
3658 17-05-2020 09:34:17 12.5 C 31 %
3659 17-05-2020 09:44:17 12 C 30 %
3660 17-05-2020 09:54:17 12.2 C 29 %
3661 17-05-2020 10:04:17 12.4 C 28 %
3662 17-05-2020 10:14:17 13 C 27 %
3663 17-05-2020 10:24:17 13.7 C 25 %
3664 17-05-2020 10:34:18 13.9 C 26 %
3665 17-05-2020 10:44:18 14.8 C 25 %
3666 17-05-2020 10:54:17 14 C 25 %
3667 17-05-2020 11:04:18 14.3 C 25 %
3668 17-05-2020 11:14:18 14.1 C 25 %
3669 17-05-2020 11:24:17 14.2 C 25 %
3670 17-05-2020 11:34:18 14.3 C 24 %
3671 17-05-2020 11:44:18 14.3 C 25 %
3672 17-05-2020 11:54:17 15 C 23 %
3673 17-05-2020 12:04:18 14.7 C 23 %
3674 17-05-2020 12:14:18 15.4 C 21 %
3675 17-05-2020 12:24:17 15.4 C 20 %
Sensor: Nr:Datum:Temp:Feuchte:
Aussen-T/F 3676 17-05-2020 12:34:17 15.1 C 22 %
3677 17-05-2020 12:44:17 15.1 C 21 %
3678 17-05-2020 12:54:17 14.8 C 22 %
3679 17-05-2020 13:04:17 15.3 C 21 %
3680 17-05-2020 13:14:17 15.8 C 21 %
3681 17-05-2020 13:24:17 16 C 20 %
3682 17-05-2020 13:34:18 16.3 C 20 %
3683 17-05-2020 13:44:18 17.1 C 20 %
3684 17-05-2020 13:54:17 20.1 C 20 %
3685 17-05-2020 14:04:17 23.5 C 20 %
3686 17-05-2020 14:14:17 23.5 C 20 %
3687 17-05-2020 14:24:17 22.3 C 20 %
3688 17-05-2020 14:34:17 26.4 C 20 %
3689 17-05-2020 14:44:17 27.4 C 20 %
3690 17-05-2020 14:54:17 27.8 C 20 %
3691 17-05-2020 15:04:18 24.2 C 20 %
3692 17-05-2020 15:14:18 24.3 C 20 %
3693 17-05-2020 15:24:18 24.6 C 20 %
3694 17-05-2020 15:34:18 25.9 C 20 %
3695 17-05-2020 15:44:18 25.7 C 20 %
3696 17-05-2020 15:54:17 24.2 C 20 %
3697 17-05-2020 16:04:17 26.3 C 20 %
3698 17-05-2020 16:14:17 24.6 C 20 %
3699 17-05-2020 16:24:17 27.6 C 20 %
3700 17-05-2020 16:34:17 24.8 C 20 %
Sensor: Nr:Datum:Temp:Feuchte:
Aussen-T/F 3701 17-05-2020 16:44:17 28.3 C 20 %
3702 17-05-2020 16:54:18 27.9 C 20 %
3703 17-05-2020 17:04:18 27 C 20 %
3704 17-05-2020 17:14:18 28.4 C 20 %
3705 17-05-2020 17:24:18 27.3 C 20 %
3706 17-05-2020 17:34:18 27.7 C 20 %
3707 17-05-2020 17:44:18 25.2 C 20 %
3708 17-05-2020 17:54:17 26.2 C 20 %
3709 17-05-2020 18:04:17 26.9 C 20 %
3710 17-05-2020 18:14:18 24.1 C 20 %
3711 17-05-2020 18:24:17 21 C 20 %
3712 17-05-2020 18:34:17 20.5 C 20 %
3713 17-05-2020 18:44:17 19.9 C 20 %
3714 17-05-2020 18:54:17 19.5 C 20 %
3715 17-05-2020 19:04:18 19.5 C 20 %
3716 17-05-2020 19:14:18 19.5 C 20 %
3717 17-05-2020 19:24:17 19.1 C 20 %
3718 17-05-2020 19:34:17 19.1 C 20 %
3719 17-05-2020 19:44:17 18.7 C 20 %
3720 17-05-2020 19:54:17 18.7 C 20 %
3721 17-05-2020 20:04:18 18.6 C 20 %
3722 17-05-2020 20:14:18 18.4 C 20 %
3723 17-05-2020 20:24:17 18.1 C 20 %
3724 17-05-2020 20:34:17 17.7 C 20 %
3725 17-05-2020 20:44:17 17.2 C 20 %
Sensor: Nr:Datum:Temp:Feuchte:
Aussen-T/F 3726 17-05-2020 20:54:17 15.5 C 20 %
3727 17-05-2020 21:04:17 15.1 C 20 %
3728 17-05-2020 21:14:17 14.8 C 20 %
3729 17-05-2020 21:24:17 14.4 C 20 %
3730 17-05-2020 21:34:18 14.1 C 20 %
3731 17-05-2020 21:44:18 13.8 C 21 %
3732 17-05-2020 21:54:17 13.6 C 21 %
3733 17-05-2020 22:04:17 13.5 C 21 %
3734 17-05-2020 22:14:17 13.3 C 21 %
3735 17-05-2020 22:24:17 12.9 C 25 %
3736 17-05-2020 22:34:17 12.3 C 26 %
3737 17-05-2020 22:44:17 11.8 C 28 %
3738 17-05-2020 22:54:18 11 C 30 %
3739 17-05-2020 23:04:17 10.6 C 31 %
3740 17-05-2020 23:14:17 10.1 C 32 %
3741 17-05-2020 23:24:17 9.9 C 33 %
3742 17-05-2020 23:34:17 9.8 C 33 %
3743 17-05-2020 23:44:17 9.5 C 34 %
3744 17-05-2020 23:54:17 9.1 C 35 %
3745 18-05-2020 00:04:18 9 C 35 %
3746 18-05-2020 00:14:18 9 C 35 %
3747 18-05-2020 00:24:17 9 C 35 %
3748 18-05-2020 00:34:18 8.6 C 35 %
3749 18-05-2020 00:44:18 8.5 C 35 %
3750 18-05-2020 00:54:17 8.5 C 36 %
Sensor: Nr:Datum:Temp:Feuchte:
Aussen-T/F 3751 18-05-2020 01:04:18 8.2 C 36 %
3752 18-05-2020 01:14:18 8.3 C 36 %
3753 18-05-2020 01:24:17 8.4 C 36 %
3754 18-05-2020 01:34:17 8 C 36 %
3755 18-05-2020 01:44:17 8 C 36 %
3756 18-05-2020 01:54:18 8 C 36 %
3757 18-05-2020 02:04:18 8 C 36 %
3758 18-05-2020 02:14:18 7.6 C 37 %
3759 18-05-2020 02:24:17 7.6 C 38 %
3760 18-05-2020 02:34:17 7.7 C 38 %
3761 18-05-2020 02:44:17 7.3 C 38 %
3762 18-05-2020 02:54:17 7 C 38 %
3763 18-05-2020 03:04:17 6.7 C 39 %
3764 18-05-2020 03:14:17 6.5 C 40 %
3765 18-05-2020 03:24:17 6.6 C 40 %
3766 18-05-2020 03:34:17 6.9 C 40 %
3767 18-05-2020 03:44:17 6.8 C 40 %
3768 18-05-2020 03:54:17 6.5 C 40 %
3769 18-05-2020 04:04:17 6.5 C 40 %
3770 18-05-2020 04:14:17 6.3 C 40 %
3771 18-05-2020 04:24:17 6 C 40 %
3772 18-05-2020 04:34:18 6.1 C 41 %
3773 18-05-2020 04:44:18 5.8 C 41 %
3774 18-05-2020 04:54:17 5.9 C 42 %
3775 18-05-2020 05:04:17 5.9 C 42 %
Sensor: Nr:Datum:Temp:Feuchte:
Aussen-T/F 3776 18-05-2020 05:14:17 5.9 C 42 %
3777 18-05-2020 05:24:17 5.6 C 42 %
3778 18-05-2020 05:34:18 5.4 C 42 %
3779 18-05-2020 05:44:18 5.4 C 42 %
3780 18-05-2020 05:54:17 5.6 C 43 %
3781 18-05-2020 06:04:18 5.6 C 42 %
3782 18-05-2020 06:14:18 5.6 C 43 %
3783 18-05-2020 06:24:17 5.7 C 43 %
3784 18-05-2020 06:34:18 5.7 C 43 %
3785 18-05-2020 06:44:18 6 C 42 %
3786 18-05-2020 06:54:17 6.2 C 42 %
3787 18-05-2020 07:04:17 6.3 C 42 %
3788 18-05-2020 07:14:18 6.5 C 42 %
3789 18-05-2020 07:24:18 6.6 C 42 %
3790 18-05-2020 07:34:18 6.7 C 42 %
3791 18-05-2020 07:44:18 7 C 41 %
3792 18-05-2020 07:54:18 7.3 C 41 %
3793 18-05-2020 08:04:17 7.7 C 41 %
3794 18-05-2020 08:14:17 8.1 C 40 %
3795 18-05-2020 08:24:17 8.5 C 40 %
3796 18-05-2020 08:34:18 9 C 38 %
3797 18-05-2020 08:44:18 9.4 C 38 %
3798 18-05-2020 08:54:17 10.2 C 37 %
3799 18-05-2020 09:04:18 10.7 C 36 %
3800 18-05-2020 09:14:18 11.3 C 35 %
Sensor: Nr:Datum:Temp:Feuchte:
Aussen-T/F 3801 18-05-2020 09:24:17 11.8 C 35 %
3802 18-05-2020 09:34:17 11.9 C 35 %
3803 18-05-2020 09:44:18 13.1 C 33 %
3804 18-05-2020 09:54:17 13.7 C 32 %
3805 18-05-2020 10:04:17 14 C 32 %
3806 18-05-2020 10:14:17 14.4 C 32 %
3807 18-05-2020 10:24:17 15.2 C 30 %
3808 18-05-2020 10:34:17 16.5 C 28 %
3809 18-05-2020 10:44:17 18.3 C 22 %
3810 18-05-2020 10:54:17 19 C 20 %
3811 18-05-2020 11:04:17 19.7 C 20 %
3812 18-05-2020 11:14:17 19.7 C 20 %
3813 18-05-2020 11:24:17 20 C 20 %
3814 18-05-2020 11:34:17 20.4 C 20 %
3815 18-05-2020 11:44:17 20.5 C 20 %
3816 18-05-2020 11:54:18 20.9 C 20 %
3817 18-05-2020 12:04:17 21.1 C 20 %
3818 18-05-2020 12:14:18 21.2 C 20 %
3819 18-05-2020 12:24:17 21.2 C 20 %
3820 18-05-2020 12:34:18 20.9 C 20 %
3821 18-05-2020 12:44:18 21.3 C 20 %
3822 18-05-2020 12:54:17 21.5 C 20 %
3823 18-05-2020 13:04:17 21.5 C 20 %
3824 18-05-2020 13:14:17 21.9 C 20 %
3825 18-05-2020 13:24:17 22.1 C 20 %
Sensor: Nr:Datum:Temp:Feuchte:
Aussen-T/F 3826 18-05-2020 13:34:17 22.6 C 20 %
3827 18-05-2020 13:44:17 23.4 C 20 %
3828 18-05-2020 13:54:17 25.6 C 20 %
3829 18-05-2020 14:04:18 26.3 C 20 %
3830 18-05-2020 14:14:18 26.8 C 20 %
3831 18-05-2020 14:24:17 28.1 C 20 %
3832 18-05-2020 14:34:17 30.5 C 20 %
3833 18-05-2020 14:44:17 29.3 C 20 %
3834 18-05-2020 14:54:17 26.7 C 20 %
3835 18-05-2020 15:04:18 27.7 C 20 %
3836 18-05-2020 15:14:18 30.7 C 20 %
3837 18-05-2020 15:24:17 31.6 C 20 %
3838 18-05-2020 15:34:18 32.8 C 20 %
3839 18-05-2020 15:44:18 32 C 20 %
3840 18-05-2020 15:54:18 31.9 C 20 %
3841 18-05-2020 16:04:18 31.6 C 20 %
3842 18-05-2020 16:14:18 32.7 C 20 %
3843 18-05-2020 16:24:18 32.5 C 20 %
3844 18-05-2020 16:34:18 32.5 C 20 %
3845 18-05-2020 16:44:18 32 C 20 %
3846 18-05-2020 16:54:17 30.6 C 20 %
3847 18-05-2020 17:04:18 32.2 C 20 %
3848 18-05-2020 17:14:18 31.2 C 20 %
3849 18-05-2020 17:24:18 29.5 C 20 %
3850 18-05-2020 17:34:17 30.2 C 20 %
Sensor: Nr:Datum:Temp:Feuchte:
Aussen-T/F 3851 18-05-2020 17:44:17 29.7 C 20 %
3852 18-05-2020 17:54:18 29.7 C 20 %
3853 18-05-2020 18:04:17 30.5 C 20 %
3854 18-05-2020 18:14:17 30 C 20 %
3855 18-05-2020 18:24:17 26.6 C 20 %
3856 18-05-2020 18:34:17 26 C 20 %
3857 18-05-2020 18:44:17 25.5 C 20 %
3858 18-05-2020 18:54:17 25.5 C 20 %
3859 18-05-2020 19:04:17 25.1 C 20 %
3860 18-05-2020 19:14:17 24.9 C 20 %
3861 18-05-2020 19:24:17 24.3 C 20 %
3862 18-05-2020 19:34:17 24 C 20 %
3863 18-05-2020 19:44:18 23.8 C 20 %
3864 18-05-2020 19:54:17 23.5 C 20 %
3865 18-05-2020 20:04:18 23.1 C 20 %
3866 18-05-2020 20:14:18 22.9 C 20 %
3867 18-05-2020 20:24:17 22.7 C 20 %
3868 18-05-2020 20:34:17 22.5 C 20 %
3869 18-05-2020 20:44:17 22 C 20 %
3870 18-05-2020 20:54:17 20.4 C 20 %
3871 18-05-2020 21:04:17 20 C 20 %
3872 18-05-2020 21:14:17 19.3 C 21 %
3873 18-05-2020 21:24:17 18.9 C 22 %
3874 18-05-2020 21:34:18 18.7 C 22 %
3875 18-05-2020 21:44:18 18.3 C 22 %
Sensor: Nr:Datum:Temp:Feuchte:
Aussen-T/F 3876 18-05-2020 21:54:17 18 C 23 %
3877 18-05-2020 22:04:17 17.8 C 25 %
3878 18-05-2020 22:14:17 17.5 C 25 %
3879 18-05-2020 22:24:17 17.4 C 25 %
3880 18-05-2020 22:34:17 16.8 C 26 %
3881 18-05-2020 22:44:17 16.2 C 27 %
3882 18-05-2020 22:54:18 16.4 C 27 %
3883 18-05-2020 23:04:18 16.3 C 27 %
3884 18-05-2020 23:14:18 16 C 28 %
3885 18-05-2020 23:24:18 15.5 C 29 %
3886 18-05-2020 23:34:17 15 C 30 %
3887 18-05-2020 23:44:17 15.3 C 30 %
3888 18-05-2020 23:54:17 14.6 C 31 %
3889 19-05-2020 00:04:17 14 C 32 %
3890 19-05-2020 00:14:18 13.4 C 33 %
3891 19-05-2020 00:24:17 12.9 C 35 %
3892 19-05-2020 00:34:18 12.5 C 35 %
3893 19-05-2020 00:44:18 12.4 C 35 %
3894 19-05-2020 00:54:17 12.2 C 35 %
3895 19-05-2020 01:04:17 12 C 36 %
3896 19-05-2020 01:14:17 11.9 C 37 %
3897 19-05-2020 01:24:17 11.5 C 37 %
3898 19-05-2020 01:34:17 11.5 C 38 %
3899 19-05-2020 01:44:17 11.2 C 38 %
3900 19-05-2020 01:54:17 11 C 37 %
Sensor: Nr:Datum:Temp:Feuchte:
Aussen-T/F 3901 19-05-2020 02:04:17 11.2 C 37 %
3902 19-05-2020 02:14:17 10.9 C 38 %
3903 19-05-2020 02:24:17 10.8 C 38 %
3904 19-05-2020 02:34:17 10.2 C 39 %
3905 19-05-2020 02:44:17 10 C 39 %
3906 19-05-2020 02:54:18 9.7 C 40 %
3907 19-05-2020 03:04:18 9.5 C 40 %
3908 19-05-2020 03:14:18 9.3 C 41 %
3909 19-05-2020 03:24:17 9.2 C 41 %
3910 19-05-2020 03:34:17 9 C 41 %
3911 19-05-2020 03:44:17 8.7 C 42 %
3912 19-05-2020 03:54:17 8.5 C 42 %
3913 19-05-2020 04:04:17 8.5 C 43 %
3914 19-05-2020 04:14:17 8.6 C 42 %
3915 19-05-2020 04:24:17 8.7 C 42 %
3916 19-05-2020 04:34:17 8.6 C 42 %
3917 19-05-2020 04:44:17 8.5 C 41 %
3918 19-05-2020 04:54:17 8.3 C 41 %
3919 19-05-2020 05:04:17 8.3 C 41 %
3920 19-05-2020 05:14:17 7.9 C 42 %
3921 19-05-2020 05:24:17 7.9 C 42 %
3922 19-05-2020 05:34:17 7.9 C 42 %
3923 19-05-2020 05:44:17 7.8 C 42 %
3924 19-05-2020 05:54:17 7.6 C 42 %
3925 19-05-2020 06:04:18 7.6 C 42 %
Sensor: Nr:Datum:Temp:Feuchte:
Aussen-T/F 3926 19-05-2020 06:14:18 7.8 C 43 %
3927 19-05-2020 06:24:17 7.9 C 43 %
3928 19-05-2020 06:34:18 7.9 C 42 %
3929 19-05-2020 06:44:18 7.8 C 42 %
3930 19-05-2020 06:54:18 7.8 C 42 %
3931 19-05-2020 07:04:18 8 C 42 %
3932 19-05-2020 07:14:18 8.4 C 42 %
3933 19-05-2020 07:24:18 8.3 C 41 %
3934 19-05-2020 07:34:17 8.4 C 41 %
3935 19-05-2020 07:44:17 8.6 C 41 %
3936 19-05-2020 07:54:17 8.6 C 41 %
3937 19-05-2020 08:04:17 9 C 41 %
3938 19-05-2020 08:14:17 9.1 C 41 %
3939 19-05-2020 08:24:17 9.6 C 40 %
3940 19-05-2020 08:34:17 9.9 C 40 %
3941 19-05-2020 08:44:17 10.3 C 39 %
3942 19-05-2020 08:54:17 10.9 C 39 %
3943 19-05-2020 09:04:17 11.3 C 37 %
3944 19-05-2020 09:14:17 12.2 C 36 %
3945 19-05-2020 09:24:17 13 C 34 %
3946 19-05-2020 09:34:17 13.7 C 34 %
3947 19-05-2020 09:44:17 14.8 C 32 %
3948 19-05-2020 09:54:18 15 C 30 %
3949 19-05-2020 10:04:17 15.3 C 30 %
3950 19-05-2020 10:14:17 16.1 C 28 %
Sensor: Nr:Datum:Temp:Feuchte:
Aussen-T/F 3951 19-05-2020 10:24:18 16.6 C 28 %
3952 19-05-2020 10:34:17 17.7 C 25 %
3953 19-05-2020 10:44:17 18.5 C 22 %
3954 19-05-2020 10:54:17 19.6 C 20 %
3955 19-05-2020 11:04:17 21.2 C 20 %
3956 19-05-2020 11:14:17 21.7 C 20 %
3957 19-05-2020 11:24:17 21.7 C 20 %
3958 19-05-2020 11:34:18 20.9 C 20 %
3959 19-05-2020 11:44:18 21.4 C 20 %
3960 19-05-2020 11:54:17 21.7 C 20 %
3961 19-05-2020 12:04:17 21.3 C 20 %
3962 19-05-2020 12:14:17 21.2 C 20 %
3963 19-05-2020 12:24:18 21.3 C 20 %
3964 19-05-2020 12:34:17 21.2 C 20 %
3965 19-05-2020 12:44:17 21.8 C 20 %
3966 19-05-2020 12:54:17 22.5 C 20 %
3967 19-05-2020 13:04:17 23.3 C 20 %
3968 19-05-2020 13:14:17 23.3 C 20 %
3969 19-05-2020 13:24:17 22.9 C 20 %
3970 19-05-2020 13:34:17 22.2 C 20 %
3971 19-05-2020 13:44:17 24.4 C 20 %
3972 19-05-2020 13:54:17 26.7 C 20 %
3973 19-05-2020 14:04:18 29.1 C 20 %
3974 19-05-2020 14:14:18 30.2 C 20 %
3975 19-05-2020 14:24:17 31.5 C 20 %
Sensor: Nr:Datum:Temp:Feuchte:
Aussen-T/F 3976 19-05-2020 14:34:17 32.7 C 20 %
3977 19-05-2020 14:44:17 32.1 C 20 %
3978 19-05-2020 14:54:17 32.6 C 20 %
3979 19-05-2020 15:04:17 32.1 C 20 %
3980 19-05-2020 15:14:18 29.1 C 20 %
3981 19-05-2020 15:24:17 27.6 C 20 %
3982 19-05-2020 15:34:17 27.1 C 20 %
3983 19-05-2020 15:44:17 26.8 C 20 %
3984 19-05-2020 15:54:17 26.4 C 20 %
3985 19-05-2020 16:04:17 29.3 C 20 %
3986 19-05-2020 16:14:18 28.5 C 20 %
3987 19-05-2020 16:24:17 29.8 C 20 %
3988 19-05-2020 16:34:18 28 C 20 %
3989 19-05-2020 16:44:18 27.2 C 20 %
3990 19-05-2020 16:54:17 26.4 C 20 %
3991 19-05-2020 17:04:17 29.4 C 20 %
3992 19-05-2020 17:14:18 29.5 C 20 %
3993 19-05-2020 17:24:17 31.2 C 20 %
3994 19-05-2020 17:34:18 29.1 C 20 %
3995 19-05-2020 17:44:18 30.4 C 20 %
3996 19-05-2020 17:54:17 29.1 C 20 %
3997 19-05-2020 18:04:18 29.4 C 20 %
3998 19-05-2020 18:14:18 27.1 C 20 %
3999 19-05-2020 18:24:18 25.9 C 20 %
4000 19-05-2020 18:34:18 25.1 C 20 %
Sensor: Nr:Datum:Temp:Feuchte:
Aussen-T/F 4001 19-05-2020 18:44:18 24.9 C 20 %
4002 19-05-2020 18:54:17 24.3 C 20 %
4003 19-05-2020 19:04:17 24.5 C 20 %
4004 19-05-2020 19:14:17 24.4 C 20 %
4005 19-05-2020 19:24:18 24 C 20 %
4006 19-05-2020 19:34:18 24.2 C 20 %
4007 19-05-2020 19:44:18 23.6 C 20 %
4008 19-05-2020 19:54:18 23.2 C 20 %
4009 19-05-2020 20:04:18 22.8 C 20 %
4010 19-05-2020 20:14:18 22.5 C 20 %
4011 19-05-2020 20:25:17 22.3 C 20 %
4012 19-05-2020 20:34:18 22 C 20 %
4013 19-05-2020 20:44:18 21.9 C 20 %
4014 19-05-2020 20:55:17 21.6 C 20 %
4015 19-05-2020 21:05:17 20.5 C 21 %
4016 19-05-2020 21:14:18 19.1 C 24 %
4017 19-05-2020 21:24:18 18.5 C 25 %
4018 19-05-2020 21:34:18 18.1 C 25 %
4019 19-05-2020 21:44:18 18.1 C 25 %
4020 19-05-2020 21:55:17 17.9 C 26 %
4021 19-05-2020 22:05:17 17.6 C 26 %
4022 19-05-2020 22:14:18 17.5 C 27 %
4023 19-05-2020 22:24:18 17.4 C 27 %
4024 19-05-2020 22:35:17 16.9 C 27 %
4025 19-05-2020 22:45:17 16.4 C 28 %
Sensor: Nr:Datum:Temp:Feuchte:
Aussen-T/F 4026 19-05-2020 22:54:17 15.7 C 30 %
4027 19-05-2020 23:05:17 15.5 C 31 %
4028 19-05-2020 23:15:17 15.4 C 31 %
4029 19-05-2020 23:25:17 15.1 C 31 %
4030 19-05-2020 23:44:17 14.9 C 32 %
4031 19-05-2020 23:44:18 14.8 C 33 %
4032 19-05-2020 23:54:18 15.1 C 32 %
4033 20-05-2020 00:05:17 15.3 C 32 %
4034 20-05-2020 00:15:17 15.4 C 32 %
4035 20-05-2020 00:25:17 15.1 C 32 %
4036 20-05-2020 00:35:17 14.7 C 34 %
4037 20-05-2020 00:44:18 14.2 C 34 %
4038 20-05-2020 00:54:18 13.8 C 35 %
4039 20-05-2020 01:05:17 13.5 C 35 %
4040 20-05-2020 01:14:18 13.4 C 36 %
4041 20-05-2020 01:24:18 13.4 C 36 %
4042 20-05-2020 01:35:17 13 C 36 %
4043 20-05-2020 01:45:17 13 C 36 %
4044 20-05-2020 01:55:17 12.8 C 37 %
4045 20-05-2020 02:05:17 12.7 C 37 %
4046 20-05-2020 02:15:17 12.5 C 38 %
4047 20-05-2020 02:25:17 12.5 C 38 %
4048 20-05-2020 02:35:17 12.6 C 38 %
4049 20-05-2020 02:45:17 12.4 C 38 %
4050 20-05-2020 02:55:17 12.2 C 38 %
Sensor: Nr:Datum:Temp:Feuchte:
Aussen-T/F 4051 20-05-2020 03:05:18 12.1 C 39 %
4052 20-05-2020 03:15:18 11.9 C 40 %
4053 20-05-2020 03:25:18 11.8 C 40 %
4054 20-05-2020 03:35:18 11.8 C 40 %
4055 20-05-2020 03:45:17 11.7 C 40 %
4056 20-05-2020 03:55:17 11.7 C 40 %
4057 20-05-2020 04:05:17 11.8 C 40 %
4058 20-05-2020 04:15:17 11.6 C 40 %
4059 20-05-2020 04:25:18 11.4 C 41 %
4060 20-05-2020 04:35:17 11.7 C 41 %
4061 20-05-2020 04:45:17 11.6 C 41 %
4062 20-05-2020 04:55:17 11.1 C 41 %
4063 20-05-2020 05:05:17 10.8 C 42 %
4064 20-05-2020 05:15:17 10.9 C 43 %
4065 20-05-2020 05:25:17 11 C 42 %
4066 20-05-2020 05:35:17 11.1 C 42 %
4067 20-05-2020 05:45:18 11.2 C 42 %
4068 20-05-2020 05:55:18 11.4 C 41 %
4069 20-05-2020 06:05:18 11.5 C 41 %
4070 20-05-2020 06:15:17 11.3 C 41 %
4071 20-05-2020 06:25:17 11.4 C 41 %
4072 20-05-2020 06:35:17 11.5 C 41 %
4073 20-05-2020 06:45:18 11.4 C 41 %
4074 20-05-2020 06:55:18 11.5 C 41 %
4075 20-05-2020 07:05:17 11.2 C 41 %
Sensor: Nr:Datum:Temp:Feuchte:
Aussen-T/F 4076 20-05-2020 07:15:18 11.5 C 41 %
4077 20-05-2020 07:25:18 11.7 C 41 %
4078 20-05-2020 07:35:17 12.2 C 41 %
4079 20-05-2020 07:45:17 12.8 C 40 %
4080 20-05-2020 07:55:17 13.4 C 39 %
4081 20-05-2020 08:05:18 13.6 C 39 %
4082 20-05-2020 08:15:18 14.7 C 36 %
4083 20-05-2020 08:25:18 15.3 C 35 %
4084 20-05-2020 08:35:18 16 C 34 %
4085 20-05-2020 08:45:18 16.2 C 33 %
4086 20-05-2020 08:55:18 16.4 C 33 %
4087 20-05-2020 09:05:17 16.8 C 33 %
4088 20-05-2020 09:15:17 17.2 C 32 %
4089 20-05-2020 09:25:17 17.5 C 32 %
4090 20-05-2020 09:35:17 18.1 C 31 %
4091 20-05-2020 09:45:17 18.5 C 30 %
4092 20-05-2020 09:55:17 18.6 C 30 %
4093 20-05-2020 10:05:17 19.1 C 29 %
4094 20-05-2020 10:15:17 19.4 C 29 %
4095 20-05-2020 10:25:17 19.5 C 29 %
4096 20-05-2020 10:35:17 19.7 C 28 %
4097 20-05-2020 10:45:18 20.2 C 27 %
4098 20-05-2020 10:55:18 19.7 C 28 %
4099 20-05-2020 11:05:18 20.4 C 27 %
4100 20-05-2020 11:15:17 20.8 C 26 %
Sensor: Nr:Datum:Temp:Feuchte:
Aussen-T/F 4101 20-05-2020 11:25:17 20.3 C 27 %
4102 20-05-2020 11:35:18 20.1 C 27 %
4103 20-05-2020 11:45:17 20.6 C 27 %
4104 20-05-2020 11:55:18 20.8 C 27 %
4105 20-05-2020 12:05:18 21.4 C 26 %
4106 20-05-2020 12:15:17 21.2 C 25 %
4107 20-05-2020 12:25:17 21.6 C 25 %
4108 20-05-2020 12:35:18 21.3 C 25 %
4109 20-05-2020 12:45:17 21.9 C 25 %
4110 20-05-2020 12:55:17 22.2 C 24 %
4111 20-05-2020 13:05:17 22.7 C 23 %
4112 20-05-2020 13:15:18 22 C 23 %
4113 20-05-2020 13:25:18 23.8 C 21 %
4114 20-05-2020 13:35:18 22.3 C 22 %
4115 20-05-2020 13:45:17 24 C 21 %
4116 20-05-2020 13:55:18 23.9 C 20 %
4117 20-05-2020 14:05:17 27.2 C 20 %
4118 20-05-2020 14:15:18 27.4 C 20 %
4119 20-05-2020 14:25:18 26.5 C 20 %
4120 20-05-2020 14:35:17 28 C 20 %
4121 20-05-2020 14:45:18 31.7 C 20 %
4122 20-05-2020 14:55:18 28.7 C 20 %
4123 20-05-2020 15:05:17 26.4 C 20 %
4124 20-05-2020 15:15:17 30.7 C 20 %
4125 20-05-2020 15:25:17 31 C 20 %
Sensor: Nr:Datum:Temp:Feuchte:
Aussen-T/F 4126 20-05-2020 15:35:18 30.8 C 20 %
4127 20-05-2020 15:45:17 31.8 C 20 %
4128 20-05-2020 15:55:17 28.9 C 20 %
4129 20-05-2020 16:05:17 30.8 C 20 %
4130 20-05-2020 16:15:18 31.1 C 20 %
4131 20-05-2020 16:25:18 27.2 C 20 %
4132 20-05-2020 16:35:18 29.9 C 20 %
4133 20-05-2020 16:45:18 28.9 C 20 %
4134 20-05-2020 16:55:18 29.4 C 20 %
4135 20-05-2020 17:05:18 30.4 C 20 %
4136 20-05-2020 17:15:17 27.9 C 20 %
4137 20-05-2020 17:25:17 27.9 C 20 %
4138 20-05-2020 17:35:17 29.4 C 20 %
4139 20-05-2020 17:45:17 28.1 C 20 %
4140 20-05-2020 17:55:17 27.4 C 20 %
4141 20-05-2020 18:05:17 28.9 C 20 %
4142 20-05-2020 18:15:18 26.7 C 20 %
4143 20-05-2020 18:25:18 25.5 C 20 %
4144 20-05-2020 18:35:17 24.9 C 20 %
4145 20-05-2020 18:45:18 24.8 C 20 %
4146 20-05-2020 18:55:18 23.7 C 20 %
4147 20-05-2020 19:05:18 23.7 C 20 %
4148 20-05-2020 19:15:17 23.6 C 20 %
4149 20-05-2020 19:25:17 23.3 C 20 %
4150 20-05-2020 19:35:18 22.9 C 20 %
Sensor: Nr:Datum:Temp:Feuchte:
Aussen-T/F 4151 20-05-2020 19:45:17 22.9 C 20 %
4152 20-05-2020 19:55:17 22.5 C 20 %
4153 20-05-2020 20:05:17 22.1 C 20 %
4154 20-05-2020 20:15:17 21.7 C 20 %
4155 20-05-2020 20:25:17 21.6 C 20 %
4156 20-05-2020 20:35:17 21.3 C 20 %
4157 20-05-2020 20:45:17 20.8 C 20 %
4158 20-05-2020 20:55:17 20 C 22 %
4159 20-05-2020 21:05:17 19.7 C 23 %
4160 20-05-2020 21:15:17 19.7 C 23 %
4161 20-05-2020 21:25:17 18.9 C 25 %
4162 20-05-2020 21:35:17 17.9 C 27 %
4163 20-05-2020 21:45:17 17.6 C 27 %
4164 20-05-2020 21:55:17 17.4 C 27 %
4165 20-05-2020 22:05:18 17.3 C 28 %
4166 20-05-2020 22:15:17 16.6 C 29 %
4167 20-05-2020 22:25:17 16.7 C 29 %
4168 20-05-2020 22:35:17 16.6 C 30 %
4169 20-05-2020 22:45:18 16.7 C 30 %
4170 20-05-2020 22:55:18 16.3 C 30 %
4171 20-05-2020 23:05:17 16.2 C 30 %
4172 20-05-2020 23:15:17 15.9 C 30 %
4173 20-05-2020 23:25:17 16 C 30 %
4174 20-05-2020 23:35:17 15.5 C 31 %
4175 20-05-2020 23:45:18 15.4 C 31 %
Sensor: Nr:Datum:Temp:Feuchte:
Aussen-T/F 4176 20-05-2020 23:55:18 15.1 C 31 %
Sensor: Nr:Datum:Temp:Feuchte:
G-T/H 1 22-04-2020 00:02:18 13.6 C 60 %
2 22-04-2020 00:12:18 13.6 C 60 %
3 22-04-2020 00:22:17 13.7 C 60 %
4 22-04-2020 00:32:18 13.6 C 60 %
5 22-04-2020 00:42:18 13.6 C 60 %
6 22-04-2020 00:52:17 13.6 C 60 %
7 22-04-2020 01:02:17 13.6 C 60 %
8 22-04-2020 01:12:17 13.6 C 60 %
9 22-04-2020 01:22:17 13.6 C 60 %
10 22-04-2020 01:32:18 13.6 C 60 %
11 22-04-2020 01:42:18 13.6 C 59 %
12 22-04-2020 01:52:17 13.6 C 59 %
13 22-04-2020 02:02:17 13.6 C 59 %
14 22-04-2020 02:12:17 13.6 C 59 %
15 22-04-2020 02:22:17 13.6 C 59 %
16 22-04-2020 02:32:17 13.5 C 59 %
17 22-04-2020 02:42:17 13.5 C 59 %
18 22-04-2020 02:52:17 13.5 C 59 %
19 22-04-2020 03:02:17 13.6 C 59 %
20 22-04-2020 03:12:17 13.5 C 59 %
21 22-04-2020 03:22:18 13.5 C 59 %
22 22-04-2020 03:32:18 13.5 C 59 %
23 22-04-2020 03:42:18 13.5 C 58 %
24 22-04-2020 03:52:17 13.5 C 58 %
25 22-04-2020 04:02:18 13.5 C 58 %
Sensor: Nr:Datum:Temp:Feuchte:
G-T/H 26 22-04-2020 04:12:18 13.5 C 58 %
27 22-04-2020 04:22:17 13.5 C 58 %
28 22-04-2020 04:32:18 13.4 C 58 %
29 22-04-2020 04:42:18 13.4 C 58 %
30 22-04-2020 04:52:17 13.5 C 58 %
31 22-04-2020 05:02:18 13.4 C 58 %
32 22-04-2020 05:12:18 13.4 C 58 %
33 22-04-2020 05:22:17 13.4 C 58 %
34 22-04-2020 05:32:17 13.4 C 58 %
35 22-04-2020 05:42:18 13.4 C 58 %
36 22-04-2020 05:52:17 13.4 C 58 %
37 22-04-2020 06:02:18 13.3 C 58 %
38 22-04-2020 06:12:18 13.3 C 58 %
39 22-04-2020 06:22:17 13.3 C 58 %
40 22-04-2020 06:32:17 13.3 C 58 %
41 22-04-2020 06:42:17 13.3 C 58 %
42 22-04-2020 06:52:17 13.3 C 58 %
43 22-04-2020 07:02:17 13.3 C 58 %
44 22-04-2020 07:12:17 13.2 C 58 %
45 22-04-2020 07:22:18 13.2 C 58 %
46 22-04-2020 07:32:17 13.2 C 58 %
47 22-04-2020 07:42:17 13.2 C 58 %
48 22-04-2020 07:52:17 13.2 C 58 %
49 22-04-2020 08:02:17 13.2 C 58 %
50 22-04-2020 08:12:17 13.2 C 58 %
Sensor: Nr:Datum:Temp:Feuchte:
G-T/H 51 22-04-2020 08:22:17 13.2 C 58 %
52 22-04-2020 08:32:17 13.1 C 58 %
53 22-04-2020 08:42:17 13.1 C 58 %
54 22-04-2020 08:52:18 13.1 C 58 %
55 22-04-2020 09:02:18 13.1 C 58 %
56 22-04-2020 09:12:18 13.1 C 58 %
57 22-04-2020 09:22:17 13.1 C 58 %
58 22-04-2020 09:32:17 13.1 C 58 %
59 22-04-2020 09:42:17 13.1 C 58 %
60 22-04-2020 09:52:17 13.1 C 58 %
61 22-04-2020 10:02:17 13.1 C 58 %
62 22-04-2020 10:12:17 13 C 58 %
63 22-04-2020 10:22:17 13 C 58 %
64 22-04-2020 10:32:17 13 C 58 %
65 22-04-2020 10:42:17 13 C 59 %
66 22-04-2020 10:52:17 13 C 59 %
67 22-04-2020 11:02:17 13 C 59 %
68 22-04-2020 11:12:17 13 C 59 %
69 22-04-2020 11:22:17 13 C 59 %
70 22-04-2020 11:32:17 13 C 59 %
71 22-04-2020 11:42:17 13 C 60 %
72 22-04-2020 11:52:18 13 C 60 %
73 22-04-2020 12:02:18 13 C 60 %
74 22-04-2020 12:12:18 13 C 60 %
75 22-04-2020 12:22:17 13 C 60 %
Sensor: Nr:Datum:Temp:Feuchte:
G-T/H 76 22-04-2020 12:32:17 13 C 60 %
77 22-04-2020 12:42:17 13.1 C 60 %
78 22-04-2020 12:52:18 13.1 C 60 %
79 22-04-2020 13:02:17 13.1 C 60 %
80 22-04-2020 13:12:17 13.1 C 60 %
81 22-04-2020 13:22:17 13.1 C 60 %
82 22-04-2020 13:32:17 13.1 C 60 %
83 22-04-2020 13:42:17 13.1 C 60 %
84 22-04-2020 13:52:17 13.1 C 60 %
85 22-04-2020 14:02:17 13.2 C 60 %
86 22-04-2020 14:12:17 13.2 C 60 %
87 22-04-2020 14:22:17 13.2 C 60 %
88 22-04-2020 14:32:17 13.2 C 60 %
89 22-04-2020 14:42:17 13.2 C 60 %
90 22-04-2020 14:52:17 13.3 C 60 %
91 22-04-2020 15:02:17 13.3 C 60 %
92 22-04-2020 15:12:18 13.3 C 60 %
93 22-04-2020 15:22:17 13.3 C 60 %
94 22-04-2020 15:32:17 13.3 C 60 %
95 22-04-2020 15:42:17 13.3 C 60 %
96 22-04-2020 15:52:17 13.4 C 61 %
97 22-04-2020 16:02:17 13.4 C 61 %
98 22-04-2020 16:12:17 13.4 C 61 %
99 22-04-2020 16:22:17 13.4 C 61 %
100 22-04-2020 16:32:18 13.5 C 61 %
Sensor: Nr:Datum:Temp:Feuchte:
G-T/H 101 22-04-2020 16:42:18 13.5 C 61 %
102 22-04-2020 16:52:17 13.5 C 61 %
103 22-04-2020 17:02:17 13.5 C 61 %
104 22-04-2020 17:12:17 13.6 C 61 %
105 22-04-2020 17:22:17 13.6 C 61 %
106 22-04-2020 17:32:17 13.6 C 61 %
107 22-04-2020 17:42:17 13.6 C 61 %
108 22-04-2020 17:52:17 13.7 C 61 %
109 22-04-2020 18:02:17 13.7 C 60 %
110 22-04-2020 18:12:17 13.7 C 60 %
111 22-04-2020 18:22:17 13.7 C 59 %
112 22-04-2020 18:32:17 13.8 C 59 %
113 22-04-2020 18:42:17 13.8 C 59 %
114 22-04-2020 18:52:17 13.8 C 60 %
115 22-04-2020 19:02:17 13.8 C 60 %
116 22-04-2020 19:12:17 13.8 C 60 %
117 22-04-2020 19:22:17 13.8 C 60 %
118 22-04-2020 19:32:18 13.8 C 60 %
119 22-04-2020 19:42:18 13.8 C 61 %
120 22-04-2020 19:52:17 13.8 C 61 %
121 22-04-2020 20:02:18 13.8 C 61 %
122 22-04-2020 20:12:18 13.9 C 61 %
123 22-04-2020 20:22:17 13.8 C 61 %
124 22-04-2020 20:32:17 13.9 C 61 %
125 22-04-2020 20:42:17 13.9 C 61 %
Sensor: Nr:Datum:Temp:Feuchte:
G-T/H 126 22-04-2020 20:52:17 13.9 C 61 %
127 22-04-2020 21:02:17 13.8 C 60 %
128 22-04-2020 21:12:17 13.8 C 60 %
129 22-04-2020 21:22:17 13.9 C 60 %
130 22-04-2020 21:32:17 13.9 C 60 %
131 22-04-2020 21:42:17 13.8 C 60 %
132 22-04-2020 21:52:17 13.8 C 60 %
133 22-04-2020 22:02:17 13.8 C 60 %
134 22-04-2020 22:12:17 13.8 C 60 %
135 22-04-2020 22:22:17 13.8 C 60 %
136 22-04-2020 22:32:17 13.8 C 60 %
137 22-04-2020 22:42:17 13.9 C 60 %
138 22-04-2020 22:52:18 13.9 C 60 %
139 22-04-2020 23:02:17 13.8 C 60 %
140 22-04-2020 23:12:17 13.8 C 60 %
141 22-04-2020 23:22:17 13.8 C 60 %
142 22-04-2020 23:32:17 13.8 C 60 %
143 22-04-2020 23:42:17 13.8 C 60 %
144 22-04-2020 23:52:18 13.9 C 60 %
145 23-04-2020 00:02:17 13.8 C 60 %
146 23-04-2020 00:12:17 13.9 C 60 %
147 23-04-2020 00:22:17 13.8 C 60 %
148 23-04-2020 00:32:17 13.9 C 60 %
149 23-04-2020 00:42:17 13.9 C 60 %
150 23-04-2020 00:52:17 13.8 C 60 %
Sensor: Nr:Datum:Temp:Feuchte:
G-T/H 151 23-04-2020 01:02:17 13.9 C 60 %
152 23-04-2020 01:12:17 13.8 C 60 %
153 23-04-2020 01:22:18 13.8 C 60 %
154 23-04-2020 01:32:17 13.8 C 60 %
155 23-04-2020 01:42:17 13.8 C 60 %
156 23-04-2020 01:52:17 13.8 C 60 %
157 23-04-2020 02:02:17 13.8 C 60 %
158 23-04-2020 02:12:17 13.8 C 60 %
159 23-04-2020 02:22:18 13.8 C 60 %
160 23-04-2020 02:32:17 13.8 C 60 %
161 23-04-2020 02:42:17 13.8 C 60 %
162 23-04-2020 02:52:17 13.8 C 60 %
163 23-04-2020 03:02:18 13.8 C 60 %
164 23-04-2020 03:12:18 13.8 C 59 %
165 23-04-2020 03:22:17 13.8 C 59 %
166 23-04-2020 03:32:17 13.8 C 59 %
167 23-04-2020 03:42:17 13.8 C 59 %
168 23-04-2020 03:52:17 13.8 C 59 %
169 23-04-2020 04:02:17 13.8 C 59 %
170 23-04-2020 04:12:17 13.7 C 59 %
171 23-04-2020 04:22:17 13.7 C 59 %
172 23-04-2020 04:32:17 13.7 C 59 %
173 23-04-2020 04:42:17 13.7 C 58 %
174 23-04-2020 04:52:17 13.7 C 58 %
175 23-04-2020 05:02:17 13.7 C 58 %
Sensor: Nr:Datum:Temp:Feuchte:
G-T/H 176 23-04-2020 05:12:17 13.7 C 58 %
177 23-04-2020 05:22:17 13.7 C 58 %
178 23-04-2020 05:32:17 13.7 C 58 %
179 23-04-2020 05:42:17 13.6 C 58 %
180 23-04-2020 05:52:17 13.6 C 58 %
181 23-04-2020 06:02:17 13.6 C 58 %
182 23-04-2020 06:12:18 13.6 C 58 %
183 23-04-2020 06:22:17 13.6 C 58 %
184 23-04-2020 06:32:18 13.6 C 58 %
185 23-04-2020 06:42:18 13.5 C 58 %
186 23-04-2020 06:52:17 13.5 C 58 %
187 23-04-2020 07:02:17 13.5 C 58 %
188 23-04-2020 07:12:17 13.5 C 58 %
189 23-04-2020 07:22:17 13.5 C 58 %
190 23-04-2020 07:32:17 13.5 C 58 %
191 23-04-2020 07:42:17 13.5 C 58 %
192 23-04-2020 07:52:17 13.5 C 58 %
193 23-04-2020 08:02:17 13.4 C 58 %
194 23-04-2020 08:12:18 13.4 C 58 %
195 23-04-2020 08:22:18 13.4 C 58 %
196 23-04-2020 08:32:18 13.4 C 58 %
197 23-04-2020 08:42:18 13.4 C 58 %
198 23-04-2020 08:52:17 13.3 C 58 %
199 23-04-2020 09:02:17 13.3 C 58 %
200 23-04-2020 09:12:17 13.4 C 58 %
Sensor: Nr:Datum:Temp:Feuchte:
G-T/H 201 23-04-2020 09:22:17 13.3 C 58 %
202 23-04-2020 09:32:17 13.3 C 58 %
203 23-04-2020 09:42:17 13.3 C 58 %
204 23-04-2020 09:52:17 13.3 C 59 %
205 23-04-2020 10:02:18 13.3 C 59 %
206 23-04-2020 10:12:18 13.3 C 59 %
207 23-04-2020 10:22:17 13.3 C 59 %
208 23-04-2020 10:32:17 13.3 C 59 %
209 23-04-2020 10:42:17 13.2 C 59 %
210 23-04-2020 10:52:17 13.2 C 59 %
211 23-04-2020 11:02:18 13.2 C 59 %
212 23-04-2020 11:12:18 13.2 C 59 %
213 23-04-2020 11:22:17 13.2 C 60 %
214 23-04-2020 11:32:17 13.2 C 60 %
215 23-04-2020 11:42:17 13.2 C 60 %
216 23-04-2020 11:52:18 13.3 C 60 %
217 23-04-2020 12:02:17 13.3 C 61 %
218 23-04-2020 12:12:17 13.3 C 61 %
219 23-04-2020 12:22:17 13.3 C 61 %
220 23-04-2020 12:32:18 13.3 C 61 %
221 23-04-2020 12:42:18 13.3 C 61 %
222 23-04-2020 12:52:17 13.3 C 61 %
223 23-04-2020 13:02:17 13.3 C 61 %
224 23-04-2020 13:12:17 13.4 C 61 %
225 23-04-2020 13:22:17 13.3 C 61 %
Sensor: Nr:Datum:Temp:Feuchte:
G-T/H 226 23-04-2020 13:32:17 13.4 C 61 %
227 23-04-2020 13:42:17 13.4 C 61 %
228 23-04-2020 13:52:17 13.4 C 61 %
229 23-04-2020 14:02:17 13.4 C 61 %
230 23-04-2020 14:12:17 13.5 C 61 %
231 23-04-2020 14:22:17 13.4 C 61 %
232 23-04-2020 14:32:17 13.4 C 61 %
233 23-04-2020 14:42:17 13.5 C 61 %
234 23-04-2020 14:52:17 13.5 C 60 %
235 23-04-2020 15:02:17 13.5 C 60 %
236 23-04-2020 15:12:17 13.5 C 60 %
237 23-04-2020 15:22:18 13.5 C 60 %
238 23-04-2020 15:32:17 13.5 C 60 %
239 23-04-2020 15:42:17 13.6 C 61 %
240 23-04-2020 15:52:17 13.6 C 61 %
241 23-04-2020 16:02:18 13.6 C 61 %
242 23-04-2020 16:12:18 13.7 C 61 %
243 23-04-2020 16:22:17 13.7 C 61 %
244 23-04-2020 16:32:18 13.7 C 61 %
245 23-04-2020 16:42:18 13.7 C 61 %
246 23-04-2020 16:52:17 13.7 C 61 %
247 23-04-2020 17:02:17 13.8 C 61 %
248 23-04-2020 17:12:18 13.7 C 61 %
249 23-04-2020 17:22:17 13.8 C 61 %
250 23-04-2020 17:32:18 13.8 C 61 %
Sensor: Nr:Datum:Temp:Feuchte:
G-T/H 251 23-04-2020 17:42:18 13.8 C 61 %
252 23-04-2020 17:52:18 13.9 C 61 %
253 23-04-2020 18:02:17 13.9 C 61 %
254 23-04-2020 18:12:17 13.9 C 61 %
255 23-04-2020 18:22:17 14 C 60 %
256 23-04-2020 18:32:17 14 C 60 %
257 23-04-2020 18:42:17 14 C 60 %
258 23-04-2020 18:52:17 14 C 60 %
259 23-04-2020 19:02:17 14 C 60 %
260 23-04-2020 19:12:17 14.1 C 60 %
261 23-04-2020 19:22:17 14.1 C 60 %
262 23-04-2020 19:32:18 14 C 60 %
263 23-04-2020 19:42:18 14.1 C 60 %
264 23-04-2020 19:52:17 14.1 C 60 %
265 23-04-2020 20:02:18 14.1 C 60 %
266 23-04-2020 20:12:18 14.1 C 60 %
267 23-04-2020 20:22:17 14.1 C 60 %
268 23-04-2020 20:32:18 14.1 C 60 %
269 23-04-2020 20:42:18 14 C 60 %
270 23-04-2020 20:52:18 14.1 C 60 %
271 23-04-2020 21:02:18 14.1 C 60 %
272 23-04-2020 21:12:18 14.1 C 60 %
273 23-04-2020 21:22:17 14.1 C 60 %
274 23-04-2020 21:32:17 14.1 C 60 %
275 23-04-2020 21:42:17 14.1 C 60 %
Sensor: Nr:Datum:Temp:Feuchte:
G-T/H 276 23-04-2020 21:52:17 14.1 C 61 %
277 23-04-2020 22:02:17 14 C 61 %
278 23-04-2020 22:12:17 14.1 C 60 %
279 23-04-2020 22:22:17 14 C 59 %
280 23-04-2020 22:32:18 14 C 59 %
281 23-04-2020 22:42:18 14 C 59 %
282 23-04-2020 22:52:18 14.1 C 59 %
283 23-04-2020 23:02:18 14.1 C 59 %
284 23-04-2020 23:12:18 14.1 C 59 %
285 23-04-2020 23:22:18 14 C 59 %
286 23-04-2020 23:32:17 14.1 C 59 %
287 23-04-2020 23:42:17 14.1 C 59 %
288 23-04-2020 23:52:17 14 C 59 %
289 24-04-2020 00:02:18 14.1 C 59 %
290 24-04-2020 00:12:18 14 C 59 %
291 24-04-2020 00:22:17 14 C 59 %
292 24-04-2020 00:32:18 14 C 59 %
293 24-04-2020 00:42:18 14 C 59 %
294 24-04-2020 00:52:17 14 C 59 %
295 24-04-2020 01:02:18 14 C 59 %
296 24-04-2020 01:12:18 14 C 59 %
297 24-04-2020 01:22:17 14 C 59 %
298 24-04-2020 01:32:18 14 C 59 %
299 24-04-2020 01:42:18 14 C 59 %
300 24-04-2020 01:52:17 14 C 58 %
Sensor: Nr:Datum:Temp:Feuchte:
G-T/H 301 24-04-2020 02:02:17 14 C 58 %
302 24-04-2020 02:12:17 14 C 58 %
303 24-04-2020 02:22:17 13.9 C 59 %
304 24-04-2020 02:32:18 13.9 C 59 %
305 24-04-2020 02:42:18 13.9 C 59 %
306 24-04-2020 02:52:18 13.9 C 59 %
307 24-04-2020 03:02:17 13.9 C 59 %
308 24-04-2020 03:12:18 13.9 C 59 %
309 24-04-2020 03:22:17 13.9 C 59 %
310 24-04-2020 03:32:17 13.9 C 59 %
311 24-04-2020 03:42:17 13.9 C 59 %
312 24-04-2020 03:52:17 13.8 C 59 %
313 24-04-2020 04:02:17 13.8 C 59 %
314 24-04-2020 04:12:17 13.8 C 59 %
315 24-04-2020 04:22:17 13.8 C 59 %
316 24-04-2020 04:32:17 13.8 C 59 %
317 24-04-2020 04:42:17 13.8 C 59 %
318 24-04-2020 04:52:17 13.8 C 58 %
319 24-04-2020 05:02:17 13.8 C 58 %
320 24-04-2020 05:12:17 13.8 C 58 %
321 24-04-2020 05:22:17 13.7 C 58 %
322 24-04-2020 05:32:18 13.7 C 58 %
323 24-04-2020 05:42:18 13.7 C 58 %
324 24-04-2020 05:52:17 13.7 C 58 %
325 24-04-2020 06:02:17 13.7 C 58 %
Sensor: Nr:Datum:Temp:Feuchte:
G-T/H 326 24-04-2020 06:12:17 13.7 C 58 %
327 24-04-2020 06:22:18 13.7 C 58 %
328 24-04-2020 06:32:17 13.6 C 58 %
329 24-04-2020 06:42:17 13.6 C 58 %
330 24-04-2020 06:52:17 13.6 C 58 %
331 24-04-2020 07:02:17 13.6 C 58 %
332 24-04-2020 07:12:17 13.5 C 59 %
333 24-04-2020 07:22:17 13.6 C 59 %
334 24-04-2020 07:32:18 13.6 C 59 %
335 24-04-2020 07:42:18 13.5 C 59 %
336 24-04-2020 07:52:17 13.5 C 59 %
337 24-04-2020 08:02:18 13.5 C 59 %
338 24-04-2020 08:12:18 13.5 C 59 %
339 24-04-2020 08:22:17 13.5 C 59 %
340 24-04-2020 08:32:17 13.5 C 59 %
341 24-04-2020 08:42:17 13.5 C 59 %
342 24-04-2020 08:52:17 13.5 C 59 %
343 24-04-2020 09:02:17 13.5 C 59 %
344 24-04-2020 09:12:18 13.4 C 59 %
345 24-04-2020 09:22:17 13.4 C 59 %
346 24-04-2020 09:32:18 13.4 C 59 %
347 24-04-2020 09:42:18 13.4 C 59 %
348 24-04-2020 09:52:17 13.4 C 59 %
349 24-04-2020 10:02:17 13.4 C 60 %
350 24-04-2020 10:12:17 13.4 C 60 %
Sensor: Nr:Datum:Temp:Feuchte:
G-T/H 351 24-04-2020 10:22:17 13.4 C 60 %
352 24-04-2020 10:32:17 13.4 C 60 %
353 24-04-2020 10:42:17 13.4 C 61 %
354 24-04-2020 10:52:17 13.4 C 61 %
355 24-04-2020 11:02:17 13.4 C 61 %
356 24-04-2020 11:12:18 13.4 C 61 %
357 24-04-2020 11:22:17 13.4 C 62 %
358 24-04-2020 11:32:18 13.4 C 62 %
359 24-04-2020 11:42:18 13.5 C 62 %
360 24-04-2020 11:52:17 13.7 C 60 %
361 24-04-2020 12:02:17 14 C 59 %
362 24-04-2020 12:12:17 14.1 C 58 %
363 24-04-2020 12:22:17 14.4 C 57 %
364 24-04-2020 12:32:18 14.5 C 57 %
365 24-04-2020 12:42:18 14.6 C 56 %
366 24-04-2020 12:52:18 14.8 C 55 %
367 24-04-2020 13:02:17 14.9 C 53 %
368 24-04-2020 13:12:17 15.1 C 51 %
369 24-04-2020 13:22:17 15.2 C 50 %
370 24-04-2020 13:32:18 15.4 C 48 %
371 24-04-2020 13:42:18 15.5 C 46 %
372 24-04-2020 13:52:17 15.5 C 46 %
373 24-04-2020 14:02:17 15.6 C 46 %
374 24-04-2020 14:12:17 15.9 C 45 %
375 24-04-2020 14:22:17 16 C 45 %
Sensor: Nr:Datum:Temp:Feuchte:
G-T/H 376 24-04-2020 14:32:17 16.1 C 45 %
377 24-04-2020 14:42:17 16.2 C 46 %
378 24-04-2020 14:52:17 16.2 C 46 %
379 24-04-2020 15:02:18 16.3 C 46 %
380 24-04-2020 15:12:18 16.4 C 46 %
381 24-04-2020 15:22:17 16.6 C 45 %
382 24-04-2020 15:32:17 16.6 C 44 %
383 24-04-2020 15:42:18 16.6 C 43 %
384 24-04-2020 15:52:17 16.6 C 43 %
385 24-04-2020 16:02:18 16.7 C 42 %
386 24-04-2020 16:12:18 16.8 C 41 %
387 24-04-2020 16:22:18 16.8 C 40 %
388 24-04-2020 16:32:18 16.9 C 40 %
389 24-04-2020 16:42:18 16.9 C 39 %
390 24-04-2020 16:52:17 16.9 C 38 %
391 24-04-2020 17:02:17 17 C 37 %
392 24-04-2020 17:12:17 17.1 C 37 %
393 24-04-2020 17:22:18 17.1 C 36 %
394 24-04-2020 17:32:18 17.2 C 36 %
395 24-04-2020 17:42:18 17.1 C 35 %
396 24-04-2020 17:52:17 17.2 C 35 %
397 24-04-2020 18:02:18 17.2 C 35 %
398 24-04-2020 18:12:18 17.2 C 36 %
399 24-04-2020 18:22:17 17.2 C 36 %
400 24-04-2020 18:32:17 17.2 C 37 %
Sensor: Nr:Datum:Temp:Feuchte:
G-T/H 401 24-04-2020 18:42:17 17.2 C 38 %
402 24-04-2020 18:52:18 17.2 C 39 %
403 24-04-2020 19:02:17 17.2 C 39 %
404 24-04-2020 19:12:17 17.2 C 40 %
405 24-04-2020 19:23:17 17 C 40 %
406 24-04-2020 19:32:17 16.8 C 41 %
407 24-04-2020 19:42:18 16.7 C 42 %
408 24-04-2020 19:53:17 16.6 C 42 %
409 24-04-2020 20:02:18 16.6 C 43 %
410 24-04-2020 20:12:18 16.4 C 44 %
411 24-04-2020 20:22:17 16.5 C 44 %
412 24-04-2020 20:32:18 16.4 C 45 %
413 24-04-2020 20:42:18 16.3 C 45 %
414 24-04-2020 20:52:18 16.3 C 46 %
415 24-04-2020 21:02:18 16.3 C 46 %
416 24-04-2020 21:12:18 16.2 C 47 %
417 24-04-2020 21:23:17 16.2 C 47 %
418 24-04-2020 21:33:17 16.1 C 47 %
419 24-04-2020 21:42:17 16.1 C 48 %
420 24-04-2020 21:52:17 16 C 48 %
421 24-04-2020 22:03:17 16 C 49 %
422 24-04-2020 22:13:17 16 C 49 %
423 24-04-2020 22:22:18 15.9 C 50 %
424 24-04-2020 22:32:18 15.9 C 51 %
425 24-04-2020 22:42:18 15.9 C 51 %
Sensor: Nr:Datum:Temp:Feuchte:
G-T/H 426 24-04-2020 22:52:18 15.8 C 51 %
427 24-04-2020 23:02:18 15.8 C 52 %
428 24-04-2020 23:12:18 15.8 C 52 %
429 24-04-2020 23:22:17 15.8 C 52 %
430 24-04-2020 23:33:17 15.7 C 52 %
431 24-04-2020 23:43:17 15.7 C 53 %
432 24-04-2020 23:53:17 15.7 C 53 %
433 25-04-2020 00:02:18 15.7 C 53 %
434 25-04-2020 00:12:18 15.6 C 53 %
435 25-04-2020 00:23:17 15.6 C 53 %
436 25-04-2020 00:32:18 15.6 C 53 %
437 25-04-2020 00:42:18 15.6 C 54 %
438 25-04-2020 00:52:18 15.5 C 54 %
439 25-04-2020 01:03:17 15.5 C 54 %
440 25-04-2020 01:12:17 15.5 C 54 %
441 25-04-2020 01:23:17 15.4 C 54 %
442 25-04-2020 01:33:17 15.4 C 54 %
443 25-04-2020 01:43:17 15.4 C 54 %
444 25-04-2020 01:52:17 15.4 C 54 %
445 25-04-2020 02:02:18 15.4 C 54 %
446 25-04-2020 02:12:18 15.3 C 54 %
447 25-04-2020 02:23:17 15.3 C 54 %
448 25-04-2020 02:33:17 15.3 C 53 %
449 25-04-2020 02:43:17 15.3 C 53 %
450 25-04-2020 02:53:17 15.2 C 53 %
Sensor: Nr:Datum:Temp:Feuchte:
G-T/H 451 25-04-2020 03:03:17 15.2 C 53 %
452 25-04-2020 03:13:17 15.2 C 52 %
453 25-04-2020 03:22:18 15.2 C 52 %
454 25-04-2020 03:33:17 15.2 C 52 %
455 25-04-2020 03:43:17 15.1 C 52 %
456 25-04-2020 03:53:17 15.1 C 52 %
457 25-04-2020 04:02:18 15.1 C 52 %
458 25-04-2020 04:12:18 15.1 C 52 %
459 25-04-2020 04:23:17 15 C 52 %
460 25-04-2020 04:33:18 15 C 52 %
461 25-04-2020 04:42:18 15 C 51 %
462 25-04-2020 04:53:17 15 C 51 %
463 25-04-2020 05:03:17 15 C 51 %
464 25-04-2020 05:13:18 14.9 C 52 %
465 25-04-2020 05:23:18 14.9 C 52 %
466 25-04-2020 05:32:18 14.9 C 52 %
467 25-04-2020 05:42:18 14.8 C 53 %
468 25-04-2020 05:53:18 14.8 C 53 %
469 25-04-2020 06:02:18 14.8 C 53 %
470 25-04-2020 06:12:18 14.8 C 53 %
471 25-04-2020 06:23:17 14.7 C 53 %
472 25-04-2020 06:33:17 14.7 C 53 %
473 25-04-2020 06:43:18 14.7 C 53 %
474 25-04-2020 06:53:17 14.7 C 53 %
475 25-04-2020 07:03:18 14.7 C 53 %
Sensor: Nr:Datum:Temp:Feuchte:
G-T/H 476 25-04-2020 07:12:18 14.6 C 53 %
477 25-04-2020 07:23:17 14.6 C 53 %
478 25-04-2020 07:32:18 14.6 C 53 %
479 25-04-2020 07:42:18 14.6 C 53 %
480 25-04-2020 07:52:18 14.5 C 53 %
481 25-04-2020 08:03:17 14.5 C 53 %
482 25-04-2020 08:13:17 14.5 C 53 %